Provisional Data: South Branch Tunkhannock Creek near La Plume, PA


Please select a monitoring station.
Please select start date.
Please select start date.

Toggle Unit: C/F Toggle Unit: C/F
Sample Time Temperature (C) Temperature (F) Specific Conductivity (mS/cm) pH   Turbidity (NTU+) DO (mg/L)
9/6/2021 12:00:00 AM 18.28 64.904 0.168 7.37 4.55 8.94
9/6/2021 12:15:00 AM 18.26 64.868 0.168 7.38 4.4 8.94
9/6/2021 12:30:00 AM 18.24 64.832 0.168 7.38 4.54 8.95
9/6/2021 12:45:00 AM 18.22 64.796 0.168 7.38 4.41 8.96
9/6/2021 1:00:00 AM 18.21 64.778 0.168 7.38 4.1 8.94
9/6/2021 1:15:00 AM 18.2 64.76 0.167 7.39 4.4 8.97
9/6/2021 1:30:00 AM 18.19 64.742 0.167 7.38 4.19 8.95
9/6/2021 1:45:00 AM 18.19 64.742 0.167 7.38 4.25 8.96
9/6/2021 2:00:00 AM 18.2 64.76 0.167 7.4 4.22 8.96
9/6/2021 2:15:00 AM 18.22 64.796 0.167 7.4 4 8.95
9/6/2021 2:30:00 AM 18.23 64.814 0.168 7.39 4.23 8.93
9/6/2021 2:45:00 AM 18.25 64.85 0.168 7.34 4.58 8.95
9/6/2021 3:00:00 AM 18.26 64.868 0.168 7.39 4.53 8.92
9/6/2021 3:15:00 AM 18.27 64.886 0.168 7.38 3.71 8.91
9/6/2021 3:30:00 AM 18.28 64.904 0.168 7.38 4.09 8.85
9/6/2021 3:45:00 AM 18.28 64.904 0.168 7.38 4.79 8.89
9/6/2021 4:00:00 AM 18.28 64.904 0.167 7.34 4.17 8.92
9/6/2021 4:15:00 AM 18.28 64.904 0.167 7.39 4.09 8.92
9/6/2021 4:30:00 AM 18.29 64.922 0.167 7.4 4.46 8.93
9/6/2021 4:45:00 AM 18.29 64.922 0.167 7.39 3.99 8.93
9/6/2021 5:00:00 AM 18.29 64.922 0.167 7.39 4.29 8.92
9/6/2021 5:15:00 AM 18.29 64.922 0.167 7.39 4.27 8.92
9/6/2021 5:30:00 AM 18.29 64.922 0.167 7.38 4.47 8.84
9/6/2021 5:45:00 AM 18.28 64.904 0.168 7.4 4.52 8.91
9/6/2021 6:00:00 AM 18.28 64.904 0.168 7.39 4.4 8.91
9/6/2021 6:15:00 AM 18.27 64.886 0.168 7.34 4.23 8.86
9/6/2021 6:30:00 AM 18.25 64.85 0.168 7.38 4.71 8.86
9/6/2021 6:45:00 AM 18.23 64.814 0.168 7.39 4.19 8.84
9/6/2021 7:00:00 AM 18.21 64.778 0.168 7.39 4.48 8.82
9/6/2021 7:15:00 AM 18.2 64.76 0.168 7.39 4.03 8.79
9/6/2021 7:30:00 AM 18.19 64.742 0.168 7.38 4.06 8.83
9/6/2021 7:45:00 AM 18.17 64.706 0.169 7.35 4.11 8.81
9/6/2021 8:00:00 AM 18.16 64.688 0.169 7.4 3.6 8.83
9/6/2021 8:15:00 AM 18.16 64.688 0.169 7.4 4.07 8.96
9/6/2021 8:30:00 AM 18.15 64.67 0.169 7.39 4.16 8.89
9/6/2021 8:45:00 AM 18.16 64.688 0.169 7.39 3.9 8.84
9/6/2021 9:00:00 AM 18.17 64.706 0.168 7.4 3.52 8.93
9/6/2021 9:15:00 AM 18.2 64.76 0.168 7.42 3.48 8.94
9/6/2021 9:30:00 AM 18.23 64.814 0.168 7.42 3.7 8.97
9/6/2021 9:45:00 AM 18.24 64.832 0.168 7.42 4.05 8.92
9/6/2021 10:00:00 AM 18.27 64.886 0.168 7.41 3.73 8.91
9/6/2021 10:15:00 AM 18.32 64.976 0.168 7.37 3.62 8.91
9/6/2021 10:30:00 AM 18.38 65.084 0.168 7.43 3.87 8.92
9/6/2021 10:45:00 AM 18.45 65.21 0.169 7.43 3.68 8.92
9/6/2021 11:00:00 AM 18.53 65.354 0.169 7.44 3.71 8.98
9/6/2021 11:15:00 AM 18.61 65.498 0.169 7.45 3.54 9.09
9/6/2021 11:30:00 AM 18.69 65.642 0.17 7.46 3.33 9
9/6/2021 11:45:00 AM 18.76 65.768 0.17 7.47 3.59 8.97
9/6/2021 12:00:00 PM 18.86 65.948 0.17 7.45 3.38 8.94
9/6/2021 12:15:00 PM 18.98 66.164 0.17 7.48 3.32 8.95
9/6/2021 12:30:00 PM 19.09 66.362 0.17 7.43 3.86 8.92
9/6/2021 12:45:00 PM 19.23 66.614 0.17 7.49 3.36 8.96
9/6/2021 1:00:00 PM 19.33 66.794 0.17 7.49 3.41 8.9
9/6/2021 1:15:00 PM 19.47 67.046 0.17 7.5 3.47 8.95
9/6/2021 1:30:00 PM 19.57 67.226 0.17 7.51 3.78 8.96
9/6/2021 1:45:00 PM 19.65 67.37 0.17 7.52 4.03 8.99
9/6/2021 2:00:00 PM 19.74 67.532 0.17 7.5 3.58 8.88
9/6/2021 2:15:00 PM 19.88 67.784 0.17 7.51 3.55 8.85
9/6/2021 2:30:00 PM 20.04 68.07201 0.17 7.5 3.06 8.82
9/6/2021 2:45:00 PM 20.1 68.18 0.17 7.53 3.67 8.84
9/6/2021 3:00:00 PM 20.13 68.234 0.17 7.45 3.51 8.75
9/6/2021 3:15:00 PM 20.1 68.18 0.17 7.52 3.39 8.77
9/6/2021 3:30:00 PM 20.09 68.162 0.17 7.51 3.53 8.76
9/6/2021 3:45:00 PM 20.09 68.162 0.171 7.5 3.52 8.73
9/6/2021 4:00:00 PM 20.08 68.144 0.171 7.47 3.41 8.8
9/6/2021 4:15:00 PM 20.03 68.054 0.171 7.49 5.38 8.72
9/6/2021 4:30:00 PM 19.97 67.946 0.171 7.49 3.23 8.74
9/6/2021 4:45:00 PM 19.89 67.802 0.171 7.48 3.57 8.77
9/6/2021 5:00:00 PM 19.83 67.694 0.171 7.47 3.34 8.74
9/6/2021 5:15:00 PM 19.74 67.532 0.171 7.43 3.06 8.74
9/6/2021 5:30:00 PM 19.66 67.388 0.171 7.45 3.35 8.72
9/6/2021 5:45:00 PM 19.58 67.244 0.171 7.43 2.99 8.67
9/6/2021 6:00:00 PM 19.48 67.064 0.171 7.42 3.32 8.71
9/6/2021 6:15:00 PM 19.41 66.938 0.172 7.43 3.13 8.72
9/6/2021 6:30:00 PM 19.34 66.812 0.172 7.41 3.32 8.72
9/6/2021 6:45:00 PM 19.25 66.65 0.172 7.42 3.06 8.77
9/6/2021 7:00:00 PM 19.19 66.542 0.172 7.4 3.02 8.69
9/6/2021 7:15:00 PM 19.09 66.362 0.173 7.37 3.21 8.74
9/6/2021 7:30:00 PM 19 66.2 0.173 7.4 3.08 8.75
9/6/2021 7:45:00 PM 18.93 66.074 0.173 7.4 2.86 8.76
9/6/2021 8:00:00 PM 18.8 65.84 0.173 7.39 3.16 8.79
9/6/2021 8:15:00 PM 18.7 65.66 0.173 7.4 3.2 8.81
9/6/2021 8:30:00 PM 18.62 65.516 0.173 7.4 3.4 8.83
9/6/2021 8:45:00 PM 18.55 65.39 0.173 7.38 3.41 8.8
9/6/2021 9:00:00 PM 18.44 65.192 0.173 7.38 3.44 8.83
9/6/2021 9:15:00 PM 18.35 65.03 0.173 7.39 4.23 8.9
9/6/2021 9:30:00 PM 18.28 64.904 0.173 7.39 3.48 8.9
9/6/2021 9:45:00 PM 18.22 64.796 0.173 7.38 3.36 8.89
9/6/2021 10:00:00 PM 18.17 64.706 0.172 7.38 3.39 8.88
9/6/2021 10:15:00 PM 18.14 64.652 0.172 7.37 2.81 8.86
9/6/2021 10:30:00 PM 18.14 64.652 0.172 7.37 2.74 8.85
9/6/2021 10:45:00 PM 18.18 64.724 0.172 7.37 3.23 8.89
9/6/2021 11:00:00 PM 18.23 64.814 0.171 7.38 3.29 8.89
9/6/2021 11:15:00 PM 18.28 64.904 0.171 7.39 3.3 8.89
9/6/2021 11:30:00 PM 18.33 64.994 0.171 7.39 3.32 8.87
9/6/2021 11:45:00 PM 18.36 65.048 0.171 7.38 3.31 8.87
9/7/2021 12:00:00 AM 18.38 65.084 0.171 7.38 3.68 8.87
9/7/2021 12:15:00 AM 18.39 65.102 0.17 7.39 3.49 8.84
9/7/2021 12:30:00 AM 18.4 65.12 0.17 7.39 3.69 8.85
9/7/2021 12:45:00 AM 18.39 65.102 0.171 7.39 3.39 8.87
9/7/2021 1:00:00 AM 18.38 65.084 0.171 7.35 3.59 8.84
9/7/2021 1:15:00 AM 18.37 65.066 0.17 7.35 3.04 8.86
9/7/2021 1:30:00 AM 18.35 65.03 0.17 7.38 3.6 8.84
9/7/2021 1:45:00 AM 18.32 64.976 0.17 7.37 3.17 8.86
9/7/2021 2:00:00 AM 18.29 64.922 0.17 7.38 3.03 8.87
9/7/2021 2:15:00 AM 18.26 64.868 0.171 7.37 3.45 8.87
9/7/2021 2:30:00 AM 18.22 64.796 0.171 7.37 3.45 8.87
9/7/2021 2:45:00 AM 18.18 64.724 0.171 7.37 3.71 8.88
9/7/2021 3:00:00 AM 18.13 64.634 0.171 7.37 3.06 8.88
9/7/2021 3:15:00 AM 18.08 64.544 0.171 7.36 3.46 8.9
9/7/2021 3:30:00 AM 18.02 64.436 0.171 7.36 3.51 8.91
9/7/2021 3:45:00 AM 17.97 64.346 0.171 7.35 3.38 8.91
9/7/2021 4:00:00 AM 17.91 64.238 0.171 7.35 3.45 8.93
9/7/2021 4:15:00 AM 17.85 64.13 0.171 7.31 3.24 8.93
9/7/2021 4:30:00 AM 17.79 64.022 0.171 7.35 3.47 8.95
9/7/2021 4:45:00 AM 17.71 63.878 0.171 7.3 3.77 8.96
9/7/2021 5:00:00 AM 17.66 63.788 0.171 7.35 3.51 8.92
9/7/2021 5:15:00 AM 17.6 63.68 0.171 7.32 3.89 9.01
9/7/2021 5:30:00 AM 17.55 63.59 0.171 7.36 3.22 9
9/7/2021 5:45:00 AM 17.5 63.5 0.171 7.33 3.47 8.93
9/7/2021 6:00:00 AM 17.46 63.428 0.172 7.32 3.22 8.94
9/7/2021 6:15:00 AM 17.41 63.338 0.172 7.33 3.1 9.04
9/7/2021 6:30:00 AM 17.37 63.266 0.172 7.34 3.33 8.97
9/7/2021 6:45:00 AM 17.33 63.194 0.172 7.31 3.24 8.83
9/7/2021 7:00:00 AM 17.3 63.14 0.172 7.28 3.2 8.89
9/7/2021 7:15:00 AM 17.27 63.086 0.172 7.32 2.94 8.75
9/7/2021 7:30:00 AM 17.24 63.032 0.172 7.28 3.11 8.97
9/7/2021 7:45:00 AM 17.23 63.014 0.171 7.33 2.96 8.95
9/7/2021 8:00:00 AM 17.22 62.996 0.171 7.34 3.74 9
9/7/2021 8:15:00 AM 17.23 63.014 0.171 7.34 3.38 9.08
9/7/2021 8:30:00 AM 17.24 63.032 0.171 7.33 3.32 8.98
9/7/2021 8:45:00 AM 17.26 63.068 0.172 7.31 3.54 9.14
9/7/2021 9:00:00 AM 17.29 63.122 0.172 7.34 2.93 9.12
9/7/2021 9:15:00 AM 17.33 63.194 0.172 7.37 3.02 9.06
9/7/2021 9:30:00 AM 17.38 63.284 0.172 7.37 2.9 9.06
9/7/2021 9:45:00 AM 17.44 63.392 0.172 7.39 3.3 9.12
9/7/2021 10:00:00 AM 17.51 63.518 0.172 7.4 3.28 9.13
9/7/2021 10:15:00 AM 17.58 63.644 0.172 7.39 3.22 9.08
9/7/2021 10:30:00 AM 17.65 63.77 0.172 7.4 2.96 9.13
9/7/2021 10:45:00 AM 17.74 63.932 0.172 7.42 2.82 9.21
9/7/2021 11:00:00 AM 17.83 64.094 0.173 7.43 2.88 9.15
9/7/2021 11:15:00 AM 17.93 64.274 0.173 7.42 3.36 9.2
9/7/2021 11:30:00 AM 18.06 64.508 0.173 7.42 3.19 9.21
9/7/2021 11:45:00 AM 18.2 64.76 0.173 7.45 2.76 9.18
9/7/2021 12:00:00 PM 18.33 64.994 0.173 7.45 3.14 9.16
9/7/2021 12:15:00 PM 18.46 65.228 0.173 7.47 2.92 9.15
9/7/2021 12:30:00 PM 18.61 65.498 0.173 7.49 2.98 9.18
9/7/2021 12:45:00 PM 18.77 65.786 0.173 7.48 2.95 9.18
9/7/2021 1:00:00 PM 18.9 66.02 0.173 7.47 2.78 9.11
9/7/2021 1:15:00 PM 19.06 66.308 0.173 7.46 3.3 9.09
9/7/2021 1:30:00 PM 19.19 66.542 0.173 7.47 2.79 9.01
9/7/2021 1:45:00 PM 19.4 66.92 0.173 7.52 3.13 9.08
9/7/2021 2:00:00 PM 19.52 67.136 0.173 7.51 3.07 9.02
9/7/2021 2:15:00 PM 19.67 67.406 0.173 7.48 2.72 8.98
9/7/2021 2:30:00 PM 19.83 67.694 0.173 7.51 2.75 8.95
9/7/2021 2:45:00 PM 19.95 67.91 0.173 7.5 3.22 8.95
9/7/2021 3:00:00 PM 20.03 68.054 0.173 7.53 2.76 8.9
9/7/2021 3:15:00 PM 20.11 68.198 0.173 7.54 2.99 8.91
9/7/2021 3:30:00 PM 20.18 68.324 0.173 7.51 2.59 8.83
9/7/2021 3:45:00 PM 20.22 68.396 0.173 7.52 2.99 8.84
9/7/2021 4:00:00 PM 20.27 68.486 0.173 7.5 3.11 8.82
9/7/2021 4:15:00 PM 20.27 68.486 0.174 7.47 2.7 8.72
9/7/2021 4:30:00 PM 20.26 68.468 0.174 7.51 2.57 8.75
9/7/2021 4:45:00 PM 20.23 68.414 0.174 7.43 2.8 8.72
9/7/2021 5:00:00 PM 20.21 68.378 0.174 7.46 2.69 8.58
9/7/2021 5:15:00 PM 20.15 68.27 0.174 7.47 2.86 8.64
9/7/2021 5:30:00 PM 20.13 68.234 0.174 7.45 2.81 8.54
9/7/2021 5:45:00 PM 20.05 68.09 0.174 7.45 2.89 8.62
9/7/2021 6:00:00 PM 20.01 68.018 0.174 7.42 2.57 8.53
9/7/2021 6:15:00 PM 19.93 67.874 0.175 7.41 3.66 8.59
9/7/2021 6:30:00 PM 19.87 67.766 0.175 7.43 2.77 8.61
9/7/2021 6:45:00 PM 19.8 67.64 0.175 7.38 2.81 8.57
9/7/2021 7:00:00 PM 19.73 67.514 0.175 7.41 3.21 8.57
9/7/2021 7:15:00 PM 19.64 67.352 0.175 7.4 3.06 8.62
9/7/2021 7:30:00 PM 19.57 67.226 0.175 7.4 2.75 8.64
9/7/2021 7:45:00 PM 19.49 67.082 0.175 7.39 2.95 8.61
9/7/2021 8:00:00 PM 19.42 66.956 0.175 7.39 3.22 8.63
9/7/2021 8:15:00 PM 19.34 66.812 0.175 7.38 2.61 8.67
9/7/2021 8:30:00 PM 19.27 66.686 0.175 7.37 3.09 8.65
9/7/2021 8:45:00 PM 19.23 66.614 0.175 7.37 3.02 8.61
9/7/2021 9:00:00 PM 19.16 66.488 0.176 7.34 3.36 8.66
9/7/2021 9:15:00 PM 19.11 66.398 0.176 7.37 2.91 8.67
9/7/2021 9:30:00 PM 19.06 66.308 0.176 7.36 3.27 8.66
9/7/2021 9:45:00 PM 19.02 66.236 0.175 7.37 3.47 8.66
9/7/2021 10:00:00 PM 18.97 66.146 0.175 7.36 2.64 8.61
9/7/2021 10:15:00 PM 18.92 66.056 0.176 7.36 3.39 8.66
9/7/2021 10:30:00 PM 18.88 65.984 0.176 7.36 3.18 8.67
9/7/2021 10:45:00 PM 18.83 65.894 0.176 7.36 3.25 8.69
9/7/2021 11:00:00 PM 18.78 65.804 0.176 7.31 3.22 8.66
9/7/2021 11:15:00 PM 18.73 65.714 0.176 7.36 3.14 8.7
9/7/2021 11:30:00 PM 18.68 65.624 0.176 7.35 3.09 8.73
9/7/2021 11:45:00 PM 18.64 65.552 0.176 7.31 3.46 8.71
9/8/2021 12:00:00 AM 18.59 65.462 0.176 7.32 3.46 8.75
9/8/2021 12:15:00 AM 18.55 65.39 0.176 7.35 3.36 8.74
9/8/2021 12:30:00 AM 18.51 65.318 0.176 7.35 3.47 8.77
9/8/2021 12:45:00 AM 18.46 65.228 0.176 7.35 3.06 8.76
9/8/2021 1:00:00 AM 18.41 65.138 0.176 7.34 3.09 8.78
9/8/2021 1:15:00 AM 18.36 65.048 0.176 7.35 3.05 8.8
9/8/2021 1:30:00 AM 18.31 64.958 0.176 7.35 3.33 8.81
9/8/2021 1:45:00 AM 18.26 64.868 0.177 7.35 2.81 8.81
9/8/2021 2:00:00 AM 18.2 64.76 0.177 7.35 2.97 8.84
9/8/2021 2:15:00 AM 18.15 64.67 0.177 7.34 2.71 8.86
9/8/2021 2:30:00 AM 18.11 64.598 0.177 7.34 2.98 8.87
9/8/2021 2:45:00 AM 18.07 64.526 0.177 7.34 3.05 8.86
9/8/2021 3:00:00 AM 18.04 64.472 0.177 7.34 2.95 8.87
9/8/2021 3:15:00 AM 18.02 64.436 0.177 7.35 2.91 8.91
9/8/2021 3:30:00 AM 18.01 64.418 0.177 7.33 2.77 8.89
9/8/2021 3:45:00 AM 18 64.4 0.177 7.36 3 8.89
9/8/2021 4:00:00 AM 18 64.4 0.177 7.36 2.83 8.89
9/8/2021 4:15:00 AM 18 64.4 0.177 7.36 3.1 8.88
9/8/2021 4:30:00 AM 18 64.4 0.177 7.34 2.84 8.89
9/8/2021 4:45:00 AM 18 64.4 0.177 7.36 2.85 8.89
9/8/2021 5:00:00 AM 17.99 64.382 0.177 7.34 3.23 8.89
9/8/2021 5:15:00 AM 17.99 64.382 0.177 7.36 3.12 8.89
9/8/2021 5:30:00 AM 17.98 64.364 0.177 7.36 2.96 8.9
9/8/2021 5:45:00 AM 17.97 64.346 0.178 7.36 2.81 8.89
9/8/2021 6:00:00 AM 17.96 64.328 0.178 7.32 3.06 8.87
9/8/2021 6:15:00 AM 17.95 64.31 0.178 7.35 3.11 8.77
9/8/2021 6:30:00 AM 17.94 64.292 0.178 7.35 3.38 8.74
9/8/2021 6:45:00 AM 17.93 64.274 0.178 7.35 2.9 8.75
9/8/2021 7:00:00 AM 17.92 64.256 0.178 7.31 2.97 8.59
9/8/2021 7:15:00 AM 17.92 64.256 0.178 7.34 2.96 8.8
9/8/2021 7:30:00 AM 17.93 64.274 0.178 7.36 3.08 8.87
9/8/2021 7:45:00 AM 17.95 64.31 0.178 7.36 2.82 8.77
9/8/2021 8:00:00 AM 17.99 64.382 0.178 7.35 3.06 8.9
9/8/2021 8:15:00 AM 18.05 64.49 0.178 7.39 2.76 8.89
9/8/2021 8:30:00 AM 18.09 64.562 0.179 7.4 2.83 8.78
9/8/2021 8:45:00 AM 18.12 64.616 0.179 7.38 2.83 8.81
9/8/2021 9:00:00 AM 18.14 64.652 0.179 7.4 2.66 8.74
9/8/2021 9:15:00 AM 18.21 64.778 0.179 7.39 2.69 9.04
9/8/2021 9:30:00 AM 18.26 64.868 0.179 7.43 3 9
9/8/2021 9:45:00 AM 18.33 64.994 0.179 7.45 2.62 9.05
9/8/2021 10:00:00 AM 18.4 65.12 0.179 7.45 2.95 9.08
9/8/2021 10:15:00 AM 18.48 65.264 0.179 7.47 3.05 9.04
9/8/2021 10:30:00 AM 18.56 65.408 0.179 7.42 2.53 9.11
9/8/2021 10:45:00 AM 18.67 65.606 0.179 7.46 2.66 9.1
9/8/2021 11:00:00 AM 18.77 65.786 0.179 7.48 2.87 9.05
9/8/2021 11:15:00 AM 18.88 65.984 0.179 7.46 2.71 9.03
9/8/2021 11:30:00 AM 19.01 66.218 0.18 7.51 2.61 9.08
9/8/2021 11:45:00 AM 19.15 66.47 0.18 7.51 2.49 9.05
9/8/2021 12:00:00 PM 19.3 66.74 0.18 7.51 2.68 9.03
9/8/2021 12:15:00 PM 19.47 67.046 0.18 7.52 2.43 9.06
9/8/2021 12:30:00 PM 19.66 67.388 0.18 7.57 2.98 9.07
9/8/2021 12:45:00 PM 19.82 67.676 0.18 7.58 2.92 9.12
9/8/2021 1:00:00 PM 19.94 67.892 0.181 7.56 2.81 9.03
9/8/2021 1:15:00 PM 20.07 68.126 0.181 7.58 2.87 9.07
9/8/2021 1:30:00 PM 20.24 68.432 0.181 7.6 2.64 9.08
9/8/2021 1:45:00 PM 20.36 68.648 0.181 7.6 2.52 9.06
9/8/2021 2:00:00 PM 20.51 68.918 0.181 7.62 2.69 9.05
9/8/2021 2:15:00 PM 20.68 69.224 0.181 7.64 2.59 9.08
9/8/2021 2:30:00 PM 20.75 69.35 0.181 7.63 2.85 9
9/8/2021 2:45:00 PM 20.84 69.512 0.181 7.59 2.63 8.95
9/8/2021 3:00:00 PM 20.91 69.638 0.181 7.61 2.79 8.88
9/8/2021 3:15:00 PM 21.01 69.818 0.181 7.59 2.68 8.94
9/8/2021 3:30:00 PM 21.1 69.98 0.181 7.61 2.77 8.9
9/8/2021 3:45:00 PM 21.17 70.106 0.181 7.63 2.48 8.87
9/8/2021 4:00:00 PM 21.19 70.142 0.181 7.61 2.64 8.82
9/8/2021 4:15:00 PM 21.18 70.124 0.181 7.57 2.68 8.71
9/8/2021 4:30:00 PM 21.15 70.07 0.181 7.56 2.5 8.63
9/8/2021 4:45:00 PM 21.11 69.998 0.181 7.52 2.52 8.52
9/8/2021 5:00:00 PM 21.05 69.89 0.181 7.48 2.62 8.44
9/8/2021 5:15:00 PM 20.99 69.782 0.182 7.48 2.47 8.46
9/8/2021 5:30:00 PM 20.94 69.692 0.182 7.45 2.66 8.4
9/8/2021 5:45:00 PM 20.86 69.548 0.182 7.44 2.52 8.44
9/8/2021 6:00:00 PM 20.76 69.368 0.182 7.46 2.41 8.43
9/8/2021 6:15:00 PM 20.63 69.134 0.181 7.43 2.4 8.39
9/8/2021 6:30:00 PM 20.49 68.882 0.178 7.41 3.28 8.46
9/8/2021 6:45:00 PM 20.39 68.702 0.178 7.41 3.62 8.42
9/8/2021 7:00:00 PM 20.24 68.432 0.177 7.39 6.63 8.45
9/8/2021 7:15:00 PM 20.1 68.18 0.178 7.37 10.11 8.44
9/8/2021 7:30:00 PM 20 68 0.179 7.35 9.38 8.38
9/8/2021 7:45:00 PM 19.88 67.784 0.179 7.36 8.66 8.41
9/8/2021 8:00:00 PM 19.78 67.604 0.178 7.35 8.38 8.42
9/8/2021 8:15:00 PM 19.68 67.424 0.178 7.28 6.85 8.39
9/8/2021 8:30:00 PM 19.58 67.244 0.178 7.34 7.4 8.43
9/8/2021 8:45:00 PM 19.49 67.082 0.178 7.32 6.98 8.36
9/8/2021 9:00:00 PM 19.42 66.956 0.178 7.33 5.36 8.43
9/8/2021 9:15:00 PM 19.35 66.83 0.179 7.28 5.69 8.46
9/8/2021 9:30:00 PM 19.29 66.722 0.181 7.36 5.9 8.47
9/8/2021 9:45:00 PM 19.24 66.632 0.183 7.35 5.52 8.43
9/8/2021 10:00:00 PM 19.17 66.506 0.184 7.36 6.66 8.52
9/8/2021 10:15:00 PM 19.13 66.434 0.184 7.36 6.08 8.52
9/8/2021 10:30:00 PM 19.09 66.362 0.184 7.36 5.91 8.49
9/8/2021 10:45:00 PM 19.05 66.29 0.185 7.31 6.17 8.52
9/8/2021 11:00:00 PM 19.01 66.218 0.186 7.35 5.5 8.48
9/8/2021 11:15:00 PM 18.97 66.146 0.185 7.35 5.08 8.5
9/8/2021 11:30:00 PM 18.92 66.056 0.185 7.33 4.75 8.55
9/8/2021 11:45:00 PM 18.87 65.966 0.185 7.36 5.21 8.59
9/9/2021 12:00:00 AM 18.83 65.894 0.185 7.34 5.07 8.54
9/9/2021 12:15:00 AM 18.8 65.84 0.185 7.36 5.3 8.54
9/9/2021 12:30:00 AM 18.77 65.786 0.184 7.35 4.61 8.62
9/9/2021 12:45:00 AM 18.76 65.768 0.184 7.3 4.27 8.61
9/9/2021 1:00:00 AM 18.75 65.75 0.184 7.36 4.08 8.6
9/9/2021 1:15:00 AM 18.75 65.75 0.184 7.35 4.15 8.56
9/9/2021 1:30:00 AM 18.76 65.768 0.185 7.36 3.66 8.58
9/9/2021 1:45:00 AM 18.77 65.786 0.186 7.36 3.68 8.55
9/9/2021 2:00:00 AM 18.78 65.804 0.186 7.34 4.03 8.52
9/9/2021 2:15:00 AM 18.8 65.84 0.187 7.36 3.35 8.59
9/9/2021 2:30:00 AM 18.83 65.894 0.188 7.38 3.43 8.6
9/9/2021 2:45:00 AM 18.85 65.93 0.188 7.38 3.3 8.61
9/9/2021 3:00:00 AM 18.88 65.984 0.189 7.38 2.89 8.63
9/9/2021 3:15:00 AM 18.9 66.02 0.189 7.38 2.97 8.61
9/9/2021 3:30:00 AM 18.93 66.074 0.19 7.39 3.23 8.6
9/9/2021 3:45:00 AM 18.95 66.11 0.191 7.39 2.73 8.59
9/9/2021 4:00:00 AM 18.97 66.146 0.192 7.38 2.59 8.49
9/9/2021 4:15:00 AM 18.99 66.182 0.194 7.4 3.53 8.55
9/9/2021 4:30:00 AM 18.99 66.182 0.198 7.41 2.92 8.59
9/9/2021 4:45:00 AM 18.99 66.182 0.202 7.41 3.21 8.59
9/9/2021 5:00:00 AM 18.98 66.164 0.205 7.4 2.98 8.61
9/9/2021 5:15:00 AM 18.97 66.146 0.207 7.42 2.96 8.61
9/9/2021 5:30:00 AM 18.95 66.11 0.209 7.42 3.27 8.68
9/9/2021 5:45:00 AM 18.94 66.092 0.209 7.43 3.11 8.62
9/9/2021 6:00:00 AM 18.92 66.056 0.21 7.42 3.21 8.65
9/9/2021 6:15:00 AM 18.91 66.038 0.211 7.43 2.79 8.67
9/9/2021 6:30:00 AM 18.9 66.02 0.211 7.43 2.92 8.66
9/9/2021 6:45:00 AM 18.89 66.002 0.211 7.43 3.24 8.64
9/9/2021 7:00:00 AM 18.87 65.966 0.212 7.42 3.43 8.63
9/9/2021 7:15:00 AM 18.86 65.948 0.212 7.42 3.4 8.6
9/9/2021 7:30:00 AM 18.86 65.948 0.213 7.36 3.37 8.47
9/9/2021 7:45:00 AM 18.85 65.93 0.213 7.42 3.25 8.55
9/9/2021 8:00:00 AM 18.86 65.948 0.213 7.42 3.1 8.54
9/9/2021 8:15:00 AM 18.87 65.966 0.212 7.4 3.12 8.55
9/9/2021 8:30:00 AM 18.89 66.002 0.211 7.39 3.27 8.63
9/9/2021 8:45:00 AM 18.91 66.038 0.209 7.44 3.41 8.66
9/9/2021 9:00:00 AM 18.94 66.092 0.206 7.4 3.12 8.69
9/9/2021 9:15:00 AM 18.97 66.146 0.204 7.39 3.37 8.62
9/9/2021 9:30:00 AM 18.99 66.182 0.202 7.42 3.28 8.58
9/9/2021 9:45:00 AM 19.03 66.254 0.198 7.42 2.97 8.66
9/9/2021 10:00:00 AM 19.07 66.326 0.196 7.43 2.75 8.73
9/9/2021 10:15:00 AM 19.1 66.38 0.193 7.42 2.91 8.75
9/9/2021 10:30:00 AM 19.15 66.47 0.191 7.43 3.16 8.77
9/9/2021 10:45:00 AM 19.18 66.524 0.19 7.46 3.22 8.76
9/9/2021 11:00:00 AM 19.24 66.632 0.188 7.48 3.28 8.8
9/9/2021 11:15:00 AM 19.29 66.722 0.187 7.48 2.98 8.91
9/9/2021 11:30:00 AM 19.34 66.812 0.186 7.47 2.96 8.87
9/9/2021 11:45:00 AM 19.39 66.902 0.185 7.52 3.07 9
9/9/2021 12:00:00 PM 19.43 66.974 0.184 7.5 3.43 8.97
9/9/2021 12:15:00 PM 19.46 67.028 0.183 7.51 3.15 8.92
9/9/2021 12:30:00 PM 19.48 67.064 0.182 7.51 2.8 8.89
9/9/2021 12:45:00 PM 19.52 67.136 0.182 7.51 2.67 8.98
9/9/2021 1:00:00 PM 19.57 67.226 0.181 7.53 2.69 9
9/9/2021 1:15:00 PM 19.61 67.298 0.181 7.55 3.04 8.99
9/9/2021 1:30:00 PM 19.67 67.406 0.18 7.54 2.63 8.99
9/9/2021 1:45:00 PM 19.74 67.532 0.18 7.58 3.15 9.08
9/9/2021 2:00:00 PM 19.79 67.622 0.18 7.54 3.26 8.99
9/9/2021 2:15:00 PM 19.83 67.694 0.179 7.57 2.95 9.06
9/9/2021 2:30:00 PM 19.87 67.766 0.179 7.57 3.73 9.01
9/9/2021 2:45:00 PM 19.91 67.838 0.178 7.56 2.75 8.96
9/9/2021 3:00:00 PM 19.94 67.892 0.178 7.54 2.9 8.96
9/9/2021 3:15:00 PM 19.94 67.892 0.178 7.57 2.88 8.82
9/9/2021 3:30:00 PM 19.95 67.91 0.178 7.51 2.86 8.76
9/9/2021 3:45:00 PM 19.96 67.92799 0.178 7.56 2.91 8.79
9/9/2021 4:00:00 PM 19.97 67.946 0.178 7.49 2.93 8.75
9/9/2021 4:15:00 PM 19.98 67.964 0.178 7.5 3.12 8.72
9/9/2021 4:30:00 PM 19.95 67.91 0.178 7.5 2.65 8.66
9/9/2021 4:45:00 PM 19.94 67.892 0.178 7.45 2.8 8.47
9/9/2021 5:00:00 PM 19.94 67.892 0.177 7.47 2.94 8.62
9/9/2021 5:15:00 PM 19.93 67.874 0.177 7.43 3.78 8.56
9/9/2021 5:30:00 PM 19.9 67.82 0.177 7.47 5.03 8.54
9/9/2021 5:45:00 PM 19.88 67.784 0.178 7.45 4.29 8.55
9/9/2021 6:00:00 PM 19.85 67.73 0.178 7.46 3.76 8.58
9/9/2021 6:15:00 PM 19.83 67.694 0.178 7.39 4.02 8.61
9/9/2021 6:30:00 PM 19.8 67.64 0.178 7.44 3.73 8.53
9/9/2021 6:45:00 PM 19.79 67.622 0.179 7.43 3.46 8.46
9/9/2021 7:00:00 PM 19.77 67.586 0.179 7.4 3.17 8.41
9/9/2021 7:15:00 PM 19.74 67.532 0.18 7.41 3.65 8.45
9/9/2021 7:30:00 PM 19.7 67.46 0.18 7.4 3.36 8.42
9/9/2021 7:45:00 PM 19.67 67.406 0.18 7.41 2.72 8.43
9/9/2021 8:00:00 PM 19.63 67.334 0.18 7.4 13.08 8.46
9/9/2021 8:15:00 PM 19.58 67.244 0.18 7.39 3.14 8.43
9/9/2021 8:30:00 PM 19.54 67.172 0.18 7.36 3.08 8.46
9/9/2021 8:45:00 PM 19.48 67.064 0.18 7.36 3.33 8.51
9/9/2021 9:00:00 PM 19.44 66.992 0.18 7.37 3.06 8.39
9/9/2021 9:15:00 PM 19.39 66.902 0.18 7.37 3.57 8.45
9/9/2021 9:30:00 PM 19.33 66.794 0.18 7.38 2.93 8.5
9/9/2021 9:45:00 PM 19.28 66.704 0.18 7.36 2.89 8.45
9/9/2021 10:00:00 PM 19.23 66.614 0.18 7.36 3.18 8.49
9/9/2021 10:15:00 PM 19.17 66.506 0.18 7.33 3.29 8.49
9/9/2021 10:30:00 PM 19.12 66.416 0.18 7.36 3.17 8.44
9/9/2021 10:45:00 PM 19.06 66.308 0.18 7.36 3.11 8.51
9/9/2021 11:00:00 PM 19.02 66.236 0.18 7.33 2.86 8.51
9/9/2021 11:15:00 PM 18.96 66.128 0.181 7.36 2.99 8.56
9/9/2021 11:30:00 PM 18.91 66.038 0.181 7.36 3.23 8.59
9/9/2021 11:45:00 PM 18.87 65.966 0.181 7.35 3.35 8.53
9/10/2021 12:00:00 AM 18.82 65.876 0.181 7.35 3.05 8.62
9/10/2021 12:15:00 AM 18.78 65.804 0.181 7.34 2.94 8.62
9/10/2021 12:30:00 AM 18.74 65.732 0.181 7.35 2.58 8.64
9/10/2021 12:45:00 AM 18.7 65.66 0.182 7.35 3 8.64
9/10/2021 1:00:00 AM 18.66 65.588 0.182 7.35 2.84 8.6
9/10/2021 1:15:00 AM 18.62 65.516 0.182 7.34 2.71 8.6
9/10/2021 1:30:00 AM 18.59 65.462 0.182 7.35 2.85 8.63
9/10/2021 1:45:00 AM 18.55 65.39 0.182 7.35 3.04 8.67
9/10/2021 2:00:00 AM 18.51 65.318 0.182 7.35 2.59 8.7
9/10/2021 2:15:00 AM 18.47 65.246 0.182 7.35 2.91 8.67
9/10/2021 2:30:00 AM 18.43 65.174 0.183 7.36 3.04 8.71
9/10/2021 2:45:00 AM 18.39 65.102 0.183 7.33 2.52 8.7
9/10/2021 3:00:00 AM 18.36 65.048 0.183 7.35 2.68 8.72
9/10/2021 3:15:00 AM 18.32 64.976 0.183 7.35 2.86 8.71
9/10/2021 3:30:00 AM 18.29 64.922 0.183 7.36 2.99 8.76
9/10/2021 3:45:00 AM 18.26 64.868 0.183 7.31 2.61 8.72
9/10/2021 4:00:00 AM 18.23 64.814 0.183 7.37 2.35 8.79
9/10/2021 4:15:00 AM 18.21 64.778 0.183 7.36 2.5 8.76
9/10/2021 4:30:00 AM 18.18 64.724 0.183 7.36 3.09 8.77
9/10/2021 4:45:00 AM 18.15 64.67 0.183 7.32 2.68 8.78
9/10/2021 5:00:00 AM 18.13 64.634 0.183 7.37 2.68 8.76
9/10/2021 5:15:00 AM 18.11 64.598 0.183 7.36 2.92 8.79
9/10/2021 5:30:00 AM 18.09 64.562 0.183 7.36 2.78 8.79
9/10/2021 5:45:00 AM 18.07 64.526 0.183 7.36 3.65 8.76
9/10/2021 6:00:00 AM 18.03 64.454 0.183 7.35 2.77 8.74
9/10/2021 6:15:00 AM 17.99 64.382 0.183 7.35 3.44 8.73
9/10/2021 6:30:00 AM 17.95 64.31 0.183 7.35 3.06 8.79
9/10/2021 6:45:00 AM 17.92 64.256 0.183 7.35 2.88 8.8
9/10/2021 7:00:00 AM 17.88 64.184 0.183 7.35 2.99 8.75
9/10/2021 7:15:00 AM 17.84 64.112 0.183 7.32 3.63 8.76
9/10/2021 7:30:00 AM 17.83 64.094 0.183 7.32 3.01 8.79
9/10/2021 7:45:00 AM 17.81 64.058 0.183 7.37 3.07 8.9
9/10/2021 8:00:00 AM 17.79 64.022 0.183 7.36 4.92 8.88
9/10/2021 8:15:00 AM 17.78 64.004 0.183 7.37 3.35 8.94
9/10/2021 8:30:00 AM 17.78 64.004 0.183 7.35 2.67 8.85
9/10/2021 8:45:00 AM 17.78 64.004 0.183 7.38 2.5 8.98
9/10/2021 9:00:00 AM 17.78 64.004 0.183 7.37 2.55 8.96
9/10/2021 9:15:00 AM 17.77 63.986 0.183 7.38 2.63 9.01
9/10/2021 9:30:00 AM 17.81 64.058 0.183 7.41 2.51 9.18
9/10/2021 9:45:00 AM 17.85 64.13 0.183 7.43 2.38 9.17
9/10/2021 10:00:00 AM 17.86 64.148 0.183 7.43 2.52 9.19
9/10/2021 10:15:00 AM 17.87 64.166 0.183 7.44 2.57 9.24
9/10/2021 10:30:00 AM 17.91 64.238 0.184 7.42 2.69 9.2
9/10/2021 10:45:00 AM 17.97 64.346 0.184 7.43 2.31 9.3
9/10/2021 11:00:00 AM 18.02 64.436 0.183 7.44 2.36 9.2
9/10/2021 11:15:00 AM 18.06 64.508 0.184 7.45 2.5 9.14
9/10/2021 11:30:00 AM 18.17 64.706 0.184 7.49 2.82 9.26
9/10/2021 11:45:00 AM 18.25 64.85 0.183 7.5 2.44 9.32
9/10/2021 12:00:00 PM 18.29 64.922 0.184 7.48 2.97 9.13
9/10/2021 12:15:00 PM 18.35 65.03 0.184 7.49 2.34 9.24
9/10/2021 12:30:00 PM 18.4 65.12 0.184 7.52 2.5 9.32
9/10/2021 12:45:00 PM 18.5 65.3 0.184 7.51 2.82 9.29
9/10/2021 1:00:00 PM 18.6 65.48 0.184 7.48 2.57 9.29
9/10/2021 1:15:00 PM 18.73 65.714 0.183 7.55 2.51 9.38
9/10/2021 1:30:00 PM 18.85 65.93 0.184 7.55 2.84 9.34
9/10/2021 1:45:00 PM 18.92 66.056 0.184 7.52 3.26 9.26
9/10/2021 2:00:00 PM 19 66.2 0.183 7.56 2.63 9.32
9/10/2021 2:15:00 PM 19.1 66.38 0.183 7.55 2.27 9.31
9/10/2021 2:30:00 PM 19.22 66.596 0.184 7.59 2.28 9.37
9/10/2021 2:45:00 PM 19.33 66.794 0.184 7.58 2.71 9.29
9/10/2021 3:00:00 PM 19.44 66.992 0.184 7.59 2.37 9.29
9/10/2021 3:15:00 PM 19.53 67.154 0.184 7.59 2.66 9.23
9/10/2021 3:30:00 PM 19.55 67.19 0.184 7.59 2.7 9.15
9/10/2021 3:45:00 PM 19.52 67.136 0.184 7.58 2.56 9.2
9/10/2021 4:00:00 PM 19.45 67.01 0.184 7.55 2.49 9.2
9/10/2021 4:15:00 PM 19.38 66.884 0.184 7.53 2.51 9.12
9/10/2021 4:30:00 PM 19.32 66.776 0.184 7.52 2.47 9.13
9/10/2021 4:45:00 PM 19.25 66.65 0.184 7.5 2.32 9.06
9/10/2021 5:00:00 PM 19.21 66.578 0.184 7.5 2.31 9.06
9/10/2021 5:15:00 PM 19.16 66.488 0.185 7.47 2.4 9
9/10/2021 5:30:00 PM 19.13 66.434 0.185 7.46 2.09 8.96
9/10/2021 5:45:00 PM 19.1 66.38 0.185 7.46 2.34 8.97
9/10/2021 6:00:00 PM 19.04 66.272 0.185 7.44 2.34 8.92
9/10/2021 6:15:00 PM 18.96 66.128 0.185 7.43 2.5 8.91
9/10/2021 6:30:00 PM 18.9 66.02 0.185 7.42 2.34 8.89
9/10/2021 6:45:00 PM 18.83 65.894 0.185 7.4 2.37 8.76
9/10/2021 7:00:00 PM 18.75 65.75 0.185 7.37 2.2 8.64
9/10/2021 7:15:00 PM 18.69 65.642 0.185 7.34 2.22 8.74
9/10/2021 7:30:00 PM 18.59 65.462 0.186 7.38 2.14 8.84
9/10/2021 7:45:00 PM 18.53 65.354 0.186 7.36 2.56 8.81
9/10/2021 8:00:00 PM 18.46 65.228 0.186 7.36 2.16 8.84
9/10/2021 8:15:00 PM 18.39 65.102 0.186 7.36 2.14 8.78
9/10/2021 8:30:00 PM 18.33 64.994 0.186 7.36 2.85 8.84
9/10/2021 8:45:00 PM 18.27 64.886 0.187 7.32 2.28 8.85
9/10/2021 9:00:00 PM 18.2 64.76 0.187 7.35 2.55 8.87
9/10/2021 9:15:00 PM 18.14 64.652 0.186 7.35 2.08 8.86
9/10/2021 9:30:00 PM 18.08 64.544 0.187 7.34 2.49 8.86
9/10/2021 9:45:00 PM 18.02 64.436 0.187 7.35 2.46 8.88
9/10/2021 10:00:00 PM 17.95 64.31 0.187 7.35 2.6 8.9
9/10/2021 10:15:00 PM 17.89 64.202 0.186 7.31 2.32 8.91
9/10/2021 10:30:00 PM 17.84 64.112 0.186 7.34 2.5 8.91
9/10/2021 10:45:00 PM 17.78 64.004 0.186 7.34 2.51 8.92
9/10/2021 11:00:00 PM 17.73 63.914 0.186 7.33 2.56 8.93
9/10/2021 11:15:00 PM 17.67 63.806 0.186 7.33 2.47 8.95
9/10/2021 11:30:00 PM 17.62 63.716 0.186 7.33 2.38 8.96
9/10/2021 11:45:00 PM 17.57 63.626 0.186 7.34 2.63 8.97
9/11/2021 12:00:00 AM 17.52 63.536 0.186 7.33 2.36 8.97
9/11/2021 12:15:00 AM 17.48 63.464 0.186 7.31 2.38 8.99
9/11/2021 12:30:00 AM 17.42 63.356 0.186 7.34 2.4 9.01
9/11/2021 12:45:00 AM 17.37 63.266 0.186 7.33 2.58 9.02
9/11/2021 1:00:00 AM 17.32 63.176 0.186 7.33 2.51 9.03
9/11/2021 1:15:00 AM 17.27 63.086 0.186 7.34 2.77 9.05
9/11/2021 1:30:00 AM 17.22 62.996 0.186 7.33 2.24 9.04
9/11/2021 1:45:00 AM 17.17 62.906 0.186 7.33 2.71 9.05
9/11/2021 2:00:00 AM 17.13 62.834 0.186 7.33 2.6 9.09
9/11/2021 2:15:00 AM 17.09 62.762 0.186 7.33 3.09 9.08
9/11/2021 2:30:00 AM 17.04 62.672 0.186 7.33 2.79 9.08
9/11/2021 2:45:00 AM 17 62.6 0.186 7.33 2.69 9.12
9/11/2021 3:00:00 AM 16.95 62.51 0.186 7.34 2.77 9.14
9/11/2021 3:15:00 AM 16.91 62.438 0.186 7.33 2.55 9.12
9/11/2021 3:30:00 AM 16.86 62.348 0.186 7.33 2.38 9.13
9/11/2021 3:45:00 AM 16.81 62.258 0.186 7.33 2.93 9.15
9/11/2021 4:00:00 AM 16.77 62.186 0.186 7.33 2.63 9.16
9/11/2021 4:15:00 AM 16.72 62.096 0.186 7.33 2.69 9.17
9/11/2021 4:30:00 AM 16.68 62.024 0.186 7.29 2.42 9.18
9/11/2021 4:45:00 AM 16.63 61.934 0.186 7.33 2.35 9.19
9/11/2021 5:00:00 AM 16.59 61.862 0.186 7.32 3.57 9.18
9/11/2021 5:15:00 AM 16.55 61.79 0.186 7.33 2.7 9.21
9/11/2021 5:30:00 AM 16.5 61.7 0.186 7.33 3.1 9.21
9/11/2021 5:45:00 AM 16.46 61.628 0.186 7.33 2.73 9.22
9/11/2021 6:00:00 AM 16.41 61.538 0.186 7.33 3.07 9.25
9/11/2021 6:15:00 AM 16.37 61.466 0.186 7.32 3.01 9.2
9/11/2021 6:30:00 AM 16.33 61.394 0.186 7.33 2.85 9.23
9/11/2021 6:45:00 AM 16.29 61.322 0.187 7.32 3.09 9.23
9/11/2021 7:00:00 AM 16.26 61.268 0.187 7.34 2.55 9.26
9/11/2021 7:15:00 AM 16.23 61.214 0.187 7.33 2.69 9.25
9/11/2021 7:30:00 AM 16.2 61.16 0.187 7.34 2.85 9.32
9/11/2021 7:45:00 AM 16.19 61.142 0.187 7.35 2.75 9.34
9/11/2021 8:00:00 AM 16.19 61.142 0.187 7.37 2.48 9.36
9/11/2021 8:15:00 AM 16.2 61.16 0.187 7.39 2.62 9.45
9/11/2021 8:30:00 AM 16.21 61.178 0.187 7.4 2.45 9.52
9/11/2021 8:45:00 AM 16.22 61.196 0.188 7.41 2.08 9.54
9/11/2021 9:00:00 AM 16.25 61.25 0.188 7.43 2.58 9.57
9/11/2021 9:15:00 AM 16.31 61.358 0.188 7.44 2.74 9.64
9/11/2021 9:30:00 AM 16.39 61.502 0.188 7.44 2.51 9.71
9/11/2021 9:45:00 AM 16.47 61.646 0.188 7.44 2.39 9.71
9/11/2021 10:00:00 AM 16.55 61.79 0.188 7.5 2.41 9.78
9/11/2021 10:15:00 AM 16.66 61.988 0.188 7.52 2.43 9.79
9/11/2021 10:30:00 AM 16.76 62.168 0.188 7.54 2.27 9.85
9/11/2021 10:45:00 AM 16.86 62.348 0.188 7.56 2.54 9.9
9/11/2021 11:00:00 AM 16.95 62.51 0.188 7.56 2.43 9.86
9/11/2021 11:15:00 AM 17.05 62.69 0.188 7.58 2.43 9.89
9/11/2021 11:30:00 AM 17.17 62.906 0.188 7.58 2.71 9.89
9/11/2021 11:45:00 AM 17.31 63.158 0.188 7.6 2.4 9.85
9/11/2021 12:00:00 PM 17.45 63.41 0.188 7.61 2.17 9.81
9/11/2021 12:15:00 PM 17.62 63.716 0.188 7.61 2.16 9.82
9/11/2021 12:30:00 PM 17.81 64.058 0.188 7.64 2.39 9.88
9/11/2021 12:45:00 PM 18.01 64.418 0.188 7.64 2.97 9.89
9/11/2021 1:00:00 PM 18.18 64.724 0.189 7.69 2.43 9.92
9/11/2021 1:15:00 PM 18.34 65.012 0.189 7.7 2.46 9.91
9/11/2021 1:30:00 PM 18.47 65.246 0.189 7.69 2.16 9.8
9/11/2021 1:45:00 PM 18.57 65.426 0.189 7.69 2.69 9.68
9/11/2021 2:00:00 PM 18.68 65.624 0.189 7.69 2.39 9.71
9/11/2021 2:15:00 PM 18.83 65.894 0.189 7.72 2.39 9.72
9/11/2021 2:30:00 PM 18.97 66.146 0.19 7.71 3.3 9.73
9/11/2021 2:45:00 PM 19.07 66.326 0.19 7.71 2.3 9.6
9/11/2021 3:00:00 PM 19.17 66.506 0.19 7.7 2.3 9.52
9/11/2021 3:15:00 PM 19.21 66.578 0.19 7.66 2.24 9.37
9/11/2021 3:30:00 PM 19.28 66.704 0.19 7.66 2.17 9.36
9/11/2021 3:45:00 PM 19.36 66.848 0.191 7.68 2.56 9.44
9/11/2021 4:00:00 PM 19.43 66.974 0.191 7.7 2.47 9.39
9/11/2021 4:15:00 PM 19.51 67.118 0.191 7.69 2.29 9.39
9/11/2021 4:30:00 PM 19.54 67.172 0.191 7.63 2.14 9.25
9/11/2021 4:45:00 PM 19.56 67.208 0.191 7.66 2.31 9.23
9/11/2021 5:00:00 PM 19.61 67.298 0.192 7.63 2.2 9.14
9/11/2021 5:15:00 PM 19.63 67.334 0.192 7.64 2.19 9.11
9/11/2021 5:30:00 PM 19.61 67.298 0.192 7.61 2.69 9.06
9/11/2021 5:45:00 PM 19.59 67.262 0.192 7.6 2.2 8.99
9/11/2021 6:00:00 PM 19.56 67.208 0.192 7.58 2.46 8.96
9/11/2021 6:15:00 PM 19.54 67.172 0.192 7.57 2.2 8.89
9/11/2021 6:30:00 PM 19.5 67.1 0.192 7.53 2.46 8.87
9/11/2021 6:45:00 PM 19.46 67.028 0.192 7.54 2.35 8.83
9/11/2021 7:00:00 PM 19.4 66.92 0.193 7.52 2.13 8.8
9/11/2021 7:15:00 PM 19.33 66.794 0.193 7.49 2.01 8.75
9/11/2021 7:30:00 PM 19.27 66.686 0.193 7.49 2.23 8.71
9/11/2021 7:45:00 PM 19.2 66.56 0.193 7.45 2.41 8.6
9/11/2021 8:00:00 PM 19.12 66.416 0.193 7.45 2.1 8.65
9/11/2021 8:15:00 PM 19.04 66.272 0.193 7.44 2.11 8.67
9/11/2021 8:30:00 PM 18.96 66.128 0.193 7.43 2.1 8.67
9/11/2021 8:45:00 PM 18.88 65.984 0.194 7.43 2.14 8.68
9/11/2021 9:00:00 PM 18.79 65.82201 0.194 7.42 2.14 8.69
9/11/2021 9:15:00 PM 18.7 65.66 0.194 7.41 1.94 8.7
9/11/2021 9:30:00 PM 18.61 65.498 0.194 7.41 2.24 8.72
9/11/2021 9:45:00 PM 18.51 65.318 0.194 7.41 2.48 8.73
9/11/2021 10:00:00 PM 18.42 65.156 0.194 7.37 1.99 8.76
9/11/2021 10:15:00 PM 18.34 65.012 0.194 7.39 2.39 8.72
9/11/2021 10:30:00 PM 18.25 64.85 0.194 7.39 2.06 8.74
9/11/2021 10:45:00 PM 18.16 64.688 0.195 7.39 2.02 8.78
9/11/2021 11:00:00 PM 18.07 64.526 0.195 7.36 2.24 8.77
9/11/2021 11:15:00 PM 17.99 64.382 0.195 7.4 2.23 8.85
9/11/2021 11:30:00 PM 17.91 64.238 0.195 7.38 2.19 8.84
9/11/2021 11:45:00 PM 17.84 64.112 0.195 7.38 2.14 8.88
9/12/2021 12:00:00 AM 17.75 63.95 0.195 7.39 2.37 8.89
9/12/2021 12:15:00 AM 17.68 63.824 0.196 7.39 2.36 8.91
9/12/2021 12:30:00 AM 17.6 63.68 0.196 7.35 2.18 8.93
9/12/2021 12:45:00 AM 17.53 63.554 0.196 7.38 2.17 8.95
9/12/2021 1:00:00 AM 17.48 63.464 0.196 7.39 1.85 8.96
9/12/2021 1:15:00 AM 17.41 63.338 0.196 7.39 2.1 8.99
9/12/2021 1:30:00 AM 17.35 63.23 0.197 7.39 1.95 9.01
9/12/2021 1:45:00 AM 17.29 63.122 0.197 7.39 2.03 9.02
9/12/2021 2:00:00 AM 17.23 63.014 0.197 7.39 2.3 9.03
9/12/2021 2:15:00 AM 17.18 62.924 0.197 7.39 1.99 9.04
9/12/2021 2:30:00 AM 17.13 62.834 0.197 7.39 2.13 9.05
9/12/2021 2:45:00 AM 17.09 62.762 0.197 7.4 2.04 9.08
9/12/2021 3:00:00 AM 17.05 62.69 0.197 7.39 2 9.08
9/12/2021 3:15:00 AM 17.03 62.654 0.197 7.39 2.13 9.08
9/12/2021 3:30:00 AM 17 62.6 0.197 7.39 2.28 9.06
9/12/2021 3:45:00 AM 16.97 62.546 0.197 7.39 1.9 9.09
9/12/2021 4:00:00 AM 16.95 62.51 0.197 7.36 1.98 9.1
9/12/2021 4:15:00 AM 16.93 62.474 0.197 7.4 2.21 9.1
9/12/2021 4:30:00 AM 16.91 62.438 0.197 7.4 3.18 9.12
9/12/2021 4:45:00 AM 16.9 62.42 0.197 7.39 2.01 9.1
9/12/2021 5:00:00 AM 16.88 62.384 0.197 7.4 2.5 9.09
9/12/2021 5:15:00 AM 16.87 62.366 0.197 7.4 2.35 9.12
9/12/2021 5:30:00 AM 16.86 62.348 0.197 7.4 1.95 9.11
9/12/2021 5:45:00 AM 16.86 62.348 0.197 7.39 2.07 9.1
9/12/2021 6:00:00 AM 16.86 62.348 0.197 7.4 1.91 9.1
9/12/2021 6:15:00 AM 16.87 62.366 0.197 7.4 2.38 9.1
9/12/2021 6:30:00 AM 16.88 62.384 0.197 7.4 2.31 8.93
9/12/2021 6:45:00 AM 16.89 62.402 0.197 7.4 2.34 9.05
9/12/2021 7:00:00 AM 16.91 62.438 0.198 7.39 2.12 9.05
9/12/2021 7:15:00 AM 16.94 62.492 0.197 7.39 2.4 9
9/12/2021 7:30:00 AM 16.98 62.564 0.197 7.42 2.27 9.1
9/12/2021 7:45:00 AM 17.03 62.654 0.197 7.43 2.6 9.18
9/12/2021 8:00:00 AM 17.07 62.726 0.197 7.43 2.16 9.19
9/12/2021 8:15:00 AM 17.12 62.816 0.197 7.45 1.91 9.31
9/12/2021 8:30:00 AM 17.16 62.888 0.197 7.47 2.21 9.3
9/12/2021 8:45:00 AM 17.22 62.996 0.197 7.47 2.05 9.38
9/12/2021 9:00:00 AM 17.28 63.104 0.197 7.48 2.13 9.49
9/12/2021 9:15:00 AM 17.34 63.212 0.197 7.53 2.01 9.5
9/12/2021 9:30:00 AM 17.41 63.338 0.197 7.55 1.99 9.64
9/12/2021 9:45:00 AM 17.5 63.5 0.197 7.58 2.21 9.71
9/12/2021 10:00:00 AM 17.58 63.644 0.197 7.59 2.06 9.72
9/12/2021 10:15:00 AM 17.67 63.806 0.197 7.6 2.11 9.73
9/12/2021 10:30:00 AM 17.77 63.986 0.196 7.66 2.2 9.86
9/12/2021 10:45:00 AM 17.89 64.202 0.196 7.64 1.97 9.91
9/12/2021 11:00:00 AM 17.98 64.364 0.196 7.7 3.04 9.87
9/12/2021 11:15:00 AM 18.09 64.562 0.196 7.74 2.62 10
9/12/2021 11:30:00 AM 18.21 64.778 0.196 7.76 2.12 9.96
9/12/2021 11:45:00 AM 18.34 65.012 0.196 7.79 2.11 10.08
9/12/2021 12:00:00 PM 18.45 65.21 0.196 7.81 2.05 10.06
9/12/2021 12:15:00 PM 18.56 65.408 0.196 7.81 2.14 10.07
9/12/2021 12:30:00 PM 18.71 65.67799 0.196 7.86 1.99 10.16
9/12/2021 12:45:00 PM 18.82 65.876 0.196 7.88 1.86 10.12
9/12/2021 1:00:00 PM 18.93 66.074 0.196 7.89 1.98 10.09
9/12/2021 1:15:00 PM 19.03 66.254 0.196 7.92 2.11 10.15
9/12/2021 1:30:00 PM 19.1 66.38 0.196 7.91 2.23 10.07
9/12/2021 1:45:00 PM 19.2 66.56 0.196 7.94 2.05 10.12
9/12/2021 2:00:00 PM 19.26 66.668 0.196 7.91 2 9.96
9/12/2021 2:15:00 PM 19.33 66.794 0.196 7.87 2 9.85
9/12/2021 2:30:00 PM 19.38 66.884 0.196 7.85 2.24 9.8
9/12/2021 2:45:00 PM 19.43 66.974 0.197 7.81 2.27 9.75
9/12/2021 3:00:00 PM 19.48 67.064 0.197 7.82 2.08 9.66
9/12/2021 3:15:00 PM 19.53 67.154 0.197 7.78 2.43 9.56
9/12/2021 3:30:00 PM 19.58 67.244 0.197 7.8 2.07 9.54
9/12/2021 3:45:00 PM 19.64 67.352 0.197 7.75 2.04 9.45
9/12/2021 4:00:00 PM 19.69 67.442 0.197 7.77 2.57 9.48
9/12/2021 4:15:00 PM 19.78 67.604 0.197 7.8 1.93 9.51
9/12/2021 4:30:00 PM 19.85 67.73 0.197 7.8 2.15 9.54
9/12/2021 4:45:00 PM 19.93 67.874 0.198 7.83 1.99 9.6
9/12/2021 5:00:00 PM 19.99 67.982 0.198 7.82 1.97 9.51
9/12/2021 5:15:00 PM 20.01 68.018 0.198 7.8 2.1 9.42
9/12/2021 5:30:00 PM 20.04 68.07201 0.198 7.74 1.96 9.3
9/12/2021 5:45:00 PM 20.06 68.108 0.198 7.74 2.01 9.28
9/12/2021 6:00:00 PM 20.07 68.126 0.198 7.7 2.08 9.11
9/12/2021 6:15:00 PM 20.06 68.108 0.198 7.67 2.07 9.01
9/12/2021 6:30:00 PM 20.04 68.07201 0.199 7.64 1.95 8.94
9/12/2021 6:45:00 PM 20.03 68.054 0.198 7.6 2.58 8.81
9/12/2021 7:00:00 PM 20.01 68.018 0.199 7.57 1.88 8.69
9/12/2021 7:15:00 PM 19.97 67.946 0.199 7.54 1.95 8.67
9/12/2021 7:30:00 PM 19.94 67.892 0.199 7.48 1.82 8.58
9/12/2021 7:45:00 PM 19.91 67.838 0.199 7.49 1.89 8.53
9/12/2021 8:00:00 PM 19.87 67.766 0.199 7.48 2.01 8.51
9/12/2021 8:15:00 PM 19.84 67.712 0.199 7.46 1.96 8.45
9/12/2021 8:30:00 PM 19.8 67.64 0.199 7.43 2.01 8.46
9/12/2021 8:45:00 PM 19.76 67.568 0.199 7.44 1.91 8.47
9/12/2021 9:00:00 PM 19.72 67.496 0.199 7.43 1.82 8.45
9/12/2021 9:15:00 PM 19.67 67.406 0.199 7.42 1.84 8.46
9/12/2021 9:30:00 PM 19.63 67.334 0.199 7.41 1.9 8.46
9/12/2021 9:45:00 PM 19.58 67.244 0.199 7.4 1.91 8.47
9/12/2021 10:00:00 PM 19.53 67.154 0.2 7.39 1.92 8.47
9/12/2021 10:15:00 PM 19.48 67.064 0.2 7.4 1.86 8.48
9/12/2021 10:30:00 PM 19.43 66.974 0.2 7.38 1.92 8.49
9/12/2021 10:45:00 PM 19.38 66.884 0.201 7.38 1.91 8.5
9/12/2021 11:00:00 PM 19.32 66.776 0.201 7.37 1.72 8.51
9/12/2021 11:15:00 PM 19.27 66.686 0.201 7.37 2.06 8.52
9/12/2021 11:30:00 PM 19.21 66.578 0.201 7.37 1.74 8.52
9/12/2021 11:45:00 PM 19.15 66.47 0.201 7.36 1.74 8.55
9/13/2021 12:00:00 AM 19.08 66.344 0.201 7.35 1.81 8.57
9/13/2021 12:15:00 AM 19.03 66.254 0.201 7.36 1.72 8.58
9/13/2021 12:30:00 AM 18.98 66.164 0.202 7.35 1.85 8.58
9/13/2021 12:45:00 AM 18.92 66.056 0.202 7.35 1.91 8.61
9/13/2021 1:00:00 AM 18.87 65.966 0.202 7.35 1.72 8.61
9/13/2021 1:15:00 AM 18.84 65.912 0.202 7.34 1.75 8.61
9/13/2021 1:30:00 AM 18.8 65.84 0.203 7.35 1.81 8.63
9/13/2021 1:45:00 AM 18.77 65.786 0.203 7.35 1.69 8.64
9/13/2021 2:00:00 AM 18.74 65.732 0.203 7.35 1.75 8.64
9/13/2021 2:15:00 AM 18.72 65.696 0.203 7.36 1.77 8.65
9/13/2021 2:30:00 AM 18.7 65.66 0.203 7.35 1.57 8.64
9/13/2021 2:45:00 AM 18.69 65.642 0.203 7.34 1.57 8.65
9/13/2021 3:00:00 AM 18.68 65.624 0.203 7.35 1.86 8.66
9/13/2021 3:15:00 AM 18.68 65.624 0.203 7.35 1.8 8.65
9/13/2021 3:30:00 AM 18.68 65.624 0.203 7.36 1.72 8.66
9/13/2021 3:45:00 AM 18.69 65.642 0.203 7.35 1.83 8.64
9/13/2021 4:00:00 AM 18.7 65.66 0.202 7.35 1.65 8.64
9/13/2021 4:15:00 AM 18.71 65.67799 0.202 7.36 2.21 8.65
9/13/2021 4:30:00 AM 18.72 65.696 0.202 7.35 1.78 8.64
9/13/2021 4:45:00 AM 18.72 65.696 0.202 7.35 1.71 8.62
9/13/2021 5:00:00 AM 18.72 65.696 0.202 7.34 1.84 8.59
9/13/2021 5:15:00 AM 18.73 65.714 0.202 7.35 1.82 8.62
9/13/2021 5:30:00 AM 18.73 65.714 0.202 7.34 1.87 8.55
9/13/2021 5:45:00 AM 18.72 65.696 0.202 7.35 1.8 8.55
9/13/2021 6:00:00 AM 18.72 65.696 0.202 7.35 1.64 8.51
9/13/2021 6:15:00 AM 18.72 65.696 0.202 7.35 2.07 8.56
9/13/2021 6:30:00 AM 18.71 65.67799 0.202 7.35 2.5 8.58
9/13/2021 6:45:00 AM 18.7 65.66 0.202 7.34 1.76 8.57
9/13/2021 7:00:00 AM 18.69 65.642 0.202 7.36 1.87 8.63
9/13/2021 7:15:00 AM 18.69 65.642 0.202 7.36 1.64 8.66
9/13/2021 7:30:00 AM 18.7 65.66 0.202 7.37 1.72 8.64
9/13/2021 7:45:00 AM 18.71 65.67799 0.202 7.37 1.61 8.73
9/13/2021 8:00:00 AM 18.73 65.714 0.202 7.37 1.55 8.67
9/13/2021 8:15:00 AM 18.75 65.75 0.202 7.39 1.7 8.89
9/13/2021 8:30:00 AM 18.78 65.804 0.202 7.41 1.46 8.97
9/13/2021 8:45:00 AM 18.81 65.858 0.202 7.44 1.53 9.08
9/13/2021 9:00:00 AM 18.84 65.912 0.202 7.45 1.68 9.05
9/13/2021 9:15:00 AM 18.88 65.984 0.201 7.48 1.43 9.28
9/13/2021 9:30:00 AM 18.92 66.056 0.201 7.5 1.95 9.31
9/13/2021 9:45:00 AM 18.95 66.11 0.201 7.53 1.68 9.37
9/13/2021 10:00:00 AM 19.01 66.218 0.201 7.58 1.77 9.53
9/13/2021 10:15:00 AM 19.04 66.272 0.201 7.59 1.82 9.5
9/13/2021 10:30:00 AM 19.08 66.344 0.201 7.6 1.57 9.57
9/13/2021 10:45:00 AM 19.15 66.47 0.201 7.66 1.6 9.77
9/13/2021 11:00:00 AM 19.22 66.596 0.201 7.72 1.61 9.91
9/13/2021 11:15:00 AM 19.27 66.686 0.201 7.74 1.74 9.89
9/13/2021 11:30:00 AM 19.31 66.758 0.201 7.74 1.52 9.84
9/13/2021 11:45:00 AM 19.37 66.866 0.2 7.78 1.6 9.95
9/13/2021 12:00:00 PM 19.44 66.992 0.2 7.81 1.63 10.06
9/13/2021 12:15:00 PM 19.52 67.136 0.2 7.84 1.7 10.11
9/13/2021 12:30:00 PM 19.57 67.226 0.201 7.87 1.7 10.11
9/13/2021 12:45:00 PM 19.64 67.352 0.201 7.93 1.59 10.16
9/13/2021 1:00:00 PM 19.73 67.514 0.201 7.96 2.04 10.19
9/13/2021 1:15:00 PM 19.81 67.658 0.2 7.97 1.63 10.14
9/13/2021 1:30:00 PM 19.9 67.82 0.2 7.99 1.42 10.19
9/13/2021 1:45:00 PM 20 68 0.2 8 1.52 10.13
9/13/2021 2:00:00 PM 20.09 68.162 0.2 7.99 1.56 10.07
9/13/2021 2:15:00 PM 20.23 68.414 0.2 7.99 1.45 10.07
9/13/2021 2:30:00 PM 20.37 68.666 0.2 8.02 1.46 10.03
9/13/2021 2:45:00 PM 20.53 68.954 0.2 8.06 1.43 10.07
9/13/2021 3:00:00 PM 20.66 69.188 0.2 8.08 1.85 10.03
9/13/2021 3:15:00 PM 20.78 69.404 0.201 8.1 1.54 10.1
9/13/2021 3:30:00 PM 20.82 69.476 0.201 8.07 1.59 10.03
9/13/2021 3:45:00 PM 20.85 69.53 0.2 8.06 1.57 9.97
9/13/2021 4:00:00 PM 20.82 69.476 0.201 8.04 1.45 9.88
9/13/2021 4:15:00 PM 20.8 69.44 0.2 7.97 1.44 9.82
9/13/2021 4:30:00 PM 20.78 69.404 0.2 7.98 1.46 9.77
9/13/2021 4:45:00 PM 20.79 69.422 0.201 7.99 1.49 9.74
9/13/2021 5:00:00 PM 20.79 69.422 0.201 7.94 1.31 9.66
9/13/2021 5:15:00 PM 20.78 69.404 0.201 7.89 1.5 9.53
9/13/2021 5:30:00 PM 20.78 69.404 0.201 7.85 1.47 9.43
9/13/2021 5:45:00 PM 20.77 69.386 0.201 7.78 1.75 9.23
9/13/2021 6:00:00 PM 20.74 69.332 0.201 7.71 1.5 9.04
9/13/2021 6:15:00 PM 20.71 69.278 0.201 7.69 1.44 9.02
9/13/2021 6:30:00 PM 20.68 69.224 0.201 7.65 1.36 8.92
9/13/2021 6:45:00 PM 20.62 69.116 0.202 7.59 1.35 8.75
9/13/2021 7:00:00 PM 20.58 69.044 0.202 7.53 1.48 8.6
9/13/2021 7:15:00 PM 20.53 68.954 0.202 7.48 1.43 8.52
9/13/2021 7:30:00 PM 20.49 68.882 0.202 7.48 2.16 8.44
9/13/2021 7:45:00 PM 20.46 68.828 0.202 7.46 1.44 8.39
9/13/2021 8:00:00 PM 20.41 68.738 0.203 7.45 1.56 8.36
9/13/2021 8:15:00 PM 20.37 68.666 0.203 7.43 1.48 8.36
9/13/2021 8:30:00 PM 20.33 68.594 0.203 7.45 1.47 8.32
9/13/2021 8:45:00 PM 20.27 68.486 0.202 7.38 1.6 8.34
9/13/2021 9:00:00 PM 20.22 68.396 0.203 7.43 1.48 8.31
9/13/2021 9:15:00 PM 20.17 68.306 0.203 7.43 1.61 8.34
9/13/2021 9:30:00 PM 20.12 68.216 0.203 7.42 1.55 8.31
9/13/2021 9:45:00 PM 20.07 68.126 0.203 7.41 1.54 8.33
9/13/2021 10:00:00 PM 20.02 68.036 0.203 7.4 1.61 8.32
9/13/2021 10:15:00 PM 19.97 67.946 0.204 7.41 1.51 8.33
9/13/2021 10:30:00 PM 19.92 67.856 0.204 7.41 1.88 8.35
9/13/2021 10:45:00 PM 19.87 67.766 0.204 7.39 1.41 8.33
9/13/2021 11:00:00 PM 19.8 67.64 0.204 7.39 1.64 8.36
9/13/2021 11:15:00 PM 19.75 67.55 0.204 7.38 1.6 8.36
9/13/2021 11:30:00 PM 19.69 67.442 0.204 7.39 1.51 8.39
9/13/2021 11:45:00 PM 19.63 67.334 0.204 7.39 1.58 8.39
9/14/2021 12:00:00 AM 19.58 67.244 0.205 7.37 1.56 8.41
9/14/2021 12:15:00 AM 19.52 67.136 0.205 7.38 1.52 8.42
9/14/2021 12:30:00 AM 19.47 67.046 0.205 7.39 1.51 8.43
9/14/2021 12:45:00 AM 19.43 66.974 0.206 7.37 1.63 8.45
9/14/2021 1:00:00 AM 19.38 66.884 0.205 7.37 1.52 8.45
9/14/2021 1:15:00 AM 19.34 66.812 0.205 7.38 1.69 8.47
9/14/2021 1:30:00 AM 19.3 66.74 0.206 7.37 1.6 8.5
9/14/2021 1:45:00 AM 19.27 66.686 0.206 7.37 1.49 8.48
9/14/2021 2:00:00 AM 19.24 66.632 0.205 7.37 1.59 8.51
9/14/2021 2:15:00 AM 19.21 66.578 0.205 7.37 1.85 8.5
9/14/2021 2:30:00 AM 19.19 66.542 0.205 7.37 1.57 8.5
9/14/2021 2:45:00 AM 19.17 66.506 0.205 7.33 1.65 8.5
9/14/2021 3:00:00 AM 19.16 66.488 0.205 7.37 1.76 8.5
9/14/2021 3:15:00 AM 19.15 66.47 0.205 7.37 1.76 8.5
9/14/2021 3:30:00 AM 19.14 66.452 0.205 7.37 1.46 8.5
9/14/2021 3:45:00 AM 19.12 66.416 0.205 7.37 1.61 8.49
9/14/2021 4:00:00 AM 19.12 66.416 0.205 7.37 1.67 8.52
9/14/2021 4:15:00 AM 19.11 66.398 0.205 7.37 1.59 8.5
9/14/2021 4:30:00 AM 19.11 66.398 0.205 7.37 1.67 8.51
9/14/2021 4:45:00 AM 19.1 66.38 0.205 7.35 1.82 8.51
9/14/2021 5:00:00 AM 19.08 66.344 0.205 7.35 1.64 8.52
9/14/2021 5:15:00 AM 19.07 66.326 0.205 7.37 1.61 8.54
9/14/2021 5:30:00 AM 19.05 66.29 0.205 7.33 1.67 8.53
9/14/2021 5:45:00 AM 19.04 66.272 0.205 7.34 1.76 8.54
9/14/2021 6:00:00 AM 19.02 66.236 0.205 7.37 1.72 8.52
9/14/2021 6:15:00 AM 19.01 66.218 0.205 7.35 1.68 8.54
9/14/2021 6:30:00 AM 19 66.2 0.205 7.37 1.48 8.53
9/14/2021 6:45:00 AM 18.98 66.164 0.205 7.37 1.68 8.53
9/14/2021 7:00:00 AM 18.97 66.146 0.205 7.37 1.64 8.57
9/14/2021 7:15:00 AM 18.96 66.128 0.205 7.38 1.58 8.62
9/14/2021 7:30:00 AM 18.96 66.128 0.205 7.37 1.69 8.73
9/14/2021 7:45:00 AM 18.96 66.128 0.205 7.39 1.65 8.81
9/14/2021 8:00:00 AM 18.97 66.146 0.205 7.39 1.65 8.88
9/14/2021 8:15:00 AM 18.97 66.146 0.205 7.41 1.62 8.96
9/14/2021 8:30:00 AM 19 66.2 0.205 7.42 1.56 9.08
9/14/2021 8:45:00 AM 19.02 66.236 0.205 7.45 1.59 9.08
9/14/2021 9:00:00 AM 19.05 66.29 0.205 7.45 1.58 9.11
9/14/2021 9:15:00 AM 19.09 66.362 0.204 7.49 1.7 9.31
9/14/2021 9:30:00 AM 19.15 66.47 0.204 7.52 1.84 9.46
9/14/2021 9:45:00 AM 19.21 66.578 0.204 7.61 1.78 9.62
9/14/2021 10:00:00 AM 19.25 66.65 0.204 7.63 1.68 9.69
9/14/2021 10:15:00 AM 19.3 66.74 0.204 7.67 1.5 9.79
9/14/2021 10:30:00 AM 19.38 66.884 0.204 7.72 1.74 9.95
9/14/2021 10:45:00 AM 19.45 67.01 0.204 7.77 1.64 10.06
9/14/2021 11:00:00 AM 19.53 67.154 0.204 7.82 1.66 10.12
9/14/2021 11:15:00 AM 19.59 67.262 0.204 7.84 1.53 10.14
9/14/2021 11:30:00 AM 19.64 67.352 0.204 7.85 1.67 10.12
9/14/2021 11:45:00 AM 19.68 67.424 0.204 7.84 1.55 9.98
9/14/2021 12:00:00 PM 19.76 67.568 0.204 7.86 1.45 10.06
9/14/2021 12:15:00 PM 19.88 67.784 0.204 7.96 1.7 10.27
9/14/2021 12:30:00 PM 19.98 67.964 0.204 8.03 1.51 10.35
9/14/2021 12:45:00 PM 20.06 68.108 0.204 8.05 1.68 10.38
9/14/2021 1:00:00 PM 20.16 68.288 0.204 8.1 1.66 10.44
9/14/2021 1:15:00 PM 20.26 68.468 0.204 8.07 1.61 10.43
9/14/2021 1:30:00 PM 20.38 68.684 0.204 8.17 1.56 10.44
9/14/2021 1:45:00 PM 20.54 68.972 0.204 8.12 1.69 10.46
9/14/2021 2:00:00 PM 20.69 69.242 0.204 8.23 1.66 10.47
9/14/2021 2:15:00 PM 20.86 69.548 0.204 8.27 1.62 10.45
9/14/2021 2:30:00 PM 20.95 69.71 0.204 8.27 1.65 10.39
9/14/2021 2:45:00 PM 21.06 69.908 0.204 8.28 1.47 10.36
9/14/2021 3:00:00 PM 21.11 69.998 0.204 8.27 1.71 10.27
9/14/2021 3:15:00 PM 21.16 70.088 0.204 8.25 1.61 10.18
9/14/2021 3:30:00 PM 21.23 70.214 0.204 8.23 1.56 10.13
9/14/2021 3:45:00 PM 21.28 70.304 0.204 8.21 1.51 10.04
9/14/2021 4:00:00 PM 21.31 70.358 0.204 8.19 1.45 9.97
9/14/2021 4:15:00 PM 21.34 70.412 0.204 8.14 1.59 9.86
9/14/2021 4:30:00 PM 21.37 70.466 0.204 8.09 1.43 9.78
9/14/2021 4:45:00 PM 21.4 70.52 0.204 8.08 1.68 9.7
9/14/2021 5:00:00 PM 21.42 70.556 0.204 8.02 1.59 9.55
9/14/2021 5:15:00 PM 21.43 70.574 0.205 7.94 1.53 9.42
9/14/2021 5:30:00 PM 21.44 70.592 0.204 7.84 1.6 9.24
9/14/2021 5:45:00 PM 21.44 70.592 0.205 7.85 1.74 9.15
9/14/2021 6:00:00 PM 21.43 70.574 0.205 7.79 1.59 9.03
9/14/2021 6:15:00 PM 21.42 70.556 0.205 7.73 1.56 8.87
9/14/2021 6:30:00 PM 21.4 70.52 0.206 7.66 1.49 8.73
9/14/2021 6:45:00 PM 21.38 70.484 0.206 7.62 1.66 8.63
9/14/2021 7:00:00 PM 21.35 70.43 0.206 7.57 1.59 8.5
9/14/2021 7:15:00 PM 21.31 70.358 0.206 7.53 1.67 8.36
9/14/2021 7:30:00 PM 21.27 70.286 0.206 7.51 1.7 8.27
9/14/2021 7:45:00 PM 21.23 70.214 0.206 7.47 1.8 8.18
9/14/2021 8:00:00 PM 21.19 70.142 0.206 7.46 1.49 8.13
9/14/2021 8:15:00 PM 21.15 70.07 0.207 7.44 1.57 8.12
9/14/2021 8:30:00 PM 21.1 69.98 0.207 7.42 1.59 8.09
9/14/2021 8:45:00 PM 21.06 69.908 0.207 7.41 1.67 8.08
9/14/2021 9:00:00 PM 21.01 69.818 0.207 7.36 1.7 8.08
9/14/2021 9:15:00 PM 20.95 69.71 0.207 7.39 1.52 8.07
9/14/2021 9:30:00 PM 20.9 69.62 0.208 7.38 1.64 8.08
9/14/2021 9:45:00 PM 20.85 69.53 0.208 7.34 1.49 8.06
9/14/2021 10:00:00 PM 20.8 69.44 0.208 7.38 1.59 8.08
9/14/2021 10:15:00 PM 20.74 69.332 0.208 7.37 1.67 8.11
9/14/2021 10:30:00 PM 20.68 69.224 0.208 7.37 1.91 8.12
9/14/2021 10:45:00 PM 20.61 69.098 0.208 7.35 1.82 8.11
9/14/2021 11:00:00 PM 20.55 68.99 0.208 7.35 1.82 8.14
9/14/2021 11:15:00 PM 20.48 68.864 0.208 7.36 1.73 8.14
9/14/2021 11:30:00 PM 20.41 68.738 0.209 7.3 1.65 8.16
9/14/2021 11:45:00 PM 20.34 68.612 0.209 7.36 1.86 8.16
9/15/2021 12:00:00 AM 20.26 68.468 0.209 7.34 1.68 8.21
9/15/2021 12:15:00 AM 20.19 68.342 0.209 7.35 1.64 8.2
9/15/2021 12:30:00 AM 20.12 68.216 0.209 7.35 1.6 8.21
9/15/2021 12:45:00 AM 20.05 68.09 0.209 7.34 1.56 8.22
9/15/2021 1:00:00 AM 19.98 67.964 0.209 7.34 1.55 8.25
9/15/2021 1:15:00 AM 19.9 67.82 0.209 7.34 1.67 8.26
9/15/2021 1:30:00 AM 19.84 67.712 0.209 7.34 1.7 8.3
9/15/2021 1:45:00 AM 19.78 67.604 0.21 7.34 1.7 8.3
9/15/2021 2:00:00 AM 19.72 67.496 0.21 7.29 1.49 8.31
9/15/2021 2:15:00 AM 19.66 67.388 0.21 7.34 2.23 8.32
9/15/2021 2:30:00 AM 19.62 67.316 0.21 7.29 1.42 8.33
9/15/2021 2:45:00 AM 19.57 67.226 0.21 7.33 1.72 8.35
9/15/2021 3:00:00 AM 19.54 67.172 0.21 7.33 1.43 8.34
9/15/2021 3:15:00 AM 19.51 67.118 0.21 7.34 1.48 8.36
9/15/2021 3:30:00 AM 19.49 67.082 0.21 7.35 1.6 8.36
9/15/2021 3:45:00 AM 19.47 67.046 0.21 7.35 1.58 8.38
9/15/2021 4:00:00 AM 19.46 67.028 0.21 7.31 1.49 8.39
9/15/2021 4:15:00 AM 19.44 66.992 0.21 7.35 1.33 8.38
9/15/2021 4:30:00 AM 19.44 66.992 0.21 7.35 1.6 8.39
9/15/2021 4:45:00 AM 19.43 66.974 0.21 7.34 1.62 8.38
9/15/2021 5:00:00 AM 19.42 66.956 0.21 7.34 1.47 8.38
9/15/2021 5:15:00 AM 19.42 66.956 0.21 7.31 1.65 8.36
9/15/2021 5:30:00 AM 19.41 66.938 0.209 7.35 1.62 8.37
9/15/2021 5:45:00 AM 19.41 66.938 0.209 7.35 1.45 8.4
9/15/2021 6:00:00 AM 19.41 66.938 0.209 7.33 1.42 8.39
9/15/2021 6:15:00 AM 19.41 66.938 0.209 7.36 1.77 8.4
9/15/2021 6:30:00 AM 19.41 66.938 0.209 7.32 1.46 8.37
9/15/2021 6:45:00 AM 19.42 66.956 0.21 7.3 8.32 8.36
9/15/2021 7:00:00 AM 19.41 66.938 0.209 7.33 1.76 8.39
9/15/2021 7:15:00 AM 19.42 66.956 0.209 7.32 1.68 8.45
9/15/2021 7:30:00 AM 19.43 66.974 0.209 7.35 1.55 8.53
9/15/2021 7:45:00 AM 19.44 66.992 0.209 7.36 1.7 8.6
9/15/2021 8:00:00 AM 19.46 67.028 0.208 7.38 1.55 8.72
9/15/2021 8:15:00 AM 19.48 67.064 0.208 7.39 1.51 8.84
9/15/2021 8:30:00 AM 19.52 67.136 0.208 7.44 1.43 8.96
9/15/2021 8:45:00 AM 19.59 67.262 0.208 7.45 1.53 9.08
9/15/2021 9:00:00 AM 19.65 67.37 0.208 7.5 1.71 9.16
9/15/2021 9:15:00 AM 19.73 67.514 0.208 7.54 1.58 9.28
9/15/2021 9:30:00 AM 19.81 67.658 0.208 7.58 1.59 9.41
9/15/2021 9:45:00 AM 19.9 67.82 0.208 7.63 1.43 9.57
9/15/2021 10:00:00 AM 19.98 67.964 0.208 7.66 1.56 9.65
9/15/2021 10:15:00 AM 20.03 68.054 0.208 7.69 1.63 9.69
9/15/2021 10:30:00 AM 20.07 68.126 0.208 7.71 1.57 9.68
9/15/2021 10:45:00 AM 20.16 68.288 0.208 7.74 1.47 9.76
9/15/2021 11:00:00 AM 20.27 68.486 0.208 7.81 1.44 9.92
9/15/2021 11:15:00 AM 20.38 68.684 0.208 7.84 1.44 9.95
9/15/2021 11:30:00 AM 20.49 68.882 0.207 7.87 1.33 9.98
9/15/2021 11:45:00 AM 20.61 69.098 0.207 7.91 1.44 10
9/15/2021 12:00:00 PM 20.76 69.368 0.207 7.96 1.35 10.07
9/15/2021 12:15:00 PM 20.9 69.62 0.207 7.99 1.47 10.09
9/15/2021 12:30:00 PM 21.06 69.908 0.207 8.03 1.5 10.11
9/15/2021 12:45:00 PM 21.2 70.16 0.207 8.07 1.49 10.1
9/15/2021 1:00:00 PM 21.35 70.43 0.207 8.1 1.34 10.17
9/15/2021 1:15:00 PM 21.53 70.754 0.207 8.18 1.39 10.25
9/15/2021 1:30:00 PM 21.69 71.042 0.207 8.21 1.48 10.26
9/15/2021 1:45:00 PM 21.86 71.348 0.207 8.22 1.37 10.21
9/15/2021 2:00:00 PM 22.03 71.654 0.207 8.32 1.34 10.37
9/15/2021 2:15:00 PM 22.16 71.888 0.207 8.37 1.33 10.4
9/15/2021 2:30:00 PM 22.19 71.942 0.207 8.32 1.26 10.14
9/15/2021 2:45:00 PM 22.16 71.888 0.208 8.18 1.19 9.79
9/15/2021 3:00:00 PM 22.12 71.816 0.208 8.03 1.43 9.39
9/15/2021 3:15:00 PM 22.08 71.744 0.208 7.93 1.38 9.3
9/15/2021 3:30:00 PM 22.07 71.726 0.208 7.94 1.38 9.3
9/15/2021 3:45:00 PM 22.03 71.654 0.208 7.79 1.32 8.91
9/15/2021 4:00:00 PM 22.01 71.618 0.208 7.78 1.37 8.97
9/15/2021 4:15:00 PM 21.99 71.582 0.208 7.77 1.29 8.96
9/15/2021 4:30:00 PM 21.94 71.492 0.208 7.68 1.39 8.74
9/15/2021 4:45:00 PM 21.9 71.42 0.208 7.63 1.51 8.52
9/15/2021 5:00:00 PM 21.85 71.33 0.208 7.57 1.74 8.36
9/15/2021 5:15:00 PM 21.82 71.276 0.208 7.53 1.32 8.22
9/15/2021 5:30:00 PM 21.79 71.222 0.209 7.5 1.35 8.15
9/15/2021 5:45:00 PM 21.75 71.15 0.209 7.48 1.56 8.08
9/15/2021 6:00:00 PM 21.73 71.114 0.208 7.46 1.35 8.05
9/15/2021 6:15:00 PM 21.69 71.042 0.207 7.45 1.39 8.05
9/15/2021 6:30:00 PM 21.65 70.97 0.206 7.44 1.48 8.05
9/15/2021 6:45:00 PM 21.61 70.898 0.206 7.42 1.43 8.02
9/15/2021 7:00:00 PM 21.56 70.808 0.206 7.4 1.67 8
9/15/2021 7:15:00 PM 21.51 70.718 0.205 7.36 1.8 7.97
9/15/2021 7:30:00 PM 21.43 70.574 0.206 7.38 1.96 7.96
9/15/2021 7:45:00 PM 21.36 70.448 0.208 7.38 2.08 7.99
9/15/2021 8:00:00 PM 21.29 70.32201 0.209 7.38 1.73 7.99
9/15/2021 8:15:00 PM 21.21 70.17799 0.21 7.37 1.65 8.01
9/15/2021 8:30:00 PM 21.14 70.052 0.211 7.37 1.53 8.02
9/15/2021 8:45:00 PM 21.06 69.908 0.213 7.37 1.75 8.07
9/15/2021 9:00:00 PM 20.98 69.764 0.216 7.35 1.84 8.1
9/15/2021 9:15:00 PM 20.89 69.602 0.221 7.37 1.57 8.11
9/15/2021 9:30:00 PM 20.79 69.422 0.223 7.34 1.79 8.14
9/15/2021 9:45:00 PM 20.7 69.26 0.221 7.37 1.98 8.16
9/15/2021 10:00:00 PM 20.59 69.062 0.218 7.36 1.99 8.19
9/15/2021 10:15:00 PM 20.47 68.846 0.217 7.36 2.03 8.22
9/15/2021 10:30:00 PM 20.36 68.648 0.217 7.35 1.85 8.24
9/15/2021 10:45:00 PM 20.24 68.432 0.216 7.35 2.19 8.3
9/15/2021 11:00:00 PM 20.12 68.216 0.217 7.35 2.38 8.33
9/15/2021 11:15:00 PM 20 68 0.219 7.36 2.27 8.39
9/15/2021 11:30:00 PM 19.89 67.802 0.224 7.36 3 8.42
9/15/2021 11:45:00 PM 19.78 67.604 0.227 7.37 3.31 8.44
9/16/2021 12:00:00 AM 19.7 67.46 0.228 7.37 3.56 8.47
9/16/2021 12:15:00 AM 19.61 67.298 0.224 7.38 4.29 8.51
9/16/2021 12:30:00 AM 19.55 67.19 0.221 7.35 6.73 8.54
9/16/2021 12:45:00 AM 19.53 67.154 0.221 7.39 6.98 8.55
9/16/2021 1:00:00 AM 19.52 67.136 0.226 7.4 9.71 8.6
9/16/2021 1:15:00 AM 19.52 67.136 0.23 7.4 8.69 8.62
9/16/2021 1:30:00 AM 19.55 67.19 0.232 7.42 11.36 8.61
9/16/2021 1:45:00 AM 19.58 67.244 0.231 7.42 11.28 8.64
9/16/2021 2:00:00 AM 19.61 67.298 0.23 7.42 14.59 8.64
9/16/2021 2:15:00 AM 19.6 67.28 0.23 7.42 16.29 8.66
9/16/2021 2:30:00 AM 19.56 67.208 0.234 7.42 19.31 8.66
9/16/2021 2:45:00 AM 19.48 67.064 0.231 7.41 20.56 8.71
9/16/2021 3:00:00 AM 19.4 66.92 0.217 7.38 22.63 8.73
9/16/2021 3:15:00 AM 19.34 66.812 0.206 7.36 31.74 8.76
9/16/2021 3:30:00 AM 19.3 66.74 0.2 7.32 31.34 8.78
9/16/2021 3:45:00 AM 19.28 66.704 0.195 7.3 32.53 8.78
9/16/2021 4:00:00 AM 19.27 66.686 0.197 7.27 28.9 8.79
9/16/2021 4:15:00 AM 19.28 66.704 0.2 7.31 29.33 8.79
9/16/2021 4:30:00 AM 19.28 66.704 0.201 7.31 29.62 8.8
9/16/2021 4:45:00 AM 19.29 66.722 0.201 7.32 26 8.81
9/16/2021 5:00:00 AM 19.3 66.74 0.2 7.33 22.98 8.81
9/16/2021 5:15:00 AM 19.33 66.794 0.198 7.33 21.34 8.81
9/16/2021 5:30:00 AM 19.37 66.866 0.198 7.33 19.82 8.78
9/16/2021 5:45:00 AM 19.42 66.956 0.197 7.33 19.6 8.78
9/16/2021 6:00:00 AM 19.46 67.028 0.196 7.34 18.07 8.76
9/16/2021 6:15:00 AM 19.51 67.118 0.193 7.34 17.22 8.77
9/16/2021 6:30:00 AM 19.55 67.19 0.19 7.34 16.78 8.77
9/16/2021 6:45:00 AM 19.59 67.262 0.187 7.34 16.74 8.76
9/16/2021 7:00:00 AM 19.61 67.298 0.184 7.34 15.07 8.77
9/16/2021 7:15:00 AM 19.64 67.352 0.182 7.34 14.17 8.76
9/16/2021 7:30:00 AM 19.66 67.388 0.18 7.34 13.73 8.77
9/16/2021 7:45:00 AM 19.68 67.424 0.179 7.34 12.8 8.78
9/16/2021 8:00:00 AM 19.69 67.442 0.178 7.34 12.51 8.79
9/16/2021 8:15:00 AM 19.7 67.46 0.176 7.34 10.21 8.8
9/16/2021 8:30:00 AM 19.73 67.514 0.175 7.35 9.71 8.81
9/16/2021 8:45:00 AM 19.76 67.568 0.174 7.35 10.26 8.81
9/16/2021 9:00:00 AM 19.79 67.622 0.173 7.37 9.9 8.85
9/16/2021 9:15:00 AM 19.83 67.694 0.172 7.33 9.24 8.87
9/16/2021 9:30:00 AM 19.86 67.748 0.171 7.39 8.59 8.88
9/16/2021 9:45:00 AM 19.89 67.802 0.171 7.39 7.94 8.89
9/16/2021 10:00:00 AM 19.93 67.874 0.17 7.4 7.92 8.95
9/16/2021 10:15:00 AM 19.95 67.91 0.17 7.42 6.89 8.98
9/16/2021 10:30:00 AM 19.98 67.964 0.17 7.42 8.17 9.02
9/16/2021 10:45:00 AM 20 68 0.169 7.43 7.12 9.03
9/16/2021 11:00:00 AM 20.01 68.018 0.169 7.42 6.55 9.05
9/16/2021 11:15:00 AM 20.02 68.036 0.168 7.45 6.65 9.08
9/16/2021 11:30:00 AM 20.01 68.018 0.168 7.44 14.79 9.02
9/16/2021 11:45:00 AM 20.01 68.018 0.168 7.42 6.45 9.05
9/16/2021 12:00:00 PM 20.04 68.07201 0.168 7.46 15.5 9.09
9/16/2021 12:15:00 PM 20.07 68.126 0.168 7.47 5.68 9.12
9/16/2021 12:30:00 PM 20.13 68.234 0.168 7.5 5.86 9.16
9/16/2021 12:45:00 PM 20.18 68.324 0.167 7.52 5.92 9.18
9/16/2021 1:00:00 PM 20.27 68.486 0.167 7.54 5.22 9.23
9/16/2021 1:15:00 PM 20.37 68.666 0.167 7.58 5.37 9.27
9/16/2021 1:30:00 PM 20.43 68.774 0.167 7.58 5.83 9.27
9/16/2021 1:45:00 PM 20.51 68.918 0.167 7.61 5.51 9.25
9/16/2021 2:00:00 PM 20.56 69.008 0.167 7.61 5.1 9.24
9/16/2021 2:15:00 PM 20.59 69.062 0.167 7.61 5.27 9.21
9/16/2021 2:30:00 PM 20.62 69.116 0.167 7.6 5.14 9.16
9/16/2021 2:45:00 PM 20.65 69.17 0.167 7.6 5.08 9.14
9/16/2021 3:00:00 PM 20.68 69.224 0.167 7.58 4.95 9.11
9/16/2021 3:15:00 PM 20.71 69.278 0.168 7.59 4.95 9.1
9/16/2021 3:30:00 PM 20.72 69.296 0.168 7.57 4.8 9.04
9/16/2021 3:45:00 PM 20.73 69.314 0.168 7.57 5.1 9.04
9/16/2021 4:00:00 PM 20.74 69.332 0.168 7.57 4.79 9.02
9/16/2021 4:15:00 PM 20.75 69.35 0.168 7.57 4.43 9.02
9/16/2021 4:30:00 PM 20.77 69.386 0.168 7.54 4.63 8.99
9/16/2021 4:45:00 PM 20.79 69.422 0.168 7.57 4.68 8.97
9/16/2021 5:00:00 PM 20.83 69.494 0.168 7.57 4.57 8.95
9/16/2021 5:15:00 PM 20.87 69.566 0.168 7.57 4.71 8.93
9/16/2021 5:30:00 PM 20.9 69.62 0.168 7.57 4.64 8.89
9/16/2021 5:45:00 PM 20.91 69.638 0.168 7.56 4.55 8.79
9/16/2021 6:00:00 PM 20.91 69.638 0.169 7.54 4.26 8.78
9/16/2021 6:15:00 PM 20.91 69.638 0.169 7.52 4.35 8.73
9/16/2021 6:30:00 PM 20.89 69.602 0.169 7.5 4.47 8.67
9/16/2021 6:45:00 PM 20.85 69.53 0.17 7.48 4.62 8.64
9/16/2021 7:00:00 PM 20.82 69.476 0.17 7.47 4.41 8.61
9/16/2021 7:15:00 PM 20.77 69.386 0.17 7.46 4.59 8.62
9/16/2021 7:30:00 PM 20.72 69.296 0.171 7.45 4.47 8.62
9/16/2021 7:45:00 PM 20.69 69.242 0.171 7.45 4.68 8.61
9/16/2021 8:00:00 PM 20.66 69.188 0.172 7.4 4.84 8.6
9/16/2021 8:15:00 PM 20.64 69.152 0.172 7.44 4.01 8.61
9/16/2021 8:30:00 PM 20.63 69.134 0.172 7.43 4.75 8.59
9/16/2021 8:45:00 PM 20.63 69.134 0.172 7.44 4.6 8.58
9/16/2021 9:00:00 PM 20.64 69.152 0.172 7.44 5.33 8.57
9/16/2021 9:15:00 PM 20.68 69.224 0.172 7.42 4.87 8.57
9/16/2021 9:30:00 PM 20.72 69.296 0.172 7.44 4.75 8.55
9/16/2021 9:45:00 PM 20.77 69.386 0.173 7.43 4.59 8.54
9/16/2021 10:00:00 PM 20.82 69.476 0.173 7.45 4.59 8.52
9/16/2021 10:15:00 PM 20.85 69.53 0.173 7.45 4.44 8.52
9/16/2021 10:30:00 PM 20.87 69.566 0.174 7.45 4.29 8.51
9/16/2021 10:45:00 PM 20.87 69.566 0.174 7.44 4.83 8.51
9/16/2021 11:00:00 PM 20.85 69.53 0.174 7.44 4.39 8.5
9/16/2021 11:15:00 PM 20.82 69.476 0.174 7.43 4.31 8.5
9/16/2021 11:30:00 PM 20.79 69.422 0.174 7.42 4.03 8.52
9/16/2021 11:45:00 PM 20.75 69.35 0.174 7.41 4.15 8.52
9/17/2021 12:00:00 AM 20.71 69.278 0.174 7.41 4.3 8.53
9/17/2021 12:15:00 AM 20.67 69.206 0.175 7.4 4.21 8.55
9/17/2021 12:30:00 AM 20.63 69.134 0.175 7.41 4.56 8.54
9/17/2021 12:45:00 AM 20.58 69.044 0.175 7.4 4.11 8.55
9/17/2021 1:00:00 AM 20.53 68.954 0.175 7.39 4.22 8.56
9/17/2021 1:15:00 AM 20.49 68.882 0.176 7.37 4.18 8.56
9/17/2021 1:30:00 AM 20.45 68.81 0.176 7.39 4.15 8.57
9/17/2021 1:45:00 AM 20.4 68.72 0.176 7.39 3.99 8.58
9/17/2021 2:00:00 AM 20.35 68.63 0.176 7.35 4.2 8.59
9/17/2021 2:15:00 AM 20.3 68.54 0.177 7.39 4.36 8.61
9/17/2021 2:30:00 AM 20.25 68.45 0.177 7.38 4.01 8.58
9/17/2021 2:45:00 AM 20.21 68.378 0.177 7.38 4.02 8.61
9/17/2021 3:00:00 AM 20.18 68.324 0.178 7.39 3.97 8.64
9/17/2021 3:15:00 AM 20.15 68.27 0.178 7.38 3.91 8.63
9/17/2021 3:30:00 AM 20.12 68.216 0.178 7.38 5.71 8.64
9/17/2021 3:45:00 AM 20.1 68.18 0.178 7.37 3.94 8.64
9/17/2021 4:00:00 AM 20.08 68.144 0.179 7.37 3.7 8.65
9/17/2021 4:15:00 AM 20.06 68.108 0.179 7.38 3.85 8.65
9/17/2021 4:30:00 AM 20.04 68.07201 0.179 7.38 3.71 8.66
9/17/2021 4:45:00 AM 20.03 68.054 0.179 7.38 4.04 8.64
9/17/2021 5:00:00 AM 20.02 68.036 0.18 7.36 4.09 8.65
9/17/2021 5:15:00 AM 20.01 68.018 0.18 7.38 3.83 8.65
9/17/2021 5:30:00 AM 20.01 68.018 0.18 7.38 3.89 8.65
9/17/2021 5:45:00 AM 19.99 67.982 0.18 7.37 4.83 8.65
9/17/2021 6:00:00 AM 19.99 67.982 0.18 7.36 3.84 8.51
9/17/2021 6:15:00 AM 19.98 67.964 0.181 7.37 3.92 8.59
9/17/2021 6:30:00 AM 19.97 67.946 0.181 7.36 4.12 8.58
9/17/2021 6:45:00 AM 19.96 67.92799 0.181 7.36 3.54 8.62
9/17/2021 7:00:00 AM 19.95 67.91 0.181 7.36 3.89 8.58
9/17/2021 7:15:00 AM 19.94 67.892 0.182 7.34 3.71 8.62
9/17/2021 7:30:00 AM 19.94 67.892 0.182 7.36 3.88 8.62
9/17/2021 7:45:00 AM 19.93 67.874 0.182 7.36 3.7 8.61
9/17/2021 8:00:00 AM 19.94 67.892 0.182 7.36 3.58 8.67
9/17/2021 8:15:00 AM 19.94 67.892 0.183 7.37 3.83 8.65
9/17/2021 8:30:00 AM 19.95 67.91 0.183 7.38 3.55 8.74
9/17/2021 8:45:00 AM 19.97 67.946 0.183 7.38 3.57 8.77
9/17/2021 9:00:00 AM 19.98 67.964 0.183 7.4 3.08 8.81
9/17/2021 9:15:00 AM 20 68 0.183 7.39 3.37 8.84
9/17/2021 9:30:00 AM 20.02 68.036 0.184 7.42 3.34 8.84
9/17/2021 9:45:00 AM 20.05 68.09 0.184 7.42 3.94 8.9
9/17/2021 10:00:00 AM 20.08 68.144 0.184 7.43 3.16 8.89
9/17/2021 10:15:00 AM 20.11 68.198 0.184 7.45 3.18 8.96
9/17/2021 10:30:00 AM 20.16 68.288 0.185 7.47 3.08 8.94
9/17/2021 10:45:00 AM 20.2 68.36 0.185 7.48 3.19 8.97
9/17/2021 11:00:00 AM 20.24 68.432 0.185 7.5 2.8 9
9/17/2021 11:15:00 AM 20.28 68.504 0.185 7.5 3.21 8.93
9/17/2021 11:30:00 AM 20.32 68.576 0.185 7.52 3.23 9.03
9/17/2021 11:45:00 AM 20.38 68.684 0.185 7.56 3.09 9.14
9/17/2021 12:00:00 PM 20.42 68.756 0.185 7.57 3.32 9.19
9/17/2021 12:15:00 PM 20.48 68.864 0.185 7.56 3.16 9.22
9/17/2021 12:30:00 PM 20.54 68.972 0.185 7.63 2.89 9.33
9/17/2021 12:45:00 PM 20.61 69.098 0.185 7.66 2.92 9.39
9/17/2021 1:00:00 PM 20.65 69.17 0.185 7.66 3.16 9.33
9/17/2021 1:15:00 PM 20.67 69.206 0.185 7.62 3.04 9.16
9/17/2021 1:30:00 PM 20.72 69.296 0.185 7.65 3.29 9.13
9/17/2021 1:45:00 PM 20.79 69.422 0.185 7.67 3.02 9.28
9/17/2021 2:00:00 PM 20.85 69.53 0.185 7.68 3 9.31
9/17/2021 2:15:00 PM 20.92 69.656 0.185 7.65 2.95 9.23
9/17/2021 2:30:00 PM 21 69.8 0.184 7.69 2.91 9.31
9/17/2021 2:45:00 PM 21.07 69.926 0.184 7.71 3.38 9.36
9/17/2021 3:00:00 PM 21.12 70.016 0.184 7.75 3.21 9.34
9/17/2021 3:15:00 PM 21.16 70.088 0.184 7.7 2.95 9.2
9/17/2021 3:30:00 PM 21.18 70.124 0.184 7.66 3.24 9.06
9/17/2021 3:45:00 PM 21.21 70.17799 0.184 7.63 2.88 8.96
9/17/2021 4:00:00 PM 21.22 70.196 0.184 7.6 3.35 8.84
9/17/2021 4:15:00 PM 21.24 70.232 0.184 7.57 2.97 8.77
9/17/2021 4:30:00 PM 21.29 70.32201 0.184 7.58 3.01 8.84
9/17/2021 4:45:00 PM 21.32 70.376 0.184 7.58 2.82 8.79
9/17/2021 5:00:00 PM 21.32 70.376 0.185 7.51 2.96 8.68
9/17/2021 5:15:00 PM 21.32 70.376 0.185 7.52 2.93 8.61
9/17/2021 5:30:00 PM 21.32 70.376 0.185 7.49 3.29 8.47
9/17/2021 5:45:00 PM 21.3 70.34 0.186 7.47 3.18 8.43
9/17/2021 6:00:00 PM 21.27 70.286 0.186 7.45 2.85 8.37
9/17/2021 6:15:00 PM 21.24 70.232 0.186 7.45 3.4 8.39
9/17/2021 6:30:00 PM 21.2 70.16 0.187 7.43 3.05 8.33
9/17/2021 6:45:00 PM 21.18 70.124 0.187 7.41 3.05 8.3
9/17/2021 7:00:00 PM 21.15 70.07 0.187 7.41 3.17 8.3
9/17/2021 7:15:00 PM 21.11 69.998 0.187 7.4 3.22 8.33
9/17/2021 7:30:00 PM 21.09 69.962 0.187 7.39 4.04 8.35
9/17/2021 7:45:00 PM 21.07 69.926 0.187 7.39 3.1 8.35
9/17/2021 8:00:00 PM 21.05 69.89 0.187 7.38 3.11 8.34
9/17/2021 8:15:00 PM 21.03 69.854 0.188 7.37 2.81 8.34
9/17/2021 8:30:00 PM 21.03 69.854 0.188 7.38 3.36 8.32
9/17/2021 8:45:00 PM 21.02 69.836 0.188 7.37 3.73 8.32
9/17/2021 9:00:00 PM 21.01 69.818 0.188 7.38 2.94 8.33
9/17/2021 9:15:00 PM 21 69.8 0.188 7.37 2.7 8.31
9/17/2021 9:30:00 PM 20.99 69.782 0.188 7.37 2.82 8.32
9/17/2021 9:45:00 PM 20.97 69.746 0.188 7.37 3.91 8.32
9/17/2021 10:00:00 PM 20.94 69.692 0.188 7.37 3.31 8.32
9/17/2021 10:15:00 PM 20.91 69.638 0.189 7.35 2.95 8.32
9/17/2021 10:30:00 PM 20.87 69.566 0.189 7.37 2.79 8.31
9/17/2021 10:45:00 PM 20.82 69.476 0.189 7.35 2.68 8.29
9/17/2021 11:00:00 PM 20.77 69.386 0.19 7.36 3.06 8.27
9/17/2021 11:15:00 PM 20.7 69.26 0.19 7.35 3.27 8.34
9/17/2021 11:30:00 PM 20.65 69.17 0.19 7.35 2.96 8.32
9/17/2021 11:45:00 PM 20.59 69.062 0.191 7.33 3.08 8.33
9/18/2021 12:00:00 AM 20.52 68.936 0.191 7.35 2.9 8.38
9/18/2021 12:15:00 AM 20.46 68.828 0.191 7.33 2.51 8.38
9/18/2021 12:30:00 AM 20.4 68.72 0.191 7.35 2.7 8.42
9/18/2021 12:45:00 AM 20.35 68.63 0.191 7.32 2.55 8.41
9/18/2021 1:00:00 AM 20.29 68.522 0.191 7.35 2.62 8.4
9/18/2021 1:15:00 AM 20.24 68.432 0.192 7.35 2.84 8.42
9/18/2021 1:30:00 AM 20.19 68.342 0.192 7.31 2.42 8.45
9/18/2021 1:45:00 AM 20.15 68.27 0.192 7.32 3.31 8.44
9/18/2021 2:00:00 AM 20.11 68.198 0.192 7.35 2.64 8.45
9/18/2021 2:15:00 AM 20.08 68.144 0.192 7.35 2.89 8.47
9/18/2021 2:30:00 AM 20.05 68.09 0.192 7.31 2.85 8.45
9/18/2021 2:45:00 AM 20.02 68.036 0.192 7.35 2.71 8.46
9/18/2021 3:00:00 AM 19.98 67.964 0.192 7.35 2.81 8.48
9/18/2021 3:15:00 AM 19.95 67.91 0.193 7.34 2.87 8.48
9/18/2021 3:30:00 AM 19.93 67.874 0.193 7.35 2.91 8.5
9/18/2021 3:45:00 AM 19.91 67.838 0.193 7.35 2.84 8.5
9/18/2021 4:00:00 AM 19.89 67.802 0.193 7.35 2.6 8.48
9/18/2021 4:15:00 AM 19.87 67.766 0.194 7.35 2.6 8.5
9/18/2021 4:30:00 AM 19.86 67.748 0.194 7.35 2.57 8.47
9/18/2021 4:45:00 AM 19.85 67.73 0.194 7.35 2.61 8.49
9/18/2021 5:00:00 AM 19.84 67.712 0.194 7.35 2.81 8.51
9/18/2021 5:15:00 AM 19.84 67.712 0.194 7.35 2.94 8.51
9/18/2021 5:30:00 AM 19.83 67.694 0.194 7.35 2.79 8.48
9/18/2021 5:45:00 AM 19.83 67.694 0.194 7.35 2.81 8.52
9/18/2021 6:00:00 AM 19.82 67.676 0.194 7.34 2.62 8.47
9/18/2021 6:15:00 AM 19.82 67.676 0.194 7.35 2.91 8.47
9/18/2021 6:30:00 AM 19.81 67.658 0.194 7.35 3.15 8.5
9/18/2021 6:45:00 AM 19.8 67.64 0.194 7.35 2.83 8.49
9/18/2021 7:00:00 AM 19.8 67.64 0.194 7.34 2.6 8.48
9/18/2021 7:15:00 AM 19.79 67.622 0.194 7.34 4.09 8.46
9/18/2021 7:30:00 AM 19.8 67.64 0.194 7.34 2.42 8.44
9/18/2021 7:45:00 AM 19.8 67.64 0.194 7.36 2.64 8.47
9/18/2021 8:00:00 AM 19.81 67.658 0.194 7.38 2.38 8.59
9/18/2021 8:15:00 AM 19.82 67.676 0.194 7.38 2.71 8.56
9/18/2021 8:30:00 AM 19.84 67.712 0.194 7.41 2.54 8.67
9/18/2021 8:45:00 AM 19.87 67.766 0.194 7.41 2.55 8.68
9/18/2021 9:00:00 AM 19.9 67.82 0.194 7.41 2.5 8.69
9/18/2021 9:15:00 AM 19.92 67.856 0.194 7.42 2.32 8.61
9/18/2021 9:30:00 AM 19.96 67.92799 0.194 7.44 2.63 8.78
9/18/2021 9:45:00 AM 20 68 0.194 7.48 2.72 8.93
9/18/2021 10:00:00 AM 20.05 68.09 0.194 7.51 2.43 9.13
9/18/2021 10:15:00 AM 20.11 68.198 0.194 7.53 2.41 9.17
9/18/2021 10:30:00 AM 20.16 68.288 0.194 7.55 1.9 9.19
9/18/2021 10:45:00 AM 20.21 68.378 0.194 7.57 2.45 9.28
9/18/2021 11:00:00 AM 20.26 68.468 0.194 7.58 2.27 9.3
9/18/2021 11:15:00 AM 20.3 68.54 0.194 7.6 3.53 9.3
9/18/2021 11:30:00 AM 20.37 68.666 0.195 7.61 2.21 9.34
9/18/2021 11:45:00 AM 20.43 68.774 0.195 7.62 1.95 9.35
9/18/2021 12:00:00 PM 20.47 68.846 0.195 7.62 2.17 9.3
9/18/2021 12:15:00 PM 20.55 68.99 0.195 7.63 2.17 9.27
9/18/2021 12:30:00 PM 20.61 69.098 0.195 7.59 2.14 9.19
9/18/2021 12:45:00 PM 20.7 69.26 0.196 7.64 2.32 9.23
9/18/2021 1:00:00 PM 20.81 69.458 0.196 7.66 1.97 9.31
9/18/2021 1:15:00 PM 20.91 69.638 0.196 7.66 2.49 9.23
9/18/2021 1:30:00 PM 20.95 69.71 0.196 7.65 1.77 9.21
9/18/2021 1:45:00 PM 21.02 69.836 0.196 7.67 2.15 9.22
9/18/2021 2:00:00 PM 21.11 69.998 0.196 7.68 2.01 9.22
9/18/2021 2:15:00 PM 21.21 70.17799 0.196 7.68 3.39 9.25
9/18/2021 2:30:00 PM 21.32 70.376 0.196 7.72 2.15 9.32
9/18/2021 2:45:00 PM 21.44 70.592 0.196 7.75 2.17 9.33
9/18/2021 3:00:00 PM 21.49 70.682 0.197 7.74 2.04 9.27
9/18/2021 3:15:00 PM 21.55 70.79 0.197 7.72 2.12 9.25
9/18/2021 3:30:00 PM 21.62 70.916 0.197 7.74 2.22 9.22
9/18/2021 3:45:00 PM 21.64 70.952 0.197 7.73 2.06 9.18
9/18/2021 4:00:00 PM 21.63 70.934 0.197 7.68 1.87 8.99
9/18/2021 4:15:00 PM 21.61 70.898 0.197 7.66 2.17 8.9
9/18/2021 4:30:00 PM 21.61 70.898 0.197 7.63 2.34 8.85
9/18/2021 4:45:00 PM 21.61 70.898 0.198 7.65 1.95 8.89
9/18/2021 5:00:00 PM 21.6 70.88 0.198 7.64 2 8.89
9/18/2021 5:15:00 PM 21.56 70.808 0.198 7.56 2.03 8.79
9/18/2021 5:30:00 PM 21.53 70.754 0.198 7.59 2.29 8.75
9/18/2021 5:45:00 PM 21.51 70.718 0.198 7.56 1.97 8.7
9/18/2021 6:00:00 PM 21.49 70.682 0.198 7.54 2.39 8.58
9/18/2021 6:15:00 PM 21.46 70.628 0.198 7.5 2 8.4
9/18/2021 6:30:00 PM 21.45 70.61 0.199 7.48 1.98 8.26
9/18/2021 6:45:00 PM 21.42 70.556 0.198 7.46 2.06 8.39
9/18/2021 7:00:00 PM 21.39 70.502 0.198 7.44 1.87 8.3
9/18/2021 7:15:00 PM 21.36 70.448 0.198 7.43 2.36 8.27
9/18/2021 7:30:00 PM 21.34 70.412 0.198 7.42 3.12 8.23
9/18/2021 7:45:00 PM 21.32 70.376 0.199 7.4 2.6 8.2
9/18/2021 8:00:00 PM 21.3 70.34 0.198 7.4 1.97 8.18
9/18/2021 8:15:00 PM 21.27 70.286 0.199 7.38 1.9 8.13
9/18/2021 8:30:00 PM 21.23 70.214 0.199 7.38 2.26 8.15
9/18/2021 8:45:00 PM 21.19 70.142 0.199 7.37 2.08 8.12
9/18/2021 9:00:00 PM 21.14 70.052 0.199 7.37 2.03 8.1
9/18/2021 9:15:00 PM 21.08 69.944 0.199 7.37 2.27 8.14
9/18/2021 9:30:00 PM 21.03 69.854 0.2 7.36 2.35 8.14
9/18/2021 9:45:00 PM 20.96 69.728 0.2 7.36 2.2 8.16
9/18/2021 10:00:00 PM 20.89 69.602 0.2 7.35 2.2 8.2
9/18/2021 10:15:00 PM 20.81 69.458 0.2 7.35 2.02 8.19
9/18/2021 10:30:00 PM 20.73 69.314 0.201 7.35 2.39 8.22
9/18/2021 10:45:00 PM 20.66 69.188 0.201 7.34 2.16 8.22
9/18/2021 11:00:00 PM 20.57 69.026 0.201 7.34 2.21 8.22
9/18/2021 11:15:00 PM 20.49 68.882 0.201 7.33 2.27 8.25
9/18/2021 11:30:00 PM 20.41 68.738 0.201 7.34 1.99 8.25
9/18/2021 11:45:00 PM 20.34 68.612 0.201 7.34 2.79 8.29
9/19/2021 12:00:00 AM 20.28 68.504 0.201 7.33 2.2 8.27
9/19/2021 12:15:00 AM 20.24 68.432 0.201 7.35 2.59 8.24
9/19/2021 12:30:00 AM 20.17 68.306 0.202 7.35 2.43 8.29
9/19/2021 12:45:00 AM 20.12 68.216 0.202 7.33 2.23 8.36
9/19/2021 1:00:00 AM 20.08 68.144 0.202 7.35 2.37 8.34
9/19/2021 1:15:00 AM 20.04 68.07201 0.202 7.34 2.58 8.33
9/19/2021 1:30:00 AM 19.99 67.982 0.202 7.34 2.34 8.33
9/19/2021 1:45:00 AM 19.94 67.892 0.202 7.35 2.36 8.37
9/19/2021 2:00:00 AM 19.9 67.82 0.202 7.35 2.25 8.37
9/19/2021 2:15:00 AM 19.86 67.748 0.202 7.35 2.51 8.41
9/19/2021 2:30:00 AM 19.82 67.676 0.201 7.31 2.34 8.39
9/19/2021 2:45:00 AM 19.79 67.622 0.201 7.35 2.41 8.37
9/19/2021 3:00:00 AM 19.75 67.55 0.201 7.36 2.13 8.42
9/19/2021 3:15:00 AM 19.71 67.478 0.201 7.35 2.3 8.43
9/19/2021 3:30:00 AM 19.66 67.388 0.201 7.35 2.07 8.45
9/19/2021 3:45:00 AM 19.62 67.316 0.201 7.35 2.17 8.45
9/19/2021 4:00:00 AM 19.57 67.226 0.201 7.35 2.19 8.44
9/19/2021 4:15:00 AM 19.51 67.118 0.201 7.35 2.34 8.47
9/19/2021 4:30:00 AM 19.44 66.992 0.201 7.35 2.42 8.48
9/19/2021 4:45:00 AM 19.37 66.866 0.201 7.35 2.44 8.49
9/19/2021 5:00:00 AM 19.32 66.776 0.201 7.35 2.54 8.51
9/19/2021 5:15:00 AM 19.26 66.668 0.201 7.34 2.07 8.47
9/19/2021 5:30:00 AM 19.2 66.56 0.201 7.34 2.48 8.53
9/19/2021 5:45:00 AM 19.14 66.452 0.201 7.33 2.22 8.49
9/19/2021 6:00:00 AM 19.08 66.344 0.201 7.33 2.13 8.54
9/19/2021 6:15:00 AM 19.03 66.254 0.201 7.33 2.24 8.53
9/19/2021 6:30:00 AM 18.96 66.128 0.201 7.34 2.11 8.58
9/19/2021 6:45:00 AM 18.9 66.02 0.201 7.34 3.04 8.59
9/19/2021 7:00:00 AM 18.86 65.948 0.201 7.34 2.4 8.62
9/19/2021 7:15:00 AM 18.83 65.894 0.201 7.35 2.04 8.65
9/19/2021 7:30:00 AM 18.8 65.84 0.201 7.34 2 8.58
9/19/2021 7:45:00 AM 18.77 65.786 0.201 7.33 2.19 8.63
9/19/2021 8:00:00 AM 18.75 65.75 0.201 7.36 1.91 8.71
9/19/2021 8:15:00 AM 18.74 65.732 0.201 7.36 2.24 8.72
9/19/2021 8:30:00 AM 18.72 65.696 0.202 7.38 2.24 8.84
9/19/2021 8:45:00 AM 18.72 65.696 0.201 7.39 2.35 8.87
9/19/2021 9:00:00 AM 18.71 65.67799 0.202 7.41 2.19 8.92
9/19/2021 9:15:00 AM 18.73 65.714 0.201 7.44 2.16 9.14
9/19/2021 9:30:00 AM 18.74 65.732 0.201 7.46 2.44 9.2
9/19/2021 9:45:00 AM 18.76 65.768 0.202 7.49 2.23 9.27
9/19/2021 10:00:00 AM 18.79 65.82201 0.202 7.5 2.27 9.34
9/19/2021 10:15:00 AM 18.83 65.894 0.202 7.53 2 9.41
9/19/2021 10:30:00 AM 18.85 65.93 0.202 7.53 2.12 9.4
9/19/2021 10:45:00 AM 18.88 65.984 0.202 7.52 1.94 9.39
9/19/2021 11:00:00 AM 18.91 66.038 0.202 7.54 1.74 9.36
9/19/2021 11:15:00 AM 18.96 66.128 0.202 7.54 2.06 9.35
9/19/2021 11:30:00 AM 19.02 66.236 0.202 7.54 2 9.38
9/19/2021 11:45:00 AM 19.11 66.398 0.202 7.56 2.04 9.37
9/19/2021 12:00:00 PM 19.18 66.524 0.202 7.55 1.9 9.4
9/19/2021 12:15:00 PM 19.27 66.686 0.202 7.57 1.99 9.46
9/19/2021 12:30:00 PM 19.37 66.866 0.202 7.61 1.98 9.46
9/19/2021 12:45:00 PM 19.46 67.028 0.202 7.64 1.9 9.51
9/19/2021 1:00:00 PM 19.57 67.226 0.202 7.65 1.88 9.54
9/19/2021 1:15:00 PM 19.66 67.388 0.202 7.65 1.95 9.56
9/19/2021 1:30:00 PM 19.75 67.55 0.202 7.67 1.87 9.54
9/19/2021 1:45:00 PM 19.86 67.748 0.203 7.68 1.94 9.54
9/19/2021 2:00:00 PM 19.95 67.91 0.203 7.71 1.93 9.57
9/19/2021 2:15:00 PM 20.03 68.054 0.203 7.7 2.03 9.53
9/19/2021 2:30:00 PM 20.13 68.234 0.203 7.71 1.97 9.51
9/19/2021 2:45:00 PM 20.2 68.36 0.203 7.71 2.01 9.47
9/19/2021 3:00:00 PM 20.28 68.504 0.203 7.68 1.6 9.45
9/19/2021 3:15:00 PM 20.33 68.594 0.203 7.69 2.17 9.35
9/19/2021 3:30:00 PM 20.37 68.666 0.203 7.69 1.95 9.33
9/19/2021 3:45:00 PM 20.4 68.72 0.203 7.67 6.42 9.25
9/19/2021 4:00:00 PM 20.41 68.738 0.204 7.65 2.11 9.19
9/19/2021 4:15:00 PM 20.41 68.738 0.204 7.62 2.46 9.11
9/19/2021 4:30:00 PM 20.4 68.72 0.204 7.61 1.86 9.05
9/19/2021 4:45:00 PM 20.38 68.684 0.204 7.58 1.9 8.98
9/19/2021 5:00:00 PM 20.35 68.63 0.205 7.57 2.06 8.93
9/19/2021 5:15:00 PM 20.3 68.54 0.205 7.55 1.79 8.9
9/19/2021 5:30:00 PM 20.26 68.468 0.205 7.54 1.91 8.83
9/19/2021 5:45:00 PM 20.22 68.396 0.206 7.48 1.84 8.77
9/19/2021 6:00:00 PM 20.17 68.306 0.206 7.5 1.78 8.74
9/19/2021 6:15:00 PM 20.13 68.234 0.206 7.48 2.14 8.66
9/19/2021 6:30:00 PM 20.08 68.144 0.206 7.47 2.15 8.63
9/19/2021 6:45:00 PM 20.04 68.07201 0.206 7.45 2.18 8.59
9/19/2021 7:00:00 PM 20 68 0.206 7.43 1.94 8.54
9/19/2021 7:15:00 PM 19.98 67.964 0.205 7.43 2.24 8.51
9/19/2021 7:30:00 PM 19.94 67.892 0.205 7.38 1.95 8.47
9/19/2021 7:45:00 PM 19.91 67.838 0.205 7.4 2.24 8.43
9/19/2021 8:00:00 PM 19.86 67.748 0.205 7.38 1.94 8.43
9/19/2021 8:15:00 PM 19.81 67.658 0.204 7.39 2.11 8.43
9/19/2021 8:30:00 PM 19.75 67.55 0.204 7.37 1.94 8.43
9/19/2021 8:45:00 PM 19.7 67.46 0.204 7.38 2.15 8.44
9/19/2021 9:00:00 PM 19.63 67.334 0.204 7.37 2.14 8.44
9/19/2021 9:15:00 PM 19.56 67.208 0.204 7.36 2.44 8.45
9/19/2021 9:30:00 PM 19.49 67.082 0.204 7.36 2.21 8.45
9/19/2021 9:45:00 PM 19.43 66.974 0.204 7.36 2.36 8.45
9/19/2021 10:00:00 PM 19.35 66.83 0.204 7.35 2.03 8.48
9/19/2021 10:15:00 PM 19.29 66.722 0.204 7.35 2.1 8.51
9/19/2021 10:30:00 PM 19.22 66.596 0.204 7.35 2.08 8.5
9/19/2021 10:45:00 PM 19.16 66.488 0.204 7.35 2.36 8.54
9/19/2021 11:00:00 PM 19.1 66.38 0.204 7.35 2.37 8.55
9/19/2021 11:15:00 PM 19.03 66.254 0.205 7.35 2.25 8.56
9/19/2021 11:30:00 PM 18.96 66.128 0.205 7.35 2.39 8.58
9/19/2021 11:45:00 PM 18.9 66.02 0.205 7.35 2.28 8.59
9/20/2021 12:00:00 AM 18.84 65.912 0.205 7.35 2.26 8.6
9/20/2021 12:15:00 AM 18.77 65.786 0.206 7.34 2.29 8.61
9/20/2021 12:30:00 AM 18.7 65.66 0.206 7.33 2.09 8.62
9/20/2021 12:45:00 AM 18.63 65.534 0.206 7.34 2.3 8.64
9/20/2021 1:00:00 AM 18.57 65.426 0.206 7.35 2.5 8.67
9/20/2021 1:15:00 AM 18.52 65.336 0.206 7.35 2.24 8.68
9/20/2021 1:30:00 AM 18.46 65.228 0.206 7.34 2.31 8.68
9/20/2021 1:45:00 AM 18.4 65.12 0.206 7.31 2.73 8.69
9/20/2021 2:00:00 AM 18.34 65.012 0.206 7.35 2.47 8.69
9/20/2021 2:15:00 AM 18.28 64.904 0.206 7.35 2.41 8.73
9/20/2021 2:30:00 AM 18.22 64.796 0.206 7.34 2.39 8.74
9/20/2021 2:45:00 AM 18.16 64.688 0.206 7.34 2.62 8.75
9/20/2021 3:00:00 AM 18.11 64.598 0.206 7.31 2.29 8.76
9/20/2021 3:15:00 AM 18.05 64.49 0.206 7.35 2.65 8.77
9/20/2021 3:30:00 AM 18 64.4 0.206 7.35 2.73 8.79
9/20/2021 3:45:00 AM 17.93 64.274 0.206 7.34 2.36 8.81
9/20/2021 4:00:00 AM 17.88 64.184 0.206 7.34 2.31 8.81
9/20/2021 4:15:00 AM 17.83 64.094 0.206 7.34 2.5 8.82
9/20/2021 4:30:00 AM 17.77 63.986 0.205 7.34 2.29 8.83
9/20/2021 4:45:00 AM 17.72 63.896 0.205 7.35 2.26 8.85
9/20/2021 5:00:00 AM 17.66 63.788 0.205 7.33 2.47 8.87
9/20/2021 5:15:00 AM 17.6 63.68 0.206 7.34 2.24 8.87
9/20/2021 5:30:00 AM 17.55 63.59 0.205 7.34 2.26 8.88
9/20/2021 5:45:00 AM 17.49 63.482 0.206 7.34 2.6 8.88
9/20/2021 6:00:00 AM 17.44 63.392 0.206 7.34 2.35 8.91
9/20/2021 6:15:00 AM 17.39 63.302 0.206 7.34 2.3 8.93
9/20/2021 6:30:00 AM 17.34 63.212 0.206 7.34 2.18 8.92
9/20/2021 6:45:00 AM 17.3 63.14 0.206 7.32 2.17 8.97
9/20/2021 7:00:00 AM 17.24 63.032 0.206 7.35 2.26 8.97
9/20/2021 7:15:00 AM 17.19 62.942 0.206 7.35 2.34 9
9/20/2021 7:30:00 AM 17.15 62.87 0.206 7.34 2.15 9.05
9/20/2021 7:45:00 AM 17.11 62.798 0.206 7.36 2.16 9.08
9/20/2021 8:00:00 AM 17.09 62.762 0.206 7.33 2.22 9.14
9/20/2021 8:15:00 AM 17.06 62.708 0.206 7.38 2.24 9.21
9/20/2021 8:30:00 AM 17.05 62.69 0.206 7.39 2.13 9.24
9/20/2021 8:45:00 AM 17.06 62.708 0.206 7.4 2.3 9.31
9/20/2021 9:00:00 AM 17.08 62.744 0.206 7.42 2.33 9.36
9/20/2021 9:15:00 AM 17.11 62.798 0.206 7.42 2.02 9.41
9/20/2021 9:30:00 AM 17.15 62.87 0.206 7.44 2.16 9.48
9/20/2021 9:45:00 AM 17.21 62.978 0.207 7.46 2.22 9.53
9/20/2021 10:00:00 AM 17.26 63.068 0.207 7.46 2.06 9.55
9/20/2021 10:15:00 AM 17.34 63.212 0.207 7.49 2.29 9.59
9/20/2021 10:30:00 AM 17.42 63.356 0.207 7.5 2.2 9.61
9/20/2021 10:45:00 AM 17.51 63.518 0.206 7.51 2.14 9.66
9/20/2021 11:00:00 AM 17.61 63.698 0.206 7.54 2.22 9.68
9/20/2021 11:15:00 AM 17.72 63.896 0.206 7.55 2.09 9.68
9/20/2021 11:30:00 AM 17.84 64.112 0.206 7.56 2.44 9.72
9/20/2021 11:45:00 AM 18 64.4 0.206 7.6 2.08 9.77
9/20/2021 12:00:00 PM 18.15 64.67 0.206 7.6 2.32 9.8
9/20/2021 12:15:00 PM 18.31 64.958 0.206 7.65 1.97 9.82
9/20/2021 12:30:00 PM 18.47 65.246 0.206 7.64 2.04 9.83
9/20/2021 12:45:00 PM 18.64 65.552 0.206 7.68 2.15 9.84
9/20/2021 1:00:00 PM 18.82 65.876 0.206 7.71 2.1 9.85
9/20/2021 1:15:00 PM 18.98 66.164 0.206 7.69 2.07 9.87
9/20/2021 1:30:00 PM 19.16 66.488 0.206 7.74 1.77 9.87
9/20/2021 1:45:00 PM 19.31 66.758 0.206 7.77 2.21 9.87
9/20/2021 2:00:00 PM 19.45 67.01 0.206 7.77 1.82 9.87
9/20/2021 2:15:00 PM 19.6 67.28 0.206 7.79 2.05 9.84
9/20/2021 2:30:00 PM 19.72 67.496 0.206 7.79 2.01 9.82
9/20/2021 2:45:00 PM 19.83 67.694 0.206 7.78 2.01 9.77
9/20/2021 3:00:00 PM 19.93 67.874 0.206 7.78 1.79 9.69
9/20/2021 3:15:00 PM 20.03 68.054 0.206 7.78 1.99 9.65
9/20/2021 3:30:00 PM 20.09 68.162 0.206 7.77 1.95 9.58
9/20/2021 3:45:00 PM 20.16 68.288 0.206 7.74 2 9.49
9/20/2021 4:00:00 PM 20.22 68.396 0.206 7.72 2.01 9.42
9/20/2021 4:15:00 PM 20.27 68.486 0.207 7.72 1.83 9.36
9/20/2021 4:30:00 PM 20.3 68.54 0.207 7.69 1.93 9.28
9/20/2021 4:45:00 PM 20.34 68.612 0.207 7.67 1.82 9.23
9/20/2021 5:00:00 PM 20.35 68.63 0.207 7.66 1.93 9.17
9/20/2021 5:15:00 PM 20.35 68.63 0.207 7.64 2.1 9.09
9/20/2021 5:30:00 PM 20.36 68.648 0.207 7.6 1.85 9.01
9/20/2021 5:45:00 PM 20.33 68.594 0.208 7.58 1.89 8.94
9/20/2021 6:00:00 PM 20.3 68.54 0.208 7.56 1.92 8.86
9/20/2021 6:15:00 PM 20.28 68.504 0.208 7.54 2.03 8.81
9/20/2021 6:30:00 PM 20.23 68.414 0.209 7.51 1.76 8.72
9/20/2021 6:45:00 PM 20.18 68.324 0.209 7.48 1.82 8.63
9/20/2021 7:00:00 PM 20.13 68.234 0.209 7.43 1.92 8.57
9/20/2021 7:15:00 PM 20.06 68.108 0.209 7.44 1.74 8.53
9/20/2021 7:30:00 PM 20 68 0.21 7.42 1.84 8.49
9/20/2021 7:45:00 PM 19.93 67.874 0.21 7.41 2.02 8.46
9/20/2021 8:00:00 PM 19.86 67.748 0.21 7.4 2.01 8.46
9/20/2021 8:15:00 PM 19.79 67.622 0.21 7.39 2.01 8.45
9/20/2021 8:30:00 PM 19.72 67.496 0.21 7.38 1.91 8.45
9/20/2021 8:45:00 PM 19.64 67.352 0.211 7.37 2.23 8.46
9/20/2021 9:00:00 PM 19.56 67.208 0.211 7.37 1.91 8.48
9/20/2021 9:15:00 PM 19.48 67.064 0.211 7.37 1.8 8.49
9/20/2021 9:30:00 PM 19.4 66.92 0.211 7.34 2.02 8.49
9/20/2021 9:45:00 PM 19.32 66.776 0.211 7.36 1.99 8.52
9/20/2021 10:00:00 PM 19.25 66.65 0.211 7.36 1.85 8.52
9/20/2021 10:15:00 PM 19.19 66.542 0.211 7.36 2.51 8.52
9/20/2021 10:30:00 PM 19.13 66.434 0.211 7.33 2.1 8.55
9/20/2021 10:45:00 PM 19.08 66.344 0.211 7.33 1.98 8.54
9/20/2021 11:00:00 PM 19.03 66.254 0.211 7.36 2.09 8.55
9/20/2021 11:15:00 PM 18.98 66.164 0.211 7.35 1.98 8.53
9/20/2021 11:30:00 PM 18.93 66.074 0.211 7.35 2.12 8.57
9/20/2021 11:45:00 PM 18.89 66.002 0.211 7.34 1.98 8.58
9/21/2021 12:00:00 AM 18.84 65.912 0.212 7.36 2.04 8.61
9/21/2021 12:15:00 AM 18.79 65.82201 0.212 7.36 1.95 8.6
9/21/2021 12:30:00 AM 18.75 65.75 0.212 7.36 2.02 8.6
9/21/2021 12:45:00 AM 18.71 65.67799 0.212 7.36 1.89 8.64
9/21/2021 1:00:00 AM 18.67 65.606 0.212 7.36 2.06 8.66
9/21/2021 1:15:00 AM 18.62 65.516 0.212 7.36 2 8.66
9/21/2021 1:30:00 AM 18.58 65.444 0.212 7.36 1.93 8.64
9/21/2021 1:45:00 AM 18.54 65.372 0.212 7.37 1.85 8.69
9/21/2021 2:00:00 AM 18.49 65.282 0.212 7.36 2 8.67
9/21/2021 2:15:00 AM 18.45 65.21 0.212 7.36 1.9 8.68
9/21/2021 2:30:00 AM 18.4 65.12 0.213 7.36 1.93 8.7
9/21/2021 2:45:00 AM 18.36 65.048 0.212 7.36 2.05 8.7
9/21/2021 3:00:00 AM 18.32 64.976 0.212 7.36 1.96 8.71
9/21/2021 3:15:00 AM 18.27 64.886 0.212 7.36 2.38 8.73
9/21/2021 3:30:00 AM 18.23 64.814 0.212 7.36 4.79 8.73
9/21/2021 3:45:00 AM 18.19 64.742 0.212 7.36 1.88 8.74
9/21/2021 4:00:00 AM 18.16 64.688 0.212 7.36 2.06 8.75
9/21/2021 4:15:00 AM 18.13 64.634 0.212 7.34 2 8.75
9/21/2021 4:30:00 AM 18.11 64.598 0.212 7.37 1.93 8.76
9/21/2021 4:45:00 AM 18.08 64.544 0.212 7.37 2.03 8.79
9/21/2021 5:00:00 AM 18.05 64.49 0.212 7.36 2.1 8.79
9/21/2021 5:15:00 AM 18.02 64.436 0.213 7.37 2.11 8.78
9/21/2021 5:30:00 AM 17.97 64.346 0.213 7.35 2.18 8.75
9/21/2021 5:45:00 AM 17.93 64.274 0.213 7.35 1.91 8.79
9/21/2021 6:00:00 AM 17.89 64.202 0.213 7.36 1.87 8.79
9/21/2021 6:15:00 AM 17.84 64.112 0.213 7.36 2.23 8.81
9/21/2021 6:30:00 AM 17.81 64.058 0.213 7.36 2.54 8.8
9/21/2021 6:45:00 AM 17.77 63.986 0.213 7.36 2.32 8.84
9/21/2021 7:00:00 AM 17.73 63.914 0.213 7.36 1.97 8.87
9/21/2021 7:15:00 AM 17.68 63.824 0.213 7.33 2.01 8.89
9/21/2021 7:30:00 AM 17.65 63.77 0.213 7.37 2.05 8.95
9/21/2021 7:45:00 AM 17.63 63.734 0.212 7.35 2.21 8.99
9/21/2021 8:00:00 AM 17.6 63.68 0.212 7.39 2.16 9.04
9/21/2021 8:15:00 AM 17.59 63.662 0.212 7.42 1.78 9.22
9/21/2021 8:30:00 AM 17.59 63.662 0.212 7.44 1.92 9.36
9/21/2021 8:45:00 AM 17.63 63.734 0.212 7.48 2.05 9.54
9/21/2021 9:00:00 AM 17.68 63.824 0.212 7.5 2.24 9.66
9/21/2021 9:15:00 AM 17.72 63.896 0.211 7.52 2.14 9.72
9/21/2021 9:30:00 AM 17.76 63.968 0.211 7.55 1.93 9.81
9/21/2021 9:45:00 AM 17.82 64.076 0.211 7.62 1.91 9.96
9/21/2021 10:00:00 AM 17.87 64.166 0.211 7.63 2.14 9.99
9/21/2021 10:15:00 AM 17.94 64.292 0.211 7.64 2.13 10.1
9/21/2021 10:30:00 AM 18 64.4 0.211 7.69 1.84 10.13
9/21/2021 10:45:00 AM 18.07 64.526 0.211 7.74 1.66 10.26
9/21/2021 11:00:00 AM 18.1 64.58 0.211 7.75 1.91 10.21
9/21/2021 11:15:00 AM 18.19 64.742 0.211 7.79 1.89 10.32
9/21/2021 11:30:00 AM 18.26 64.868 0.21 7.82 1.99 10.36
9/21/2021 11:45:00 AM 18.32 64.976 0.21 7.84 1.84 10.35
9/21/2021 12:00:00 PM 18.38 65.084 0.21 7.85 2.11 10.32
9/21/2021 12:15:00 PM 18.46 65.228 0.21 7.88 1.89 10.37
9/21/2021 12:30:00 PM 18.58 65.444 0.21 7.96 2.22 10.51
9/21/2021 12:45:00 PM 18.69 65.642 0.21 8 1.54 10.57
9/21/2021 1:00:00 PM 18.77 65.786 0.21 7.99 1.81 10.49
9/21/2021 1:15:00 PM 18.89 66.002 0.211 8.05 1.84 10.62
9/21/2021 1:30:00 PM 19.03 66.254 0.211 8.13 1.74 10.71
9/21/2021 1:45:00 PM 19.12 66.416 0.211 8.16 1.84 10.7
9/21/2021 2:00:00 PM 19.23 66.614 0.21 8.18 1.81 10.67
9/21/2021 2:15:00 PM 19.3 66.74 0.21 8.18 2.08 10.59
9/21/2021 2:30:00 PM 19.36 66.848 0.21 8.18 1.92 10.52
9/21/2021 2:45:00 PM 19.37 66.866 0.21 8.1 1.8 10.3
9/21/2021 3:00:00 PM 19.4 66.92 0.211 8.02 1.72 10.11
9/21/2021 3:15:00 PM 19.45 67.01 0.211 8.03 2.43 10.15
9/21/2021 3:30:00 PM 19.51 67.118 0.211 8.05 1.75 10.19
9/21/2021 3:45:00 PM 19.55 67.19 0.211 8.03 1.88 10.13
9/21/2021 4:00:00 PM 19.59 67.262 0.211 8.01 1.78 10.09
9/21/2021 4:15:00 PM 19.64 67.352 0.211 8 1.85 10.07
9/21/2021 4:30:00 PM 19.68 67.424 0.211 7.98 1.88 9.98
9/21/2021 4:45:00 PM 19.7 67.46 0.211 7.94 1.93 9.9
9/21/2021 5:00:00 PM 19.71 67.478 0.211 7.9 1.91 9.78
9/21/2021 5:15:00 PM 19.74 67.532 0.211 7.87 1.95 9.73
9/21/2021 5:30:00 PM 19.77 67.586 0.211 7.84 1.84 9.68
9/21/2021 5:45:00 PM 19.8 67.64 0.211 7.83 1.86 9.62
9/21/2021 6:00:00 PM 19.79 67.622 0.212 7.76 1.82 9.48
9/21/2021 6:15:00 PM 19.79 67.622 0.211 7.71 1.73 9.3
9/21/2021 6:30:00 PM 19.75 67.55 0.212 7.65 1.9 9.1
9/21/2021 6:45:00 PM 19.72 67.496 0.212 7.59 1.7 8.93
9/21/2021 7:00:00 PM 19.7 67.46 0.212 7.55 1.84 8.79
9/21/2021 7:15:00 PM 19.67 67.406 0.212 7.51 1.76 8.69
9/21/2021 7:30:00 PM 19.62 67.316 0.212 7.46 1.92 8.59
9/21/2021 7:45:00 PM 19.58 67.244 0.212 7.46 1.84 8.54
9/21/2021 8:00:00 PM 19.54 67.172 0.212 7.42 1.83 8.52
9/21/2021 8:15:00 PM 19.5 67.1 0.213 7.42 1.89 8.49
9/21/2021 8:30:00 PM 19.46 67.028 0.213 7.41 1.85 8.46
9/21/2021 8:45:00 PM 19.42 66.956 0.213 7.4 1.9 8.47
9/21/2021 9:00:00 PM 19.38 66.884 0.213 7.39 1.84 8.47
9/21/2021 9:15:00 PM 19.34 66.812 0.213 7.38 1.79 8.44
9/21/2021 9:30:00 PM 19.29 66.722 0.213 7.38 1.79 8.44
9/21/2021 9:45:00 PM 19.25 66.65 0.213 7.38 2.16 8.45
9/21/2021 10:00:00 PM 19.21 66.578 0.213 7.38 1.87 8.45
9/21/2021 10:15:00 PM 19.16 66.488 0.214 7.37 1.87 8.43
9/21/2021 10:30:00 PM 19.12 66.416 0.214 7.36 1.75 8.47
9/21/2021 10:45:00 PM 19.08 66.344 0.214 7.35 2.02 8.41
9/21/2021 11:00:00 PM 19.04 66.272 0.214 7.34 1.94 8.48
9/21/2021 11:15:00 PM 18.99 66.182 0.214 7.35 1.93 8.45
9/21/2021 11:30:00 PM 18.95 66.11 0.215 7.35 1.97 8.47
9/21/2021 11:45:00 PM 18.92 66.056 0.215 7.35 1.88 8.5
9/22/2021 12:00:00 AM 18.88 65.984 0.215 7.35 1.94 8.48
9/22/2021 12:15:00 AM 18.84 65.912 0.215 7.35 1.9 8.51
9/22/2021 12:30:00 AM 18.81 65.858 0.215 7.35 1.96 8.51
9/22/2021 12:45:00 AM 18.78 65.804 0.216 7.35 1.83 8.51
9/22/2021 1:00:00 AM 18.75 65.75 0.216 7.35 1.75 8.52
9/22/2021 1:15:00 AM 18.72 65.696 0.216 7.35 1.96 8.49
9/22/2021 1:30:00 AM 18.68 65.624 0.216 7.32 1.92 8.55
9/22/2021 1:45:00 AM 18.66 65.588 0.216 7.35 1.92 8.54
9/22/2021 2:00:00 AM 18.64 65.552 0.216 7.35 2.02 8.56
9/22/2021 2:15:00 AM 18.62 65.516 0.216 7.34 2.07 8.55
9/22/2021 2:30:00 AM 18.59 65.462 0.216 7.34 1.99 8.55
9/22/2021 2:45:00 AM 18.57 65.426 0.216 7.35 2.04 8.56
9/22/2021 3:00:00 AM 18.55 65.39 0.216 7.35 1.94 8.56
9/22/2021 3:15:00 AM 18.54 65.372 0.217 7.34 1.89 8.55
9/22/2021 3:30:00 AM 18.52 65.336 0.217 7.35 2.02 8.56
9/22/2021 3:45:00 AM 18.5 65.3 0.218 7.3 2.01 8.55
9/22/2021 4:00:00 AM 18.48 65.264 0.218 7.35 1.76 8.58
9/22/2021 4:15:00 AM 18.46 65.228 0.218 7.34 1.97 8.58
9/22/2021 4:30:00 AM 18.44 65.192 0.218 7.34 1.92 8.56
9/22/2021 4:45:00 AM 18.42 65.156 0.218 7.34 2.06 8.58
9/22/2021 5:00:00 AM 18.38 65.084 0.218 7.34 1.83 8.58
9/22/2021 5:15:00 AM 18.37 65.066 0.218 7.34 1.93 8.59
9/22/2021 5:30:00 AM 18.35 65.03 0.218 7.3 1.99 8.6
9/22/2021 5:45:00 AM 18.33 64.994 0.218 7.34 2.19 8.59
9/22/2021 6:00:00 AM 18.32 64.976 0.218 7.34 1.87 8.59
9/22/2021 6:15:00 AM 18.3 64.94 0.218 7.33 1.85 8.58
9/22/2021 6:30:00 AM 18.3 64.94 0.218 7.33 1.83 8.59
9/22/2021 6:45:00 AM 18.3 64.94 0.218 7.34 2.04 8.61
9/22/2021 7:00:00 AM 18.28 64.904 0.218 7.33 2.03 8.59
9/22/2021 7:15:00 AM 18.27 64.886 0.218 7.34 1.92 8.62
9/22/2021 7:30:00 AM 18.28 64.904 0.218 7.34 1.96 8.66
9/22/2021 7:45:00 AM 18.29 64.922 0.218 7.36 1.91 8.75
9/22/2021 8:00:00 AM 18.3 64.94 0.218 7.38 1.89 8.83
9/22/2021 8:15:00 AM 18.31 64.958 0.218 7.4 1.91 8.98
9/22/2021 8:30:00 AM 18.34 65.012 0.217 7.43 1.93 9.18
9/22/2021 8:45:00 AM 18.37 65.066 0.217 7.46 1.82 9.26
9/22/2021 9:00:00 AM 18.4 65.12 0.218 7.46 1.74 9.22
9/22/2021 9:15:00 AM 18.45 65.21 0.217 7.48 1.78 9.36
9/22/2021 9:30:00 AM 18.52 65.336 0.217 7.52 1.85 9.57
9/22/2021 9:45:00 AM 18.59 65.462 0.217 7.58 2.02 9.72
9/22/2021 10:00:00 AM 18.68 65.624 0.217 7.62 1.77 9.84
9/22/2021 10:15:00 AM 18.8 65.84 0.217 7.71 1.75 10.11
9/22/2021 10:30:00 AM 18.89 66.002 0.216 7.73 1.94 10.16
9/22/2021 10:45:00 AM 18.92 66.056 0.216 7.72 1.93 9.97
9/22/2021 11:00:00 AM 19.01 66.218 0.216 7.77 1.77 10.12
9/22/2021 11:15:00 AM 19.13 66.434 0.216 7.88 2.03 10.35
9/22/2021 11:30:00 AM 19.24 66.632 0.216 7.93 1.87 10.46
9/22/2021 11:45:00 AM 19.32 66.776 0.216 8 1.8 10.51
9/22/2021 12:00:00 PM 19.4 66.92 0.216 8.05 2.02 10.56
9/22/2021 12:15:00 PM 19.49 67.082 0.216 8.07 1.9 10.61
9/22/2021 12:30:00 PM 19.58 67.244 0.215 8.13 1.63 10.64
9/22/2021 12:45:00 PM 19.66 67.388 0.215 8.17 1.84 10.59
9/22/2021 1:00:00 PM 19.74 67.532 0.215 8.2 1.84 10.63
9/22/2021 1:15:00 PM 19.83 67.694 0.216 8.22 1.69 10.61
9/22/2021 1:30:00 PM 19.89 67.802 0.215 8.23 1.92 10.55
9/22/2021 1:45:00 PM 19.9 67.82 0.216 8.12 1.77 10.23
9/22/2021 2:00:00 PM 20.01 68.018 0.215 8.19 1.9 10.39
9/22/2021 2:15:00 PM 20.11 68.198 0.215 8.25 1.78 10.48
9/22/2021 2:30:00 PM 20.18 68.324 0.215 8.27 1.73 10.45
9/22/2021 2:45:00 PM 20.19 68.342 0.215 8.15 1.75 10.14
9/22/2021 3:00:00 PM 20.21 68.378 0.215 8.13 1.74 10.1
9/22/2021 3:15:00 PM 20.24 68.432 0.215 8.12 1.97 10.04
9/22/2021 3:30:00 PM 20.28 68.504 0.215 8.11 1.69 9.98
9/22/2021 3:45:00 PM 20.3 68.54 0.216 8.05 1.82 9.86
9/22/2021 4:00:00 PM 20.33 68.594 0.216 8.02 1.73 9.79
9/22/2021 4:15:00 PM 20.34 68.612 0.216 7.92 2.13 9.62
9/22/2021 4:30:00 PM 20.35 68.63 0.216 7.9 1.95 9.52
9/22/2021 4:45:00 PM 20.36 68.648 0.216 7.82 1.7 9.37
9/22/2021 5:00:00 PM 20.37 68.666 0.216 7.77 1.63 9.17
9/22/2021 5:15:00 PM 20.37 68.666 0.217 7.71 1.89 9
9/22/2021 5:30:00 PM 20.36 68.648 0.217 7.65 1.75 8.85
9/22/2021 5:45:00 PM 20.35 68.63 0.217 7.6 1.86 8.71
9/22/2021 6:00:00 PM 20.34 68.612 0.217 7.56 1.88 8.58
9/22/2021 6:15:00 PM 20.33 68.594 0.217 7.53 1.73 8.46
9/22/2021 6:30:00 PM 20.31 68.558 0.218 7.48 1.79 8.39
9/22/2021 6:45:00 PM 20.3 68.54 0.218 7.51 2.39 8.38
9/22/2021 7:00:00 PM 20.27 68.486 0.218 7.47 1.7 8.28
9/22/2021 7:15:00 PM 20.25 68.45 0.218 7.45 2.16 8.25
9/22/2021 7:30:00 PM 20.23 68.414 0.219 7.41 1.89 8.2
9/22/2021 7:45:00 PM 20.22 68.396 0.219 7.44 1.88 8.19
9/22/2021 8:00:00 PM 20.2 68.36 0.219 7.41 1.75 8.18
9/22/2021 8:15:00 PM 20.19 68.342 0.219 7.42 2.22 8.14
9/22/2021 8:30:00 PM 20.17 68.306 0.22 7.41 1.96 8.14
9/22/2021 8:45:00 PM 20.16 68.288 0.219 7.42 1.95 8.14
9/22/2021 9:00:00 PM 20.14 68.252 0.22 7.39 1.77 8.14
9/22/2021 9:15:00 PM 20.12 68.216 0.22 7.4 1.85 8.17
9/22/2021 9:30:00 PM 20.1 68.18 0.22 7.4 1.88 8.15
9/22/2021 9:45:00 PM 20.09 68.162 0.22 7.39 1.7 8.13
9/22/2021 10:00:00 PM 20.07 68.126 0.22 7.39 1.92 8.15
9/22/2021 10:15:00 PM 20.05 68.09 0.22 7.4 2.1 8.16
9/22/2021 10:30:00 PM 20.03 68.054 0.22 7.39 1.89 8.15
9/22/2021 10:45:00 PM 20.01 68.018 0.22 7.39 1.91 8.16
9/22/2021 11:00:00 PM 19.99 67.982 0.22 7.39 1.92 8.13
9/22/2021 11:15:00 PM 19.97 67.946 0.22 7.38 1.74 8.14
9/22/2021 11:30:00 PM 19.95 67.91 0.22 7.39 2.02 8.16
9/22/2021 11:45:00 PM 19.94 67.892 0.22 7.38 1.83 8.15
9/23/2021 12:00:00 AM 19.92 67.856 0.22 7.39 1.96 8.15
9/23/2021 12:15:00 AM 19.9 67.82 0.22 7.39 1.97 8.17
9/23/2021 12:30:00 AM 19.88 67.784 0.22 7.38 1.89 8.17
9/23/2021 12:45:00 AM 19.87 67.766 0.22 7.38 2 8.15
9/23/2021 1:00:00 AM 19.85 67.73 0.22 7.39 2.03 8.17
9/23/2021 1:15:00 AM 19.84 67.712 0.22 7.39 1.96 8.17
9/23/2021 1:30:00 AM 19.83 67.694 0.22 7.38 1.98 8.16
9/23/2021 1:45:00 AM 19.83 67.694 0.22 7.39 2.03 8.17
9/23/2021 2:00:00 AM 19.82 67.676 0.22 7.39 1.74 8.19
9/23/2021 2:15:00 AM 19.82 67.676 0.22 7.39 1.99 8.19
9/23/2021 2:30:00 AM 19.81 67.658 0.22 7.38 1.98 8.18
9/23/2021 2:45:00 AM 19.8 67.64 0.22 7.38 1.87 8.19
9/23/2021 3:00:00 AM 19.8 67.64 0.22 7.38 2.21 8.17
9/23/2021 3:15:00 AM 19.79 67.622 0.22 7.38 1.97 8.18
9/23/2021 3:30:00 AM 19.78 67.604 0.221 7.38 1.94 8.16
9/23/2021 3:45:00 AM 19.77 67.586 0.221 7.38 1.9 8.15
9/23/2021 4:00:00 AM 19.77 67.586 0.221 7.38 1.98 8.14
9/23/2021 4:15:00 AM 19.75 67.55 0.221 7.38 2.01 8.13
9/23/2021 4:30:00 AM 19.75 67.55 0.221 7.38 1.83 8.17
9/23/2021 4:45:00 AM 19.74 67.532 0.221 7.38 2 8.19
9/23/2021 5:00:00 AM 19.74 67.532 0.221 7.38 1.95 8.19
9/23/2021 5:15:00 AM 19.74 67.532 0.22 7.38 1.93 8.18
9/23/2021 5:30:00 AM 19.73 67.514 0.22 7.38 2.04 8.2
9/23/2021 5:45:00 AM 19.73 67.514 0.221 7.38 1.86 8.19
9/23/2021 6:00:00 AM 19.72 67.496 0.221 7.38 1.84 8.18
9/23/2021 6:15:00 AM 19.72 67.496 0.22 7.35 2.36 8.2
9/23/2021 6:30:00 AM 19.71 67.478 0.22 7.37 2.23 8.19
9/23/2021 6:45:00 AM 19.72 67.496 0.22 7.39 2.08 8.23
9/23/2021 7:00:00 AM 19.7 67.46 0.22 7.38 2.01 8.22
9/23/2021 7:15:00 AM 19.71 67.478 0.22 7.39 1.99 8.27
9/23/2021 7:30:00 AM 19.71 67.478 0.22 7.39 1.83 8.3
9/23/2021 7:45:00 AM 19.73 67.514 0.22 7.41 1.95 8.38
9/23/2021 8:00:00 AM 19.76 67.568 0.22 7.44 1.65 8.56
9/23/2021 8:15:00 AM 19.78 67.604 0.22 7.45 2.04 8.66
9/23/2021 8:30:00 AM 19.81 67.658 0.22 7.49 1.75 8.86
9/23/2021 8:45:00 AM 19.85 67.73 0.22 7.52 1.9 8.98
9/23/2021 9:00:00 AM 19.91 67.838 0.219 7.59 2.08 9.31
9/23/2021 9:15:00 AM 19.95 67.91 0.219 7.63 1.77 9.39
9/23/2021 9:30:00 AM 19.98 67.964 0.219 7.62 1.62 9.41
9/23/2021 9:45:00 AM 20.02 68.036 0.219 7.69 2.15 9.53
9/23/2021 10:00:00 AM 20.05 68.09 0.219 7.68 1.71 9.56
9/23/2021 10:15:00 AM 20.06 68.108 0.218 7.69 1.67 9.43
9/23/2021 10:30:00 AM 20.05 68.09 0.219 7.62 1.81 9.15
9/23/2021 10:45:00 AM 20.05 68.09 0.218 7.6 1.89 9.02
9/23/2021 11:00:00 AM 20.06 68.108 0.218 7.62 1.68 9.12
9/23/2021 11:15:00 AM 20.07 68.126 0.217 7.61 1.89 9.07
9/23/2021 11:30:00 AM 20.06 68.108 0.217 7.58 1.97 8.92
9/23/2021 11:45:00 AM 20.05 68.09 0.215 7.54 1.67 8.78
9/23/2021 12:00:00 PM 20.02 68.036 0.212 7.51 2.19 8.66
9/23/2021 12:15:00 PM 19.97 67.946 0.212 7.48 2.23 8.59
9/23/2021 12:30:00 PM 19.93 67.874 0.21 7.45 3.17 8.52
9/23/2021 12:45:00 PM 19.86 67.748 0.207 7.43 6.99 8.48
9/23/2021 1:00:00 PM 19.76 67.568 0.202 7.42 7.75 8.54
9/23/2021 1:15:00 PM 19.68 67.424 0.201 7.4 9.61 8.51
9/23/2021 1:30:00 PM 19.55 67.19 0.196 7.39 19.52 8.49
9/23/2021 1:45:00 PM 19.43 66.974 0.192 7.36 21.48 8.5
9/23/2021 2:00:00 PM 19.36 66.848 0.199 7.36 16.72 8.47
9/23/2021 2:15:00 PM 19.27 66.686 0.215 7.36 18.01 8.48
9/23/2021 2:30:00 PM 19.2 66.56 0.218 7.4 20.17 8.58
9/23/2021 2:45:00 PM 19.12 66.416 0.216 7.36 23.95 8.58
9/23/2021 3:00:00 PM 19.02 66.236 0.217 7.37 28.33 8.62
9/23/2021 3:15:00 PM 18.92 66.056 0.206 7.36 43.37 8.69
9/23/2021 3:30:00 PM 18.88 65.984 0.194 7.34 40.01 8.7
9/23/2021 3:45:00 PM 18.85 65.93 0.187 7.32 41.94 8.72
9/23/2021 4:00:00 PM 18.79 65.82201 0.187 7.31 42.95 8.75
9/23/2021 4:15:00 PM 18.71 65.67799 0.191 7.24 50.69 8.74
9/23/2021 4:30:00 PM 18.69 65.642 0.195 7.25 57.58 8.77
9/23/2021 4:45:00 PM 18.69 65.642 0.205 7.26 54.69 8.8
9/23/2021 5:00:00 PM 18.68 65.624 0.21 7.28 56.72 8.81
9/23/2021 5:15:00 PM 18.67 65.606 0.202 7.27 56.82 8.83
9/23/2021 5:30:00 PM 18.68 65.624 0.192 7.29 46.2 8.83
9/23/2021 5:45:00 PM 18.68 65.624 0.19 7.27 54.86 8.82
9/23/2021 6:00:00 PM 18.69 65.642 0.188 7.27 44.68 8.84
9/23/2021 6:15:00 PM 18.72 65.696 0.185 7.27 48.88 8.84
9/23/2021 6:30:00 PM 18.73 65.714 0.183 7.29 40.11 8.85
9/23/2021 6:45:00 PM 18.74 65.732 0.181 7.29 37.42 8.86
9/23/2021 7:00:00 PM 18.74 65.732 0.179 7.29 32.26 8.87
9/23/2021 7:15:00 PM 18.71 65.67799 0.176 7.31 31.9 8.88
9/23/2021 7:30:00 PM 18.66 65.588 0.173 7.3 24.61 8.89
9/23/2021 7:45:00 PM 18.59 65.462 0.172 7.28 21.98 8.9
9/23/2021 8:00:00 PM 18.53 65.354 0.17 7.28 20.65 8.92
9/23/2021 8:15:00 PM 18.49 65.282 0.17 7.27 19.46 8.93
9/23/2021 8:30:00 PM 18.46 65.228 0.17 7.25 16.4 8.94
9/23/2021 8:45:00 PM 18.44 65.192 0.17 7.29 15.05 8.96
9/23/2021 9:00:00 PM 18.43 65.174 0.169 7.28 15.63 8.96
9/23/2021 9:15:00 PM 18.43 65.174 0.169 7.29 14.2 8.97
9/23/2021 9:30:00 PM 18.44 65.192 0.169 7.3 15.38 8.97
9/23/2021 9:45:00 PM 18.45 65.21 0.169 7.3 13.08 8.98
9/23/2021 10:00:00 PM 18.45 65.21 0.168 7.3 12.49 8.97
9/23/2021 10:15:00 PM 18.45 65.21 0.168 7.3 11.96 8.98
9/23/2021 10:30:00 PM 18.44 65.192 0.168 7.3 11.45 8.98
9/23/2021 10:45:00 PM 18.43 65.174 0.168 7.31 10.55 8.99
9/23/2021 11:00:00 PM 18.41 65.138 0.168 7.3 9.81 8.99
9/23/2021 11:15:00 PM 18.38 65.084 0.169 7.31 9.57 9.01
9/23/2021 11:30:00 PM 18.35 65.03 0.169 7.31 9.19 9.01
9/23/2021 11:45:00 PM 18.32 64.976 0.169 7.31 9.19 9.01
9/24/2021 12:00:00 AM 18.29 64.922 0.169 7.26 9.19 9.03
9/24/2021 12:15:00 AM 18.26 64.868 0.17 7.31 8.6 9.03
9/24/2021 12:30:00 AM 18.23 64.814 0.17 7.27 8.1 9.04
9/24/2021 12:45:00 AM 18.2 64.76 0.17 7.3 8.24 9.04
9/24/2021 1:00:00 AM 18.17 64.706 0.17 7.29 7.64 9.05
9/24/2021 1:15:00 AM 18.14 64.652 0.17 7.3 7.57 9.05
9/24/2021 1:30:00 AM 18.11 64.598 0.171 7.23 7.91 9.07
9/24/2021 1:45:00 AM 18.08 64.544 0.171 7.3 7.64 9.06
9/24/2021 2:00:00 AM 18.04 64.472 0.171 7.3 6.99 9.07
9/24/2021 2:15:00 AM 18 64.4 0.171 7.29 6.61 9.09
9/24/2021 2:30:00 AM 17.96 64.328 0.171 7.29 6.54 9.09
9/24/2021 2:45:00 AM 17.92 64.256 0.171 7.3 6.85 9.09
9/24/2021 3:00:00 AM 17.89 64.202 0.171 7.28 6.65 9.11
9/24/2021 3:15:00 AM 17.85 64.13 0.171 7.3 6.67 9.11
9/24/2021 3:30:00 AM 17.81 64.058 0.172 7.23 6.49 9.12
9/24/2021 3:45:00 AM 17.79 64.022 0.172 7.3 6.29 9.12
9/24/2021 4:00:00 AM 17.77 63.986 0.172 7.29 6.97 9.12
9/24/2021 4:15:00 AM 17.75 63.95 0.172 7.29 5.92 9.13
9/24/2021 4:30:00 AM 17.73 63.914 0.172 7.26 6.09 9.13
9/24/2021 4:45:00 AM 17.72 63.896 0.172 7.3 6.12 9.13
9/24/2021 5:00:00 AM 17.7 63.86 0.173 7.3 6.61 9.14
9/24/2021 5:15:00 AM 17.68 63.824 0.173 7.3 6.33 9.14
9/24/2021 5:30:00 AM 17.66 63.788 0.173 7.3 6 9.15
9/24/2021 5:45:00 AM 17.64 63.752 0.173 7.31 6.23 9.15
9/24/2021 6:00:00 AM 17.61 63.698 0.173 7.3 6.16 9.15
9/24/2021 6:15:00 AM 17.6 63.68 0.174 7.32 5.93 9.16
9/24/2021 6:30:00 AM 17.57 63.626 0.174 7.31 8.77 9.15
9/24/2021 6:45:00 AM 17.54 63.572 0.174 7.32 6.26 9.16
9/24/2021 7:00:00 AM 17.52 63.536 0.174 7.32 6.35 9.17
9/24/2021 7:15:00 AM 17.5 63.5 0.175 7.3 6.22 9.18
9/24/2021 7:30:00 AM 17.48 63.464 0.175 7.33 5.6 9.19
9/24/2021 7:45:00 AM 17.45 63.41 0.175 7.32 5.75 9.21
9/24/2021 8:00:00 AM 17.42 63.356 0.175 7.33 5.6 9.21
9/24/2021 8:15:00 AM 17.41 63.338 0.175 7.34 5.65 9.24
9/24/2021 8:30:00 AM 17.4 63.32 0.176 7.34 5.4 9.24
9/24/2021 8:45:00 AM 17.41 63.338 0.176 7.35 5.54 9.26
9/24/2021 9:00:00 AM 17.42 63.356 0.176 7.36 5.66 9.29
9/24/2021 9:15:00 AM 17.43 63.374 0.176 7.37 5.64 9.3
9/24/2021 9:30:00 AM 17.45 63.41 0.176 7.36 5.22 9.31
9/24/2021 9:45:00 AM 17.48 63.464 0.177 7.38 5.32 9.33
9/24/2021 10:00:00 AM 17.51 63.518 0.177 7.4 5.77 9.35
9/24/2021 10:15:00 AM 17.54 63.572 0.177 7.38 5.45 9.37
9/24/2021 10:30:00 AM 17.58 63.644 0.177 7.42 5.32 9.38
9/24/2021 10:45:00 AM 17.64 63.752 0.177 7.43 5.39 9.41
9/24/2021 11:00:00 AM 17.7 63.86 0.178 7.44 5.36 9.44
9/24/2021 11:15:00 AM 17.76 63.968 0.178 7.46 5.4 9.46
9/24/2021 11:30:00 AM 17.82 64.076 0.178 7.47 5.38 9.47
9/24/2021 11:45:00 AM 17.88 64.184 0.178 7.48 5.51 9.47
9/24/2021 12:00:00 PM 17.95 64.31 0.178 7.49 5.61 9.48
9/24/2021 12:15:00 PM 18.02 64.436 0.178 7.49 5.39 9.49
9/24/2021 12:30:00 PM 18.08 64.544 0.178 7.51 5.26 9.51
9/24/2021 12:45:00 PM 18.14 64.652 0.178 7.52 5.22 9.52
9/24/2021 1:00:00 PM 18.18 64.724 0.179 7.53 5.3 9.53
9/24/2021 1:15:00 PM 18.17 64.706 0.179 7.52 5.15 9.46
9/24/2021 1:30:00 PM 18.19 64.742 0.179 7.51 5.3 9.47
9/24/2021 1:45:00 PM 18.23 64.814 0.179 7.52 5.15 9.47
9/24/2021 2:00:00 PM 18.27 64.886 0.179 7.53 4.82 9.46
9/24/2021 2:15:00 PM 18.32 64.976 0.179 7.53 4.99 9.49
9/24/2021 2:30:00 PM 18.33 64.994 0.179 7.53 4.89 9.48
9/24/2021 2:45:00 PM 18.29 64.922 0.179 7.53 4.72 9.47
9/24/2021 3:00:00 PM 18.28 64.904 0.179 7.53 4.83 9.46
9/24/2021 3:15:00 PM 18.29 64.922 0.179 7.52 4.79 9.45
9/24/2021 3:30:00 PM 18.27 64.886 0.18 7.52 4.42 9.4
9/24/2021 3:45:00 PM 18.23 64.814 0.18 7.5 4.63 9.35
9/24/2021 4:00:00 PM 18.22 64.796 0.18 7.5 4.52 9.33
9/24/2021 4:15:00 PM 18.23 64.814 0.18 7.49 4.69 9.3
9/24/2021 4:30:00 PM 18.24 64.832 0.18 7.49 4.55 9.31
9/24/2021 4:45:00 PM 18.24 64.832 0.181 7.49 4.68 9.3
9/24/2021 5:00:00 PM 18.25 64.85 0.181 7.49 4.7 9.29
9/24/2021 5:15:00 PM 18.24 64.832 0.181 7.44 4.65 9.27
9/24/2021 5:30:00 PM 18.21 64.778 0.182 7.47 4.29 9.23
9/24/2021 5:45:00 PM 18.18 64.724 0.182 7.45 4.54 9.18
9/24/2021 6:00:00 PM 18.13 64.634 0.182 7.45 4.47 9.16
9/24/2021 6:15:00 PM 18.08 64.544 0.183 7.44 4.45 9.15
9/24/2021 6:30:00 PM 18.01 64.418 0.183 7.42 4.28 9.13
9/24/2021 6:45:00 PM 17.95 64.31 0.183 7.41 4.3 9.11
9/24/2021 7:00:00 PM 17.9 64.22 0.184 7.4 4.18 9.08
9/24/2021 7:15:00 PM 17.84 64.112 0.184 7.37 4.25 9.07
9/24/2021 7:30:00 PM 17.79 64.022 0.184 7.39 4.54 9.07
9/24/2021 7:45:00 PM 17.75 63.95 0.184 7.39 4.5 9.09
9/24/2021 8:00:00 PM 17.7 63.86 0.185 7.38 4.18 9.07
9/24/2021 8:15:00 PM 17.65 63.77 0.185 7.37 4.71 9.05
9/24/2021 8:30:00 PM 17.61 63.698 0.185 7.38 6.32 9.09
9/24/2021 8:45:00 PM 17.57 63.626 0.185 7.38 4.49 9.09
9/24/2021 9:00:00 PM 17.53 63.554 0.185 7.37 4.08 9.1
9/24/2021 9:15:00 PM 17.5 63.5 0.185 7.37 4.58 9.11
9/24/2021 9:30:00 PM 17.47 63.446 0.185 7.37 3.94 9.1
9/24/2021 9:45:00 PM 17.44 63.392 0.185 7.36 4.5 9.11
9/24/2021 10:00:00 PM 17.42 63.356 0.185 7.35 4.33 9.09
9/24/2021 10:15:00 PM 17.39 63.302 0.185 7.37 4.44 9.1
9/24/2021 10:30:00 PM 17.36 63.248 0.185 7.37 4.99 9.11
9/24/2021 10:45:00 PM 17.34 63.212 0.185 7.37 4.56 9.11
9/24/2021 11:00:00 PM 17.31 63.158 0.185 7.37 4.92 9.11
9/24/2021 11:15:00 PM 17.29 63.122 0.185 7.37 4.61 9.13
9/24/2021 11:30:00 PM 17.26 63.068 0.186 7.36 4.28 9.11
9/24/2021 11:45:00 PM 17.23 63.014 0.186 7.37 4.75 9.12
9/25/2021 12:00:00 AM 17.2 62.96 0.186 7.37 4.74 9.13
9/25/2021 12:15:00 AM 17.17 62.906 0.186 7.34 4.54 9.14
9/25/2021 12:30:00 AM 17.13 62.834 0.186 7.36 4.57 9.13
9/25/2021 12:45:00 AM 17.1 62.78 0.186 7.36 4.59 9.14
9/25/2021 1:00:00 AM 17.06 62.708 0.187 7.36 4.89 9.16
9/25/2021 1:15:00 AM 17.03 62.654 0.187 7.36 5.03 9.15
9/25/2021 1:30:00 AM 16.99 62.582 0.187 7.37 4.81 9.19
9/25/2021 1:45:00 AM 16.95 62.51 0.187 7.35 4.67 9.2
9/25/2021 2:00:00 AM 16.92 62.456 0.188 7.36 4.02 9.21
9/25/2021 2:15:00 AM 16.89 62.402 0.188 7.36 4.56 9.19
9/25/2021 2:30:00 AM 16.85 62.33 0.188 7.36 4.67 9.2
9/25/2021 2:45:00 AM 16.82 62.276 0.188 7.36 4.64 9.22
9/25/2021 3:00:00 AM 16.78 62.204 0.188 7.36 4.43 9.22
9/25/2021 3:15:00 AM 16.74 62.132 0.188 7.36 4.46 9.2
9/25/2021 3:30:00 AM 16.7 62.06 0.189 7.36 4.68 9.22
9/25/2021 3:45:00 AM 16.66 61.988 0.189 7.36 4.4 9.24
9/25/2021 4:00:00 AM 16.63 61.934 0.189 7.36 4.48 9.25
9/25/2021 4:15:00 AM 16.59 61.862 0.189 7.35 4.99 9.24
9/25/2021 4:30:00 AM 16.55 61.79 0.189 7.36 4.49 9.25
9/25/2021 4:45:00 AM 16.52 61.736 0.189 7.35 4.34 9.23
9/25/2021 5:00:00 AM 16.47 61.646 0.189 7.35 4.67 9.27
9/25/2021 5:15:00 AM 16.45 61.61 0.189 7.36 4.49 9.27
9/25/2021 5:30:00 AM 16.42 61.556 0.189 7.35 4.53 9.26
9/25/2021 5:45:00 AM 16.4 61.52 0.189 7.36 4.38 9.29
9/25/2021 6:00:00 AM 16.37 61.466 0.189 7.35 71.58 9.26
9/25/2021 6:15:00 AM 16.34 61.412 0.19 7.36 4.37 9.28
9/25/2021 6:30:00 AM 16.31 61.358 0.19 7.35 4 9.27
9/25/2021 6:45:00 AM 16.29 61.322 0.19 7.36 4.48 9.27
9/25/2021 7:00:00 AM 16.27 61.286 0.19 7.35 4.15 9.29
9/25/2021 7:15:00 AM 16.24 61.232 0.19 7.36 4.11 9.33
9/25/2021 7:30:00 AM 16.21 61.178 0.19 7.36 4.2 9.34
9/25/2021 7:45:00 AM 16.2 61.16 0.19 7.35 4.53 9.32
9/25/2021 8:00:00 AM 16.18 61.124 0.19 7.38 3.91 9.41
9/25/2021 8:15:00 AM 16.17 61.106 0.19 7.38 4.34 9.47
9/25/2021 8:30:00 AM 16.17 61.106 0.19 7.39 3.69 9.47
9/25/2021 8:45:00 AM 16.17 61.106 0.19 7.4 3.86 9.48
9/25/2021 9:00:00 AM 16.18 61.124 0.19 7.4 3.87 9.52
9/25/2021 9:15:00 AM 16.19 61.142 0.19 7.4 3.88 9.55
9/25/2021 9:30:00 AM 16.21 61.178 0.19 7.42 4.04 9.54
9/25/2021 9:45:00 AM 16.25 61.25 0.191 7.43 3.49 9.58
9/25/2021 10:00:00 AM 16.3 61.34 0.191 7.44 4.26 9.61
9/25/2021 10:15:00 AM 16.37 61.466 0.191 7.45 3.66 9.63
9/25/2021 10:30:00 AM 16.44 61.592 0.191 7.46 3.71 9.67
9/25/2021 10:45:00 AM 16.51 61.718 0.191 7.46 3.68 9.65
9/25/2021 11:00:00 AM 16.6 61.88 0.191 7.48 3.74 9.61
9/25/2021 11:15:00 AM 16.7 62.06 0.191 7.49 3.45 9.61
9/25/2021 11:30:00 AM 16.81 62.258 0.191 7.5 3.52 9.64
9/25/2021 11:45:00 AM 16.92 62.456 0.191 7.5 3.25 9.64
9/25/2021 12:00:00 PM 17.03 62.654 0.192 7.51 3.66 9.68
9/25/2021 12:15:00 PM 17.16 62.888 0.192 7.55 3.71 9.7
9/25/2021 12:30:00 PM 17.31 63.158 0.191 7.58 3.48 9.81
9/25/2021 12:45:00 PM 17.44 63.392 0.191 7.6 3.32 9.78
9/25/2021 1:00:00 PM 17.58 63.644 0.191 7.62 3.85 9.85
9/25/2021 1:15:00 PM 17.7 63.86 0.191 7.63 3.79 9.85
9/25/2021 1:30:00 PM 17.83 64.094 0.191 7.65 3.7 9.78
9/25/2021 1:45:00 PM 17.94 64.292 0.191 7.65 3.77 9.83
9/25/2021 2:00:00 PM 18.05 64.49 0.192 7.68 3.6 9.82
9/25/2021 2:15:00 PM 18.15 64.67 0.192 7.65 4.06 9.84
9/25/2021 2:30:00 PM 18.24 64.832 0.192 7.7 3.6 9.83
9/25/2021 2:45:00 PM 18.3 64.94 0.192 7.69 3.69 9.8
9/25/2021 3:00:00 PM 18.35 65.03 0.192 7.7 3.81 9.81
9/25/2021 3:15:00 PM 18.4 65.12 0.192 7.7 3.59 9.78
9/25/2021 3:30:00 PM 18.42 65.156 0.192 7.68 3.89 9.69
9/25/2021 3:45:00 PM 18.43 65.174 0.192 7.68 3.2 9.71
9/25/2021 4:00:00 PM 18.44 65.192 0.192 7.65 3.26 9.55
9/25/2021 4:15:00 PM 18.44 65.192 0.193 7.64 3.35 9.55
9/25/2021 4:30:00 PM 18.44 65.192 0.193 7.61 3.74 9.46
9/25/2021 4:45:00 PM 18.43 65.174 0.193 7.59 3.4 9.41
9/25/2021 5:00:00 PM 18.41 65.138 0.193 7.58 3.11 9.37
9/25/2021 5:15:00 PM 18.38 65.084 0.193 7.55 3.16 9.29
9/25/2021 5:30:00 PM 18.34 65.012 0.193 7.51 4.07 9.21
9/25/2021 5:45:00 PM 18.3 64.94 0.193 7.51 3.46 9.18
9/25/2021 6:00:00 PM 18.26 64.868 0.193 7.48 3.33 9.12
9/25/2021 6:15:00 PM 18.22 64.796 0.194 7.47 3.21 9.1
9/25/2021 6:30:00 PM 18.16 64.688 0.194 7.43 3.08 9.06
9/25/2021 6:45:00 PM 18.11 64.598 0.194 7.44 2.95 8.99
9/25/2021 7:00:00 PM 18.04 64.472 0.194 7.4 3.33 8.97
9/25/2021 7:15:00 PM 17.97 64.346 0.194 7.42 3.29 8.95
9/25/2021 7:30:00 PM 17.9 64.22 0.194 7.41 3.13 8.95
9/25/2021 7:45:00 PM 17.83 64.094 0.194 7.4 3.35 8.95
9/25/2021 8:00:00 PM 17.76 63.968 0.194 7.37 3.17 8.94
9/25/2021 8:15:00 PM 17.68 63.824 0.194 7.38 3.38 8.96
9/25/2021 8:30:00 PM 17.61 63.698 0.194 7.37 3.61 8.96
9/25/2021 8:45:00 PM 17.55 63.59 0.195 7.35 3.54 8.96
9/25/2021 9:00:00 PM 17.48 63.464 0.195 7.36 3.2 8.97
9/25/2021 9:15:00 PM 17.42 63.356 0.195 7.36 3.39 8.98
9/25/2021 9:30:00 PM 17.35 63.23 0.195 7.36 3.07 9
9/25/2021 9:45:00 PM 17.29 63.122 0.195 7.35 3.37 9
9/25/2021 10:00:00 PM 17.23 63.014 0.195 7.35 3.24 8.98
9/25/2021 10:15:00 PM 17.17 62.906 0.195 7.35 3.39 9
9/25/2021 10:30:00 PM 17.12 62.816 0.195 7.35 3.09 9.02
9/25/2021 10:45:00 PM 17.06 62.708 0.195 7.35 3.18 9.02
9/25/2021 11:00:00 PM 17.02 62.636 0.195 7.35 3.52 9.04
9/25/2021 11:15:00 PM 16.97 62.546 0.195 7.34 3.06 9.05
9/25/2021 11:30:00 PM 16.93 62.474 0.195 7.34 3.39 9.06
9/25/2021 11:45:00 PM 16.9 62.42 0.195 7.34 2.96 9.05
9/26/2021 12:00:00 AM 16.87 62.366 0.195 7.35 2.72 9.06
9/26/2021 12:15:00 AM 16.84 62.312 0.196 7.35 2.99 9.08
9/26/2021 12:30:00 AM 16.81 62.258 0.196 7.35 3.5 9.11
9/26/2021 12:45:00 AM 16.78 62.204 0.196 7.34 3.1 9.08
9/26/2021 1:00:00 AM 16.76 62.168 0.196 7.34 3.19 9.1
9/26/2021 1:15:00 AM 16.74 62.132 0.195 7.35 2.84 9.1
9/26/2021 1:30:00 AM 16.72 62.096 0.195 7.35 3.02 9.1
9/26/2021 1:45:00 AM 16.71 62.078 0.195 7.35 3.16 9.12
9/26/2021 2:00:00 AM 16.7 62.06 0.195 7.34 3.16 9.12
9/26/2021 2:15:00 AM 16.69 62.042 0.195 7.35 2.74 9.11
9/26/2021 2:30:00 AM 16.69 62.042 0.195 7.35 3.24 9.12
9/26/2021 2:45:00 AM 16.68 62.024 0.196 7.35 3.22 9.12
9/26/2021 3:00:00 AM 16.68 62.024 0.196 7.35 3.03 9.13
9/26/2021 3:15:00 AM 16.68 62.024 0.196 7.35 2.77 9.12
9/26/2021 3:30:00 AM 16.68 62.024 0.196 7.35 3.19 9.11
9/26/2021 3:45:00 AM 16.68 62.024 0.196 7.35 3.04 9.13
9/26/2021 4:00:00 AM 16.69 62.042 0.196 7.35 2.87 9.11
9/26/2021 4:15:00 AM 16.69 62.042 0.196 7.36 3.12 9.12
9/26/2021 4:30:00 AM 16.68 62.024 0.196 7.36 3 9.13
9/26/2021 4:45:00 AM 16.67 62.006 0.196 7.36 2.97 9.11
9/26/2021 5:00:00 AM 16.66 61.988 0.196 7.35 3.42 9.11
9/26/2021 5:15:00 AM 16.64 61.952 0.196 7.35 3.26 9.14
9/26/2021 5:30:00 AM 16.61 61.898 0.196 7.36 3.13 9.1
9/26/2021 5:45:00 AM 16.59 61.862 0.196 7.31 3.17 9.1
9/26/2021 6:00:00 AM 16.56 61.808 0.196 7.36 3.12 9.1
9/26/2021 6:15:00 AM 16.53 61.754 0.196 7.36 3.07 9.13
9/26/2021 6:30:00 AM 16.5 61.7 0.196 7.36 4.58 9.14
9/26/2021 6:45:00 AM 16.47 61.646 0.196 7.36 3.5 9.13
9/26/2021 7:00:00 AM 16.44 61.592 0.196 7.35 2.94 9.06
9/26/2021 7:15:00 AM 16.42 61.556 0.196 7.36 3.29 9.13
9/26/2021 7:30:00 AM 16.39 61.502 0.196 7.35 3.27 9.14
9/26/2021 7:45:00 AM 16.36 61.448 0.196 7.36 2.79 9.16
9/26/2021 8:00:00 AM 16.35 61.43 0.197 7.37 3.29 9.2
9/26/2021 8:15:00 AM 16.32 61.376 0.197 7.36 2.82 9.19
9/26/2021 8:30:00 AM 16.3 61.34 0.197 7.38 2.82 9.26
9/26/2021 8:45:00 AM 16.3 61.34 0.197 7.39 2.87 9.28
9/26/2021 9:00:00 AM 16.31 61.358 0.197 7.37 2.73 9.38
9/26/2021 9:15:00 AM 16.32 61.376 0.197 7.41 3.02 9.34
9/26/2021 9:30:00 AM 16.34 61.412 0.197 7.43 2.4 9.46
9/26/2021 9:45:00 AM 16.37 61.466 0.197 7.44 3.19 9.52
9/26/2021 10:00:00 AM 16.4 61.52 0.197 7.42 2.73 9.47
9/26/2021 10:15:00 AM 16.43 61.574 0.197 7.44 2.82 9.59
9/26/2021 10:30:00 AM 16.47 61.646 0.197 7.47 2.52 9.58
9/26/2021 10:45:00 AM 16.52 61.736 0.197 7.48 2.5 9.61
9/26/2021 11:00:00 AM 16.58 61.844 0.197 7.49 2.69 9.64
9/26/2021 11:15:00 AM 16.65 61.97 0.197 7.48 2.79 9.64
9/26/2021 11:30:00 AM 16.76 62.168 0.197 7.53 2.36 9.68
9/26/2021 11:45:00 AM 16.84 62.312 0.197 7.55 2.71 9.78
9/26/2021 12:00:00 PM 16.91 62.438 0.197 7.52 2.51 9.8
9/26/2021 12:15:00 PM 16.99 62.582 0.197 7.58 2.8 9.84
9/26/2021 12:30:00 PM 17.06 62.708 0.197 7.61 2.78 9.92
9/26/2021 12:45:00 PM 17.13 62.834 0.197 7.61 2.53 9.91
9/26/2021 1:00:00 PM 17.23 63.014 0.197 7.64 2.35 9.94
9/26/2021 1:15:00 PM 17.35 63.23 0.197 7.64 2.42 9.99
9/26/2021 1:30:00 PM 17.44 63.392 0.197 7.67 2.33 9.96
9/26/2021 1:45:00 PM 17.53 63.554 0.197 7.67 3.14 9.95
9/26/2021 2:00:00 PM 17.6 63.68 0.197 7.65 2.24 9.84
9/26/2021 2:15:00 PM 17.69 63.842 0.197 7.67 2.38 9.87
9/26/2021 2:30:00 PM 17.75 63.95 0.197 7.64 2.14 9.88
9/26/2021 2:45:00 PM 17.83 64.094 0.198 7.71 2.29 9.89
9/26/2021 3:00:00 PM 17.83 64.094 0.198 7.66 2.47 9.75
9/26/2021 3:15:00 PM 17.85 64.13 0.198 7.65 2.26 9.7
9/26/2021 3:30:00 PM 17.88 64.184 0.198 7.65 2.24 9.68
9/26/2021 3:45:00 PM 17.92 64.256 0.198 7.63 2.05 9.74
9/26/2021 4:00:00 PM 17.94 64.292 0.198 7.64 2.43 9.67
9/26/2021 4:15:00 PM 17.94 64.292 0.198 7.65 2.37 9.71
9/26/2021 4:30:00 PM 17.92 64.256 0.198 7.6 2.19 9.61
9/26/2021 4:45:00 PM 17.9 64.22 0.198 7.61 2.22 9.54
9/26/2021 5:00:00 PM 17.86 64.148 0.198 7.58 2.65 9.47
9/26/2021 5:15:00 PM 17.81 64.058 0.198 7.55 2.23 9.39
9/26/2021 5:30:00 PM 17.75 63.95 0.198 7.53 2.41 9.33
9/26/2021 5:45:00 PM 17.69 63.842 0.198 7.5 2.11 9.26
9/26/2021 6:00:00 PM 17.64 63.752 0.199 7.48 2.09 9.15
9/26/2021 6:15:00 PM 17.59 63.662 0.199 7.46 2.08 9.12
9/26/2021 6:30:00 PM 17.52 63.536 0.199 7.45 2.32 9.12
9/26/2021 6:45:00 PM 17.44 63.392 0.199 7.44 2.25 9.1
9/26/2021 7:00:00 PM 17.38 63.284 0.199 7.42 2.36 9.05
9/26/2021 7:15:00 PM 17.3 63.14 0.199 7.41 2.29 9.04
9/26/2021 7:30:00 PM 17.23 63.014 0.199 7.37 2.4 9
9/26/2021 7:45:00 PM 17.15 62.87 0.199 7.38 2.19 8.99
9/26/2021 8:00:00 PM 17.07 62.726 0.199 7.37 2.32 8.95
9/26/2021 8:15:00 PM 16.99 62.582 0.199 7.37 2.55 8.99
9/26/2021 8:30:00 PM 16.9 62.42 0.199 7.35 2.16 9
9/26/2021 8:45:00 PM 16.82 62.276 0.199 7.35 2.32 9.01
9/26/2021 9:00:00 PM 16.75 62.15 0.199 7.35 2.16 9.02
9/26/2021 9:15:00 PM 16.68 62.024 0.199 7.35 2.33 9.03
9/26/2021 9:30:00 PM 16.6 61.88 0.199 7.34 2.35 9.07
9/26/2021 9:45:00 PM 16.54 61.772 0.199 7.34 2.17 9.03
9/26/2021 10:00:00 PM 16.47 61.646 0.199 7.33 2.5 9.08
9/26/2021 10:15:00 PM 16.41 61.538 0.2 7.34 2.23 9.1
9/26/2021 10:30:00 PM 16.35 61.43 0.2 7.34 2.4 9.11
9/26/2021 10:45:00 PM 16.3 61.34 0.2 7.3 2.07 9.1
9/26/2021 11:00:00 PM 16.26 61.268 0.2 7.33 2.31 9.14
9/26/2021 11:15:00 PM 16.22 61.196 0.2 7.33 2.03 9.14
9/26/2021 11:30:00 PM 16.18 61.124 0.2 7.34 2.24 9.15
9/26/2021 11:45:00 PM 16.15 61.07 0.2 7.33 2.37 9.17
9/27/2021 12:00:00 AM 16.13 61.034 0.2 7.35 2.26 9.2
9/27/2021 12:15:00 AM 16.11 60.998 0.201 7.34 2.19 9.19
9/27/2021 12:30:00 AM 16.09 60.962 0.201 7.34 2.02 9.19
9/27/2021 12:45:00 AM 16.08 60.944 0.201 7.31 2.29 9.2
9/27/2021 1:00:00 AM 16.08 60.944 0.201 7.35 2.34 9.22
9/27/2021 1:15:00 AM 16.07 60.926 0.201 7.35 2.26 9.23
9/27/2021 1:30:00 AM 16.07 60.926 0.201 7.35 2.28 9.19
9/27/2021 1:45:00 AM 16.07 60.926 0.201 7.35 2.28 9.22
9/27/2021 2:00:00 AM 16.08 60.944 0.201 7.35 2.15 9.21
9/27/2021 2:15:00 AM 16.08 60.944 0.201 7.31 2.45 9.2
9/27/2021 2:30:00 AM 16.1 60.98 0.201 7.35 2.13 9.21
9/27/2021 2:45:00 AM 16.1 60.98 0.201 7.36 2.3 9.23
9/27/2021 3:00:00 AM 16.11 60.998 0.201 7.35 2.34 9.21
9/27/2021 3:15:00 AM 16.12 61.016 0.2 7.35 2.36 9.19
9/27/2021 3:30:00 AM 16.13 61.034 0.201 7.35 2.2 9.2
9/27/2021 3:45:00 AM 16.15 61.07 0.2 7.35 2.1 9.2
9/27/2021 4:00:00 AM 16.17 61.106 0.2 7.35 2.23 9.19
9/27/2021 4:15:00 AM 16.18 61.124 0.2 7.35 2.11 9.2
9/27/2021 4:30:00 AM 16.19 61.142 0.2 7.35 2.16 9.15
9/27/2021 4:45:00 AM 16.2 61.16 0.2 7.35 2.43 9.17
9/27/2021 5:00:00 AM 16.2 61.16 0.2 7.36 2.43 9.21
9/27/2021 5:15:00 AM 16.21 61.178 0.2 7.35 2.13 9.17
9/27/2021 5:30:00 AM 16.21 61.178 0.2 7.36 2.22 9.17
9/27/2021 5:45:00 AM 16.22 61.196 0.2 7.35 2.38 9.18
9/27/2021 6:00:00 AM 16.23 61.214 0.2 7.35 2.23 9.18
9/27/2021 6:15:00 AM 16.23 61.214 0.2 7.34 2.39 9.19
9/27/2021 6:30:00 AM 16.24 61.232 0.199 7.34 2.52 9.16
9/27/2021 6:45:00 AM 16.24 61.232 0.199 7.34 2.59 9.09
9/27/2021 7:00:00 AM 16.24 61.232 0.2 7.34 2.52 9.14
9/27/2021 7:15:00 AM 16.24 61.232 0.2 7.35 2.29 9.13
9/27/2021 7:30:00 AM 16.24 61.232 0.2 7.35 2.52 9.15
9/27/2021 7:45:00 AM 16.24 61.232 0.2 7.34 2.45 9.13
9/27/2021 8:00:00 AM 16.25 61.25 0.2 7.36 2.2 9.14
9/27/2021 8:15:00 AM 16.26 61.268 0.2 7.37 3.37 9.29
9/27/2021 8:30:00 AM 16.29 61.322 0.2 7.39 2.23 9.41
9/27/2021 8:45:00 AM 16.32 61.376 0.2 7.39 2.45 9.46
9/27/2021 9:00:00 AM 16.32 61.376 0.2 7.42 2.14 9.42
9/27/2021 9:15:00 AM 16.35 61.43 0.2 7.44 2.11 9.56
9/27/2021 9:30:00 AM 16.4 61.52 0.2 7.42 2.01 9.62
9/27/2021 9:45:00 AM 16.46 61.628 0.2 7.49 2.21 9.75
9/27/2021 10:00:00 AM 16.47 61.646 0.2 7.46 2.1 9.65
9/27/2021 10:15:00 AM 16.51 61.718 0.2 7.51 2.03 9.79
9/27/2021 10:30:00 AM 16.56 61.808 0.2 7.5 2.32 9.81
9/27/2021 10:45:00 AM 16.6 61.88 0.2 7.53 1.96 9.86
9/27/2021 11:00:00 AM 16.7 62.06 0.2 7.56 2.13 9.92
9/27/2021 11:30:00 AM 16.94 62.492 0.2 7.68 2.17 10.25
9/27/2021 11:45:00 AM 17.03 62.654 0.2 7.7 2.02 10.24
9/27/2021 12:00:00 PM 17.14 62.852 0.2 7.72 2.16 10.24
9/27/2021 12:15:00 PM 17.21 62.978 0.2 7.7 2.31 10.18
9/27/2021 12:30:00 PM 17.32 63.176 0.2 7.75 3.75 10.21
9/27/2021 12:45:00 PM 17.44 63.392 0.2 7.76 1625.2 10.21
9/27/2021 1:00:00 PM 17.57 63.626 0.2 7.78 2.07 10.19
9/27/2021 1:15:00 PM 17.68 63.824 0.2 7.8 2.05 10.21
9/27/2021 1:30:00 PM 17.79 64.022 0.2 7.8 2.14 10.18
9/27/2021 1:45:00 PM 17.88 64.184 0.2 7.8 1.95 10.14
9/27/2021 2:00:00 PM 17.97 64.346 0.2 7.84 2.11 10.16
9/27/2021 2:15:00 PM 18.1 64.58 0.2 7.83 2.05 10.06
9/27/2021 2:30:00 PM 18.21 64.778 0.2 7.85 1.93 10.07
9/27/2021 2:45:00 PM 18.3 64.94 0.2 7.85 1.92 10.05
9/27/2021 3:00:00 PM 18.39 65.102 0.2 7.84 2.01 10.04
9/27/2021 3:15:00 PM 18.45 65.21 0.2 7.83 1.9 9.9
9/27/2021 3:30:00 PM 18.5 65.3 0.2 7.81 1.93 9.87
9/27/2021 3:45:00 PM 18.55 65.39 0.2 7.76 2.25 9.75
9/27/2021 4:00:00 PM 18.58 65.444 0.2 7.79 2.18 9.76
9/27/2021 4:15:00 PM 18.62 65.516 0.201 7.76 2.1 9.62
9/27/2021 4:30:00 PM 18.64 65.552 0.201 7.76 1.97 9.61
9/27/2021 4:45:00 PM 18.65 65.57 0.201 7.73 2.25 9.58
9/27/2021 5:00:00 PM 18.65 65.57 0.201 7.71 2.05 9.56
9/27/2021 5:15:00 PM 18.64 65.552 0.201 7.66 2.22 9.43
9/27/2021 5:30:00 PM 18.62 65.516 0.201 7.64 2.8 9.37
9/27/2021 5:45:00 PM 18.6 65.48 0.201 7.61 1.97 9.29
9/27/2021 6:00:00 PM 18.56 65.408 0.201 7.57 1.9 9.13
9/27/2021 6:15:00 PM 18.51 65.318 0.201 7.55 1.77 9.12
9/27/2021 6:30:00 PM 18.46 65.228 0.201 7.51 1.83 9.01
9/27/2021 6:45:00 PM 18.4 65.12 0.201 7.48 1.9 8.89
9/27/2021 7:00:00 PM 18.33 64.994 0.201 7.4 1.81 8.76
9/27/2021 7:15:00 PM 18.28 64.904 0.201 7.43 1.88 8.78
9/27/2021 7:30:00 PM 18.2 64.76 0.201 7.41 1.75 8.77
9/27/2021 7:45:00 PM 18.13 64.634 0.2 7.4 1.82 8.75
9/27/2021 8:00:00 PM 18.06 64.508 0.201 7.38 2 8.74
9/27/2021 8:15:00 PM 17.99 64.382 0.2 7.37 1.89 8.73
9/27/2021 8:30:00 PM 17.91 64.238 0.201 7.36 1.77 8.73
9/27/2021 8:45:00 PM 17.83 64.094 0.201 7.36 1.79 8.78
9/27/2021 9:00:00 PM 17.75 63.95 0.201 7.35 2.08 8.78
9/27/2021 9:15:00 PM 17.66 63.788 0.201 7.35 1.9 8.78
9/27/2021 9:30:00 PM 17.58 63.644 0.201 7.34 1.86 8.79
9/27/2021 9:45:00 PM 17.49 63.482 0.201 7.34 1.8 8.82
9/27/2021 10:00:00 PM 17.4 63.32 0.201 7.33 1.9 8.82
9/27/2021 10:15:00 PM 17.32 63.176 0.201 7.32 1.9 8.84
9/27/2021 10:30:00 PM 17.23 63.014 0.201 7.32 2.02 8.86
9/27/2021 10:45:00 PM 17.15 62.87 0.201 7.32 2.17 8.88
9/27/2021 11:00:00 PM 17.07 62.726 0.201 7.32 2.02 8.89
9/27/2021 11:15:00 PM 17 62.6 0.201 7.31 1.91 8.89
9/27/2021 11:30:00 PM 16.93 62.474 0.201 7.31 1.76 8.93
9/27/2021 11:45:00 PM 16.87 62.366 0.201 7.28 2.04 8.93
9/28/2021 12:00:00 AM 16.81 62.258 0.201 7.31 1.85 8.96
9/28/2021 12:15:00 AM 16.76 62.168 0.201 7.31 1.83 8.96
9/28/2021 12:30:00 AM 16.72 62.096 0.202 7.31 1.86 8.98
9/28/2021 12:45:00 AM 16.69 62.042 0.202 7.32 1.87 8.96
9/28/2021 1:00:00 AM 16.69 62.042 0.202 7.31 1.85 8.96
9/28/2021 1:15:00 AM 16.69 62.042 0.202 7.32 1.71 8.98
9/28/2021 1:30:00 AM 16.7 62.06 0.202 7.33 1.83 8.99
9/28/2021 1:45:00 AM 16.71 62.078 0.203 7.32 1.7 8.98
9/28/2021 2:00:00 AM 16.72 62.096 0.203 7.32 1.76 8.98
9/28/2021 2:15:00 AM 16.73 62.114 0.203 7.33 1.75 8.98
9/28/2021 2:30:00 AM 16.76 62.168 0.203 7.34 1.73 8.98
9/28/2021 2:45:00 AM 16.78 62.204 0.203 7.31 1.95 8.99
9/28/2021 3:00:00 AM 16.8 62.24 0.203 7.34 1.67 8.97
9/28/2021 3:15:00 AM 16.83 62.294 0.203 7.34 1.63 8.94
9/28/2021 3:30:00 AM 16.86 62.348 0.203 7.34 1.93 8.95
9/28/2021 3:45:00 AM 16.88 62.384 0.203 7.34 1.81 8.96
9/28/2021 4:00:00 AM 16.9 62.42 0.203 7.33 1.99 8.94
9/28/2021 4:15:00 AM 16.92 62.456 0.203 7.34 1.85 8.92
9/28/2021 4:30:00 AM 16.95 62.51 0.203 7.34 1.75 8.93
9/28/2021 4:45:00 AM 16.97 62.546 0.203 7.34 1.82 8.94
9/28/2021 5:00:00 AM 16.98 62.564 0.203 7.34 1.86 8.91
9/28/2021 5:15:00 AM 16.99 62.582 0.203 7.34 1.75 8.91
9/28/2021 5:30:00 AM 17.01 62.618 0.203 7.34 1.89 8.91
9/28/2021 5:45:00 AM 17.03 62.654 0.203 7.34 1.96 8.91
9/28/2021 6:00:00 AM 17.04 62.672 0.203 7.34 1.92 8.91
9/28/2021 6:15:00 AM 17.05 62.69 0.204 7.33 1.88 8.9
9/28/2021 6:30:00 AM 17.06 62.708 0.204 7.34 2.03 8.9
9/28/2021 6:45:00 AM 17.06 62.708 0.204 7.33 2.07 8.86
9/28/2021 7:00:00 AM 17.06 62.708 0.204 7.33 1.71 8.87
9/28/2021 7:15:00 AM 17.07 62.726 0.204 7.34 1.93 8.9
9/28/2021 7:30:00 AM 17.07 62.726 0.204 7.34 1.96 8.91
9/28/2021 7:45:00 AM 17.09 62.762 0.204 7.36 1.94 9.01
9/28/2021 8:00:00 AM 17.1 62.78 0.204 7.36 1.64 9.04
9/28/2021 8:15:00 AM 17.12 62.816 0.204 7.38 1.82 9.14
9/28/2021 8:30:00 AM 17.14 62.852 0.204 7.39 1.9 9.16
9/28/2021 8:45:00 AM 17.15 62.87 0.204 7.36 1.92 9.22
9/28/2021 9:00:00 AM 17.17 62.906 0.204 7.41 1.87 9.25
9/28/2021 9:15:00 AM 17.19 62.942 0.204 7.41 1.65 9.27
9/28/2021 9:30:00 AM 17.21 62.978 0.204 7.41 1.66 9.24
9/28/2021 9:45:00 AM 17.21 62.978 0.204 7.4 2.16 9.18
9/28/2021 10:00:00 AM 17.2 62.96 0.202 7.4 2.03 9.16
9/28/2021 10:15:00 AM 17.21 62.978 0.202 7.39 1.87 9.12
9/28/2021 10:30:00 AM 17.22 62.996 0.203 7.39 1.76 9.14
9/28/2021 10:45:00 AM 17.22 62.996 0.202 7.39 2.07 9.1
9/28/2021 11:00:00 AM 17.22 62.996 0.202 7.39 2.67 9.11
9/28/2021 11:15:00 AM 17.22 62.996 0.202 7.38 2.46 9.09
9/28/2021 11:30:00 AM 17.26 63.068 0.203 7.43 2.51 9.38
9/28/2021 11:45:00 AM 17.31 63.158 0.203 7.47 2.92 9.56
9/28/2021 12:00:00 PM 17.31 63.158 0.207 7.48 3.41 9.55
9/28/2021 12:15:00 PM 17.24 63.032 0.222 7.51 2.75 9.66
9/28/2021 12:30:00 PM 17.19 62.942 0.228 7.52 2.75 9.62
9/28/2021 12:45:00 PM 17.17 62.906 0.23 7.52 3.15 9.58
9/28/2021 1:00:00 PM 17.15 62.87 0.233 7.54 3.17 9.62
9/28/2021 1:15:00 PM 17.17 62.906 0.233 7.55 3.73 9.66
9/28/2021 1:30:00 PM 17.21 62.978 0.23 7.56 4.84 9.73
9/28/2021 1:45:00 PM 17.21 62.978 0.224 7.54 5.29 9.66
9/28/2021 2:00:00 PM 17.22 62.996 0.213 7.54 6.47 9.56
9/28/2021 2:15:00 PM 17.23 63.014 0.205 7.47 6.38 9.41
9/28/2021 2:30:00 PM 17.24 63.032 0.201 7.48 5.76 9.32
9/28/2021 2:45:00 PM 17.25 63.05 0.199 7.46 6.3 9.24
9/28/2021 3:00:00 PM 17.26 63.068 0.198 7.42 6.22 9.22
9/28/2021 3:15:00 PM 17.29 63.122 0.199 7.46 6.94 9.29
9/28/2021 3:30:00 PM 17.32 63.176 0.201 7.49 6.13 9.42
9/28/2021 3:45:00 PM 17.34 63.212 0.203 7.5 6.22 9.44
9/28/2021 4:00:00 PM 17.37 63.266 0.206 7.53 5.43 9.53
9/28/2021 4:15:00 PM 17.39 63.302 0.209 7.55 5.77 9.53
9/28/2021 4:30:00 PM 17.39 63.302 0.212 7.54 4.41 9.45
9/28/2021 4:45:00 PM 17.39 63.302 0.214 7.52 4.03 9.38
9/28/2021 5:00:00 PM 17.39 63.302 0.216 7.52 3.68 9.33
9/28/2021 5:15:00 PM 17.38 63.284 0.218 7.52 4.02 9.31
9/28/2021 5:30:00 PM 17.37 63.266 0.221 7.51 3.72 9.27
9/28/2021 5:45:00 PM 17.36 63.248 0.223 7.51 3.58 9.28
9/28/2021 6:00:00 PM 17.35 63.23 0.224 7.51 3.28 9.28
9/28/2021 6:15:00 PM 17.33 63.194 0.226 7.49 3.1 9.21
9/28/2021 6:30:00 PM 17.3 63.14 0.227 7.49 2.97 9.2
9/28/2021 6:45:00 PM 17.27 63.086 0.229 7.46 3.06 9.16
9/28/2021 7:00:00 PM 17.23 63.014 0.229 7.47 3.14 9.14
9/28/2021 7:15:00 PM 17.19 62.942 0.229 7.46 3.31 9.11
9/28/2021 7:30:00 PM 17.15 62.87 0.227 7.45 3.27 9.09
9/28/2021 7:45:00 PM 17.1 62.78 0.225 7.44 3.42 9.09
9/28/2021 8:00:00 PM 17.05 62.69 0.222 7.43 3.16 9.09
9/28/2021 8:15:00 PM 17 62.6 0.219 7.42 3.24 9.08
9/28/2021 8:30:00 PM 16.95 62.51 0.217 7.42 3.86 9.09
9/28/2021 8:45:00 PM 16.89 62.402 0.215 7.42 3.23 9.09
9/28/2021 9:00:00 PM 16.84 62.312 0.213 7.41 3.25 9.1
9/28/2021 9:15:00 PM 16.78 62.204 0.211 7.41 2.79 9.11
9/28/2021 9:30:00 PM 16.72 62.096 0.209 7.41 2.99 9.13
9/28/2021 9:45:00 PM 16.66 61.988 0.208 7.4 3.14 9.15
9/28/2021 10:00:00 PM 16.6 61.88 0.206 7.39 3.19 9.17
9/28/2021 10:15:00 PM 16.55 61.79 0.205 7.4 3.08 9.16
9/28/2021 10:30:00 PM 16.51 61.718 0.204 7.38 3.04 9.16
9/28/2021 10:45:00 PM 16.47 61.646 0.203 7.4 3 9.18
9/28/2021 11:00:00 PM 16.42 61.556 0.202 7.39 2.97 9.2
9/28/2021 11:15:00 PM 16.39 61.502 0.201 7.39 2.82 9.21
9/28/2021 11:30:00 PM 16.36 61.448 0.2 7.39 3.02 9.23
9/28/2021 11:45:00 PM 16.33 61.394 0.199 7.38 3.68 9.23
9/29/2021 12:00:00 AM 16.31 61.358 0.198 7.39 2.94 9.25
9/29/2021 12:15:00 AM 16.28 61.304 0.197 7.4 2.72 9.25
9/29/2021 12:30:00 AM 16.26 61.268 0.197 7.39 2.65 9.24
9/29/2021 12:45:00 AM 16.24 61.232 0.196 7.4 2.98 9.26
9/29/2021 1:00:00 AM 16.21 61.178 0.195 7.39 2.77 9.25
9/29/2021 1:15:00 AM 16.2 61.16 0.195 7.4 2.8 9.27
9/29/2021 1:30:00 AM 16.18 61.124 0.194 7.38 2.8 9.28
9/29/2021 1:45:00 AM 16.15 61.07 0.194 7.4 2.93 9.29
9/29/2021 2:00:00 AM 16.12 61.016 0.194 7.39 2.72 9.29
9/29/2021 2:15:00 AM 16.09 60.962 0.193 7.4 2.92 9.29
9/29/2021 2:30:00 AM 16.05 60.89 0.193 7.4 2.9 9.3
9/29/2021 2:45:00 AM 16.01 60.818 0.193 7.39 3.05 9.29
9/29/2021 3:00:00 AM 15.97 60.746 0.193 7.39 3.17 9.3
9/29/2021 3:15:00 AM 15.93 60.674 0.192 7.39 2.96 9.28
9/29/2021 3:30:00 AM 15.89 60.602 0.192 7.38 2.57 9.3
9/29/2021 3:45:00 AM 15.85 60.53 0.192 7.38 3.15 9.32
9/29/2021 4:00:00 AM 15.81 60.458 0.192 7.39 2.75 9.34
9/29/2021 4:15:00 AM 15.76 60.368 0.192 7.38 3.28 9.35
9/29/2021 4:30:00 AM 15.72 60.296 0.192 7.38 2.84 9.33
9/29/2021 4:45:00 AM 15.67 60.206 0.192 7.38 3.12 9.34
9/29/2021 5:00:00 AM 15.62 60.116 0.192 7.38 2.97 9.35
9/29/2021 5:15:00 AM 15.58 60.044 0.192 7.38 3.04 9.37
9/29/2021 5:30:00 AM 15.55 59.99 0.191 7.38 3.05 9.38
9/29/2021 5:45:00 AM 15.5 59.9 0.191 7.38 2.7 9.41
9/29/2021 6:00:00 AM 15.46 59.828 0.191 7.38 2.72 9.4
9/29/2021 6:15:00 AM 15.42 59.756 0.191 7.34 3.05 9.42
9/29/2021 6:30:00 AM 15.37 59.666 0.192 7.38 3.5 9.44
9/29/2021 6:45:00 AM 15.33 59.594 0.192 7.38 3.06 9.43
9/29/2021 7:00:00 AM 15.29 59.522 0.192 7.38 2.97 9.41
9/29/2021 7:15:00 AM 15.26 59.468 0.192 7.38 2.88 9.44
9/29/2021 7:30:00 AM 15.23 59.414 0.192 7.38 3.44 9.44
9/29/2021 7:45:00 AM 15.21 59.378 0.192 7.38 2.72 9.52
9/29/2021 8:00:00 AM 15.18 59.324 0.192 7.39 2.62 9.53
9/29/2021 8:15:00 AM 15.17 59.306 0.192 7.4 2.95 9.55
9/29/2021 8:30:00 AM 15.17 59.306 0.192 7.41 2.42 9.66
9/29/2021 8:45:00 AM 15.17 59.306 0.192 7.42 2.96 9.65
9/29/2021 9:00:00 AM 15.15 59.27 0.192 7.43 2.67 9.71
9/29/2021 9:15:00 AM 15.16 59.288 0.192 7.44 2.47 9.76
9/29/2021 9:30:00 AM 15.18 59.324 0.192 7.41 2.88 9.81
9/29/2021 9:45:00 AM 15.21 59.378 0.192 7.45 2.96 9.82
9/29/2021 10:00:00 AM 15.24 59.432 0.192 7.46 2.72 9.81
9/29/2021 10:15:00 AM 15.28 59.504 0.192 7.48 2.19 9.89
9/29/2021 10:30:00 AM 15.32 59.576 0.192 7.48 2.61 9.87
9/29/2021 10:45:00 AM 15.4 59.72 0.192 7.52 2.17 10.02
9/29/2021 11:00:00 AM 15.48 59.864 0.192 7.53 2.31 10.06
9/29/2021 11:15:00 AM 15.56 60.008 0.192 7.56 3.74 10.1
9/29/2021 11:30:00 AM 15.64 60.152 0.192 7.59 2.32 10.2
9/29/2021 11:45:00 AM 15.71 60.278 0.192 7.57 2.52 10.19
9/29/2021 12:00:00 PM 15.8 60.44 0.192 7.61 2.22 10.23
9/29/2021 12:15:00 PM 15.9 60.62 0.192 7.65 2.14 10.29
9/29/2021 12:30:00 PM 15.99 60.782 0.193 7.66 2.17 10.29
9/29/2021 12:45:00 PM 16.07 60.926 0.193 7.69 2.25 10.31
9/29/2021 1:00:00 PM 16.16 61.088 0.193 7.66 2.2 10.34
9/29/2021 1:15:00 PM 16.26 61.268 0.193 7.72 2 10.34
9/29/2021 1:30:00 PM 16.35 61.43 0.193 7.73 2.3 10.34
9/29/2021 1:45:00 PM 16.45 61.61 0.192 7.74 2.33 10.32
9/29/2021 2:00:00 PM 16.56 61.808 0.192 7.76 2.34 10.28
9/29/2021 2:15:00 PM 16.72 62.096 0.192 7.82 2.14 10.42
9/29/2021 2:30:00 PM 16.79 62.222 0.192 7.82 3.32 10.4
9/29/2021 2:45:00 PM 16.84 62.312 0.193 7.8 2.19 10.3
9/29/2021 3:00:00 PM 16.88 62.384 0.193 7.8 1.99 10.25
9/29/2021 3:15:00 PM 16.91 62.438 0.193 7.78 2.72 10.17
9/29/2021 3:30:00 PM 16.9 62.42 0.193 7.73 2.07 10
9/29/2021 3:45:00 PM 16.88 62.384 0.194 7.68 1.95 9.86
9/29/2021 4:00:00 PM 16.85 62.33 0.194 7.66 2.14 9.81
9/29/2021 4:15:00 PM 16.83 62.294 0.194 7.65 2.53 9.82
9/29/2021 4:30:00 PM 16.81 62.258 0.194 7.64 2.8 9.79
9/29/2021 4:45:00 PM 16.79 62.222 0.194 7.61 2.03 9.73
9/29/2021 5:00:00 PM 16.75 62.15 0.194 7.58 2.38 9.65
9/29/2021 5:15:00 PM 16.7 62.06 0.195 7.56 2.58 9.53
9/29/2021 5:30:00 PM 16.69 62.042 0.195 7.53 2.57 9.5
9/29/2021 5:45:00 PM 16.64 61.952 0.195 7.53 1.89 9.52
9/29/2021 6:00:00 PM 16.6 61.88 0.195 7.51 2.07 9.5
9/29/2021 6:15:00 PM 16.55 61.79 0.195 7.5 2.48 9.47
9/29/2021 6:30:00 PM 16.5 61.7 0.195 7.47 2.12 9.41
9/29/2021 6:45:00 PM 16.44 61.592 0.195 7.43 2.21 9.36
9/29/2021 7:00:00 PM 16.39 61.502 0.195 7.43 2.28 9.29
9/29/2021 7:15:00 PM 16.34 61.412 0.196 7.42 2.15 9.27
9/29/2021 7:30:00 PM 16.29 61.322 0.196 7.42 2.19 9.28
9/29/2021 7:45:00 PM 16.24 61.232 0.196 7.4 1.82 9.25
9/29/2021 8:00:00 PM 16.19 61.142 0.196 7.39 1.93 9.24
9/29/2021 8:15:00 PM 16.15 61.07 0.197 7.38 2.1 9.24
9/29/2021 8:30:00 PM 16.11 60.998 0.197 7.38 1.96 9.23
9/29/2021 8:45:00 PM 16.08 60.944 0.198 7.38 2 9.23
9/29/2021 9:00:00 PM 16.05 60.89 0.198 7.37 2.2 9.24
9/29/2021 9:15:00 PM 16.02 60.836 0.198 7.38 2.21 9.25
9/29/2021 9:30:00 PM 16 60.8 0.199 7.37 1.9 9.25
9/29/2021 9:45:00 PM 15.99 60.782 0.199 7.35 2.07 9.24
9/29/2021 10:00:00 PM 15.98 60.764 0.199 7.35 2.1 9.27
9/29/2021 10:15:00 PM 15.98 60.764 0.199 7.37 2.37 9.26
9/29/2021 10:30:00 PM 15.97 60.746 0.199 7.37 2.11 9.26
9/29/2021 10:45:00 PM 15.96 60.728 0.199 7.37 2.01 9.24
9/29/2021 11:00:00 PM 15.95 60.71 0.199 7.37 2.16 9.25
9/29/2021 11:15:00 PM 15.94 60.692 0.199 7.37 2.5 9.25
9/29/2021 11:30:00 PM 15.93 60.674 0.199 7.36 2.06 9.26
9/29/2021 11:45:00 PM 15.92 60.656 0.199 7.37 2.11 9.28
9/30/2021 12:00:00 AM 15.91 60.638 0.199 7.37 2.17 9.27
9/30/2021 12:15:00 AM 15.9 60.62 0.199 7.36 2.3 9.26
9/30/2021 12:30:00 AM 15.89 60.602 0.199 7.37 2.16 9.25
9/30/2021 12:45:00 AM 15.89 60.602 0.199 7.36 2.17 9.28
9/30/2021 1:00:00 AM 15.88 60.584 0.199 7.36 2.41 9.25
9/30/2021 1:15:00 AM 15.88 60.584 0.199 7.37 2.25 9.27
9/30/2021 1:30:00 AM 15.87 60.566 0.2 7.36 2.5 9.27
9/30/2021 1:45:00 AM 15.87 60.566 0.2 7.35 3.01 9.28
9/30/2021 2:00:00 AM 15.87 60.566 0.2 7.36 2.13 9.28
9/30/2021 2:15:00 AM 15.86 60.548 0.2 7.36 2.16 9.29
9/30/2021 2:30:00 AM 15.85 60.53 0.2 7.36 2.59 9.3
9/30/2021 2:45:00 AM 15.85 60.53 0.2 7.36 2.37 9.29
9/30/2021 3:00:00 AM 15.84 60.512 0.2 7.34 2.65 9.32
9/30/2021 3:15:00 AM 15.83 60.494 0.2 7.36 2.39 9.28
9/30/2021 3:30:00 AM 15.82 60.476 0.2 7.36 2.45 9.3
9/30/2021 3:45:00 AM 15.81 60.458 0.2 7.36 2.46 9.3
9/30/2021 4:00:00 AM 15.8 60.44 0.2 7.36 2.18 9.29
9/30/2021 4:15:00 AM 15.79 60.422 0.2 7.36 2.86 9.29
9/30/2021 4:30:00 AM 15.77 60.386 0.2 7.36 2.39 9.3
9/30/2021 4:45:00 AM 15.76 60.368 0.2 7.37 2.51 9.32
9/30/2021 5:00:00 AM 15.75 60.35 0.2 7.36 2.55 9.31
9/30/2021 5:15:00 AM 15.74 60.332 0.2 7.36 2.12 9.34
9/30/2021 5:30:00 AM 15.72 60.296 0.2 7.36 2.41 9.34
9/30/2021 5:45:00 AM 15.71 60.278 0.2 7.36 2.35 9.34
9/30/2021 6:00:00 AM 15.69 60.242 0.2 7.35 2.26 9.31
9/30/2021 6:15:00 AM 15.67 60.206 0.2 7.36 2.53 9.31
9/30/2021 6:30:00 AM 15.65 60.17 0.2 7.36 2.86 9.33
9/30/2021 6:45:00 AM 15.63 60.134 0.2 7.36 2.41 9.31
9/30/2021 7:00:00 AM 15.6 60.08 0.2 7.36 2.39 9.34
9/30/2021 7:15:00 AM 15.57 60.026 0.201 7.36 2.38 9.35
9/30/2021 7:30:00 AM 15.53 59.954 0.2 7.37 2.57 9.41
9/30/2021 7:45:00 AM 15.49 59.882 0.201 7.37 2.28 9.45
9/30/2021 8:00:00 AM 15.46 59.828 0.201 7.38 2.13 9.5
9/30/2021 8:15:00 AM 15.45 59.81 0.201 7.39 2.1 9.56
9/30/2021 8:30:00 AM 15.45 59.81 0.201 7.41 2.22 9.69
9/30/2021 8:45:00 AM 15.45 59.81 0.201 7.42 2.16 9.76
9/30/2021 9:00:00 AM 15.44 59.792 0.201 7.44 2.05 9.82
9/30/2021 9:15:00 AM 15.48 59.864 0.201 7.48 2.11 10.01
9/30/2021 9:30:00 AM 15.5 59.9 0.201 7.51 2.22 10.14
9/30/2021 9:45:00 AM 15.53 59.954 0.201 7.54 1.99 10.21
9/30/2021 10:00:00 AM 15.55 59.99 0.201 7.58 2.7 10.35
9/30/2021 10:15:00 AM 15.57 60.026 0.201 7.59 2.55 10.38
9/30/2021 10:30:00 AM 15.59 60.062 0.201 7.62 2.26 10.47
9/30/2021 10:45:00 AM 15.6 60.08 0.201 7.65 1.83 10.52